<?xml version="1.0" encoding="UTF-8" standalone="no" ?>
<gpx xmlns="http://www.topografix.com/GPX/1/1" xmlns:xsi="http://www.w3.org/2001/XMLSchema-instance" xsi:schemaLocation="http://www.topografix.com/GPX/1/1 http://www.topografix.com/GPX/1/1/gpx.xsd" version="1.1" creator="VisuGPX - https://www.visugpx.com">
  <metadata>
    <name>Piégros la Clastre chapelle St Médard</name>
  </metadata>
  <trk>
    <name><![CDATA[2022-05-18 16:21:29]]></name>
    <trkseg>
      <trkpt lat="44.69833" lon="5.09846">
        <ele>238.06</ele>
        <time>2022-05-18T06:36:27Z</time>
      </trkpt>
      <trkpt lat="44.69833" lon="5.09846">
        <ele>238.06</ele>
        <time>2022-05-18T06:36:28Z</time>
      </trkpt>
      <trkpt lat="44.69823" lon="5.09836">
        <ele>241.43</ele>
        <time>2022-05-18T06:36:32Z</time>
      </trkpt>
      <trkpt lat="44.69824" lon="5.09824">
        <ele>239.99</ele>
        <time>2022-05-18T06:36:59Z</time>
      </trkpt>
      <trkpt lat="44.69824" lon="5.09823">
        <ele>239.51</ele>
        <time>2022-05-18T06:37:25Z</time>
      </trkpt>
      <trkpt lat="44.69824" lon="5.09822">
        <ele>239.51</ele>
        <time>2022-05-18T06:37:58Z</time>
      </trkpt>
      <trkpt lat="44.69817" lon="5.09822">
        <ele>239.02</ele>
        <time>2022-05-18T06:38:24Z</time>
      </trkpt>
      <trkpt lat="44.69816" lon="5.09816">
        <ele>239.51</ele>
        <time>2022-05-18T06:38:40Z</time>
      </trkpt>
      <trkpt lat="44.69816" lon="5.09814">
        <ele>239.51</ele>
        <time>2022-05-18T06:38:44Z</time>
      </trkpt>
      <trkpt lat="44.69816" lon="5.098">
        <ele>239.02</ele>
        <time>2022-05-18T06:39:03Z</time>
      </trkpt>
      <trkpt lat="44.69815" lon="5.0979">
        <ele>239.02</ele>
        <time>2022-05-18T06:39:19Z</time>
      </trkpt>
      <trkpt lat="44.69816" lon="5.09788">
        <ele>239.02</ele>
        <time>2022-05-18T06:39:39Z</time>
      </trkpt>
      <trkpt lat="44.69816" lon="5.09787">
        <ele>236.14</ele>
        <time>2022-05-18T06:39:45Z</time>
      </trkpt>
      <trkpt lat="44.69817" lon="5.09786">
        <ele>235.18</ele>
        <time>2022-05-18T06:39:47Z</time>
      </trkpt>
      <trkpt lat="44.69817" lon="5.09785">
        <ele>239.02</ele>
        <time>2022-05-18T06:39:48Z</time>
      </trkpt>
      <trkpt lat="44.69818" lon="5.09784">
        <ele>242.39</ele>
        <time>2022-05-18T06:39:51Z</time>
      </trkpt>
      <trkpt lat="44.69827" lon="5.09782">
        <ele>239.99</ele>
        <time>2022-05-18T06:40:01Z</time>
      </trkpt>
      <trkpt lat="44.69828" lon="5.09782">
        <ele>239.99</ele>
        <time>2022-05-18T06:40:02Z</time>
      </trkpt>
      <trkpt lat="44.69848" lon="5.09775">
        <ele>239.02</ele>
        <time>2022-05-18T06:40:24Z</time>
      </trkpt>
      <trkpt lat="44.69862" lon="5.09769">
        <ele>238.54</ele>
        <time>2022-05-18T06:40:41Z</time>
      </trkpt>
      <trkpt lat="44.69876" lon="5.09767">
        <ele>238.54</ele>
        <time>2022-05-18T06:40:57Z</time>
      </trkpt>
      <trkpt lat="44.69886" lon="5.09766">
        <ele>238.54</ele>
        <time>2022-05-18T06:41:18Z</time>
      </trkpt>
      <trkpt lat="44.69887" lon="5.09767">
        <ele>238.54</ele>
        <time>2022-05-18T06:41:39Z</time>
      </trkpt>
      <trkpt lat="44.69888" lon="5.09766">
        <ele>238.54</ele>
        <time>2022-05-18T06:41:58Z</time>
      </trkpt>
      <trkpt lat="44.69887" lon="5.09754">
        <ele>238.54</ele>
        <time>2022-05-18T06:42:24Z</time>
      </trkpt>
      <trkpt lat="44.69886" lon="5.09742">
        <ele>239.02</ele>
        <time>2022-05-18T06:42:34Z</time>
      </trkpt>
      <trkpt lat="44.6988" lon="5.09726">
        <ele>239.51</ele>
        <time>2022-05-18T06:42:48Z</time>
      </trkpt>
      <trkpt lat="44.69875" lon="5.0971">
        <ele>239.99</ele>
        <time>2022-05-18T06:43:03Z</time>
      </trkpt>
      <trkpt lat="44.69874" lon="5.09698">
        <ele>240.47</ele>
        <time>2022-05-18T06:43:16Z</time>
      </trkpt>
      <trkpt lat="44.69871" lon="5.09682">
        <ele>241.43</ele>
        <time>2022-05-18T06:43:31Z</time>
      </trkpt>
      <trkpt lat="44.69876" lon="5.09662">
        <ele>242.87</ele>
        <time>2022-05-18T06:43:50Z</time>
      </trkpt>
      <trkpt lat="44.69877" lon="5.09655">
        <ele>243.83</ele>
        <time>2022-05-18T06:44:13Z</time>
      </trkpt>
      <trkpt lat="44.69875" lon="5.09645">
        <ele>244.31</ele>
        <time>2022-05-18T06:44:23Z</time>
      </trkpt>
      <trkpt lat="44.69874" lon="5.09644">
        <ele>244.31</ele>
        <time>2022-05-18T06:44:24Z</time>
      </trkpt>
      <trkpt lat="44.6987" lon="5.09626">
        <ele>247.2</ele>
        <time>2022-05-18T06:44:40Z</time>
      </trkpt>
      <trkpt lat="44.69862" lon="5.0961">
        <ele>250.08</ele>
        <time>2022-05-18T06:44:58Z</time>
      </trkpt>
      <trkpt lat="44.69857" lon="5.09591">
        <ele>252.96</ele>
        <time>2022-05-18T06:45:17Z</time>
      </trkpt>
      <trkpt lat="44.69853" lon="5.09575">
        <ele>256.33</ele>
        <time>2022-05-18T06:45:37Z</time>
      </trkpt>
      <trkpt lat="44.6985" lon="5.09569">
        <ele>258.25</ele>
        <time>2022-05-18T06:45:55Z</time>
      </trkpt>
      <trkpt lat="44.69845" lon="5.09557">
        <ele>261.14</ele>
        <time>2022-05-18T06:46:14Z</time>
      </trkpt>
      <trkpt lat="44.69839" lon="5.09545">
        <ele>264.02</ele>
        <time>2022-05-18T06:46:30Z</time>
      </trkpt>
      <trkpt lat="44.69833" lon="5.0953">
        <ele>267.38</ele>
        <time>2022-05-18T06:46:47Z</time>
      </trkpt>
      <trkpt lat="44.69826" lon="5.0951">
        <ele>268.83</ele>
        <time>2022-05-18T06:47:05Z</time>
      </trkpt>
      <trkpt lat="44.69818" lon="5.09497">
        <ele>269.31</ele>
        <time>2022-05-18T06:47:20Z</time>
      </trkpt>
      <trkpt lat="44.69808" lon="5.09488">
        <ele>269.31</ele>
        <time>2022-05-18T06:47:33Z</time>
      </trkpt>
      <trkpt lat="44.69806" lon="5.09486">
        <ele>269.79</ele>
        <time>2022-05-18T06:47:36Z</time>
      </trkpt>
      <trkpt lat="44.69791" lon="5.0947">
        <ele>270.27</ele>
        <time>2022-05-18T06:47:55Z</time>
      </trkpt>
      <trkpt lat="44.69776" lon="5.09456">
        <ele>271.23</ele>
        <time>2022-05-18T06:48:12Z</time>
      </trkpt>
      <trkpt lat="44.69765" lon="5.09444">
        <ele>271.71</ele>
        <time>2022-05-18T06:48:26Z</time>
      </trkpt>
      <trkpt lat="44.69752" lon="5.09428">
        <ele>272.19</ele>
        <time>2022-05-18T06:48:42Z</time>
      </trkpt>
      <trkpt lat="44.69747" lon="5.09419">
        <ele>272.67</ele>
        <time>2022-05-18T06:48:51Z</time>
      </trkpt>
      <trkpt lat="44.6974" lon="5.09409">
        <ele>273.15</ele>
        <time>2022-05-18T06:49:04Z</time>
      </trkpt>
      <trkpt lat="44.69726" lon="5.09404">
        <ele>273.63</ele>
        <time>2022-05-18T06:49:20Z</time>
      </trkpt>
      <trkpt lat="44.69711" lon="5.09399">
        <ele>275.56</ele>
        <time>2022-05-18T06:49:39Z</time>
      </trkpt>
      <trkpt lat="44.69697" lon="5.09394">
        <ele>277.48</ele>
        <time>2022-05-18T06:49:56Z</time>
      </trkpt>
      <trkpt lat="44.6968" lon="5.09393">
        <ele>279.4</ele>
        <time>2022-05-18T06:50:14Z</time>
      </trkpt>
      <trkpt lat="44.69665" lon="5.09394">
        <ele>281.8</ele>
        <time>2022-05-18T06:50:33Z</time>
      </trkpt>
      <trkpt lat="44.69651" lon="5.09393">
        <ele>284.21</ele>
        <time>2022-05-18T06:50:49Z</time>
      </trkpt>
      <trkpt lat="44.69639" lon="5.09395">
        <ele>285.17</ele>
        <time>2022-05-18T06:51:01Z</time>
      </trkpt>
      <trkpt lat="44.69615" lon="5.0941">
        <ele>285.17</ele>
        <time>2022-05-18T06:51:25Z</time>
      </trkpt>
      <trkpt lat="44.69589" lon="5.09424">
        <ele>284.69</ele>
        <time>2022-05-18T06:51:49Z</time>
      </trkpt>
      <trkpt lat="44.69561" lon="5.09433">
        <ele>285.17</ele>
        <time>2022-05-18T06:52:16Z</time>
      </trkpt>
      <trkpt lat="44.69537" lon="5.09442">
        <ele>285.17</ele>
        <time>2022-05-18T06:52:39Z</time>
      </trkpt>
      <trkpt lat="44.69515" lon="5.09448">
        <ele>283.73</ele>
        <time>2022-05-18T06:53:00Z</time>
      </trkpt>
      <trkpt lat="44.6949" lon="5.09453">
        <ele>283.73</ele>
        <time>2022-05-18T06:53:23Z</time>
      </trkpt>
      <trkpt lat="44.69468" lon="5.09454">
        <ele>283.73</ele>
        <time>2022-05-18T06:53:43Z</time>
      </trkpt>
      <trkpt lat="44.69441" lon="5.09446">
        <ele>284.21</ele>
        <time>2022-05-18T06:54:09Z</time>
      </trkpt>
      <trkpt lat="44.69421" lon="5.09442">
        <ele>285.65</ele>
        <time>2022-05-18T06:54:29Z</time>
      </trkpt>
      <trkpt lat="44.69403" lon="5.09441">
        <ele>287.57</ele>
        <time>2022-05-18T06:54:49Z</time>
      </trkpt>
      <trkpt lat="44.69387" lon="5.09443">
        <ele>289.97</ele>
        <time>2022-05-18T06:55:08Z</time>
      </trkpt>
      <trkpt lat="44.69371" lon="5.09447">
        <ele>293.34</ele>
        <time>2022-05-18T06:55:29Z</time>
      </trkpt>
      <trkpt lat="44.69364" lon="5.09453">
        <ele>295.26</ele>
        <time>2022-05-18T06:55:46Z</time>
      </trkpt>
      <trkpt lat="44.69362" lon="5.09459">
        <ele>296.7</ele>
        <time>2022-05-18T06:56:03Z</time>
      </trkpt>
      <trkpt lat="44.69365" lon="5.09455">
        <ele>296.7</ele>
        <time>2022-05-18T06:56:18Z</time>
      </trkpt>
      <trkpt lat="44.69362" lon="5.09459">
        <ele>296.7</ele>
        <time>2022-05-18T06:56:34Z</time>
      </trkpt>
      <trkpt lat="44.6936" lon="5.09465">
        <ele>297.18</ele>
        <time>2022-05-18T06:56:46Z</time>
      </trkpt>
      <trkpt lat="44.69359" lon="5.09466">
        <ele>297.67</ele>
        <time>2022-05-18T06:56:47Z</time>
      </trkpt>
      <trkpt lat="44.69352" lon="5.0948">
        <ele>298.15</ele>
        <time>2022-05-18T06:57:02Z</time>
      </trkpt>
      <trkpt lat="44.69349" lon="5.09485">
        <ele>298.63</ele>
        <time>2022-05-18T06:57:06Z</time>
      </trkpt>
      <trkpt lat="44.6934" lon="5.09506">
        <ele>299.11</ele>
        <time>2022-05-18T06:57:26Z</time>
      </trkpt>
      <trkpt lat="44.69334" lon="5.09519">
        <ele>299.11</ele>
        <time>2022-05-18T06:57:48Z</time>
      </trkpt>
      <trkpt lat="44.69325" lon="5.09534">
        <ele>298.63</ele>
        <time>2022-05-18T06:58:07Z</time>
      </trkpt>
      <trkpt lat="44.69322" lon="5.09539">
        <ele>298.63</ele>
        <time>2022-05-18T06:58:26Z</time>
      </trkpt>
      <trkpt lat="44.69321" lon="5.0954">
        <ele>298.63</ele>
        <time>2022-05-18T06:58:27Z</time>
      </trkpt>
      <trkpt lat="44.6932" lon="5.09541">
        <ele>298.63</ele>
        <time>2022-05-18T06:58:28Z</time>
      </trkpt>
      <trkpt lat="44.6932" lon="5.09542">
        <ele>298.63</ele>
        <time>2022-05-18T06:58:29Z</time>
      </trkpt>
      <trkpt lat="44.69314" lon="5.09548">
        <ele>298.63</ele>
        <time>2022-05-18T06:58:40Z</time>
      </trkpt>
      <trkpt lat="44.69313" lon="5.09549">
        <ele>298.63</ele>
        <time>2022-05-18T06:58:41Z</time>
      </trkpt>
      <trkpt lat="44.69312" lon="5.09551">
        <ele>298.63</ele>
        <time>2022-05-18T06:58:43Z</time>
      </trkpt>
      <trkpt lat="44.69311" lon="5.09552">
        <ele>298.63</ele>
        <time>2022-05-18T06:58:44Z</time>
      </trkpt>
      <trkpt lat="44.69305" lon="5.09558">
        <ele>299.11</ele>
        <time>2022-05-18T06:58:53Z</time>
      </trkpt>
      <trkpt lat="44.69305" lon="5.09559">
        <ele>299.11</ele>
        <time>2022-05-18T06:58:54Z</time>
      </trkpt>
      <trkpt lat="44.69304" lon="5.0956">
        <ele>299.11</ele>
        <time>2022-05-18T06:58:55Z</time>
      </trkpt>
      <trkpt lat="44.69303" lon="5.09561">
        <ele>299.11</ele>
        <time>2022-05-18T06:58:56Z</time>
      </trkpt>
      <trkpt lat="44.69302" lon="5.09562">
        <ele>299.11</ele>
        <time>2022-05-18T06:58:57Z</time>
      </trkpt>
      <trkpt lat="44.69283" lon="5.09575">
        <ele>299.59</ele>
        <time>2022-05-18T06:59:16Z</time>
      </trkpt>
      <trkpt lat="44.69264" lon="5.09574">
        <ele>300.07</ele>
        <time>2022-05-18T06:59:34Z</time>
      </trkpt>
      <trkpt lat="44.69254" lon="5.09564">
        <ele>301.03</ele>
        <time>2022-05-18T06:59:47Z</time>
      </trkpt>
      <trkpt lat="44.69232" lon="5.09562">
        <ele>303.43</ele>
        <time>2022-05-18T07:00:09Z</time>
      </trkpt>
      <trkpt lat="44.69211" lon="5.09557">
        <ele>304.39</ele>
        <time>2022-05-18T07:00:30Z</time>
      </trkpt>
      <trkpt lat="44.69209" lon="5.09554">
        <ele>304.39</ele>
        <time>2022-05-18T07:00:33Z</time>
      </trkpt>
      <trkpt lat="44.69213" lon="5.09536">
        <ele>304.88</ele>
        <time>2022-05-18T07:00:49Z</time>
      </trkpt>
      <trkpt lat="44.69218" lon="5.09519">
        <ele>307.28</ele>
        <time>2022-05-18T07:01:08Z</time>
      </trkpt>
      <trkpt lat="44.69223" lon="5.09499">
        <ele>309.68</ele>
        <time>2022-05-18T07:01:27Z</time>
      </trkpt>
      <trkpt lat="44.6923" lon="5.09479">
        <ele>312.09</ele>
        <time>2022-05-18T07:01:46Z</time>
      </trkpt>
      <trkpt lat="44.69232" lon="5.09475">
        <ele>312.57</ele>
        <time>2022-05-18T07:01:49Z</time>
      </trkpt>
      <trkpt lat="44.69239" lon="5.0945">
        <ele>314.49</ele>
        <time>2022-05-18T07:02:10Z</time>
      </trkpt>
      <trkpt lat="44.69241" lon="5.09444">
        <ele>314.49</ele>
        <time>2022-05-18T07:02:16Z</time>
      </trkpt>
      <trkpt lat="44.69243" lon="5.09432">
        <ele>314.97</ele>
        <time>2022-05-18T07:02:27Z</time>
      </trkpt>
      <trkpt lat="44.69243" lon="5.0943">
        <ele>314.97</ele>
        <time>2022-05-18T07:02:28Z</time>
      </trkpt>
      <trkpt lat="44.69242" lon="5.09419">
        <ele>314.97</ele>
        <time>2022-05-18T07:02:36Z</time>
      </trkpt>
      <trkpt lat="44.69227" lon="5.09411">
        <ele>315.45</ele>
        <time>2022-05-18T07:02:52Z</time>
      </trkpt>
      <trkpt lat="44.69206" lon="5.09403">
        <ele>317.37</ele>
        <time>2022-05-18T07:03:14Z</time>
      </trkpt>
      <trkpt lat="44.69189" lon="5.09397">
        <ele>318.81</ele>
        <time>2022-05-18T07:03:34Z</time>
      </trkpt>
      <trkpt lat="44.69182" lon="5.09394">
        <ele>319.3</ele>
        <time>2022-05-18T07:03:50Z</time>
      </trkpt>
      <trkpt lat="44.69168" lon="5.09389">
        <ele>320.26</ele>
        <time>2022-05-18T07:04:07Z</time>
      </trkpt>
      <trkpt lat="44.6915" lon="5.09383">
        <ele>321.22</ele>
        <time>2022-05-18T07:04:26Z</time>
      </trkpt>
      <trkpt lat="44.69135" lon="5.09378">
        <ele>322.18</ele>
        <time>2022-05-18T07:04:46Z</time>
      </trkpt>
      <trkpt lat="44.69116" lon="5.09373">
        <ele>323.14</ele>
        <time>2022-05-18T07:05:08Z</time>
      </trkpt>
      <trkpt lat="44.69099" lon="5.09366">
        <ele>324.58</ele>
        <time>2022-05-18T07:05:29Z</time>
      </trkpt>
      <trkpt lat="44.69086" lon="5.09364">
        <ele>325.54</ele>
        <time>2022-05-18T07:05:47Z</time>
      </trkpt>
      <trkpt lat="44.69071" lon="5.09379">
        <ele>326.99</ele>
        <time>2022-05-18T07:06:08Z</time>
      </trkpt>
      <trkpt lat="44.69064" lon="5.09387">
        <ele>328.43</ele>
        <time>2022-05-18T07:06:23Z</time>
      </trkpt>
      <trkpt lat="44.6906" lon="5.09392">
        <ele>328.91</ele>
        <time>2022-05-18T07:06:32Z</time>
      </trkpt>
      <trkpt lat="44.69047" lon="5.09402">
        <ele>330.35</ele>
        <time>2022-05-18T07:06:49Z</time>
      </trkpt>
      <trkpt lat="44.69029" lon="5.09406">
        <ele>332.27</ele>
        <time>2022-05-18T07:07:09Z</time>
      </trkpt>
      <trkpt lat="44.69015" lon="5.09403">
        <ele>333.71</ele>
        <time>2022-05-18T07:07:29Z</time>
      </trkpt>
      <trkpt lat="44.69007" lon="5.09406">
        <ele>335.64</ele>
        <time>2022-05-18T07:07:46Z</time>
      </trkpt>
      <trkpt lat="44.68993" lon="5.09416">
        <ele>338.52</ele>
        <time>2022-05-18T07:08:14Z</time>
      </trkpt>
      <trkpt lat="44.68975" lon="5.09426">
        <ele>339.96</ele>
        <time>2022-05-18T07:08:37Z</time>
      </trkpt>
      <trkpt lat="44.68956" lon="5.09437">
        <ele>340.44</ele>
        <time>2022-05-18T07:09:03Z</time>
      </trkpt>
      <trkpt lat="44.68934" lon="5.09442">
        <ele>341.41</ele>
        <time>2022-05-18T07:09:29Z</time>
      </trkpt>
      <trkpt lat="44.68923" lon="5.09442">
        <ele>342.85</ele>
        <time>2022-05-18T07:09:55Z</time>
      </trkpt>
      <trkpt lat="44.68917" lon="5.0943">
        <ele>345.73</ele>
        <time>2022-05-18T07:10:20Z</time>
      </trkpt>
      <trkpt lat="44.68908" lon="5.09422">
        <ele>348.62</ele>
        <time>2022-05-18T07:10:44Z</time>
      </trkpt>
      <trkpt lat="44.68902" lon="5.09409">
        <ele>351.98</ele>
        <time>2022-05-18T07:11:02Z</time>
      </trkpt>
      <trkpt lat="44.68897" lon="5.09401">
        <ele>353.9</ele>
        <time>2022-05-18T07:11:25Z</time>
      </trkpt>
      <trkpt lat="44.68895" lon="5.09391">
        <ele>356.79</ele>
        <time>2022-05-18T07:11:53Z</time>
      </trkpt>
      <trkpt lat="44.6889" lon="5.09387">
        <ele>358.71</ele>
        <time>2022-05-18T07:12:13Z</time>
      </trkpt>
      <trkpt lat="44.68889" lon="5.09379">
        <ele>361.59</ele>
        <time>2022-05-18T07:12:38Z</time>
      </trkpt>
      <trkpt lat="44.68888" lon="5.0937">
        <ele>364.48</ele>
        <time>2022-05-18T07:12:57Z</time>
      </trkpt>
      <trkpt lat="44.68886" lon="5.09363">
        <ele>366.4</ele>
        <time>2022-05-18T07:13:07Z</time>
      </trkpt>
      <trkpt lat="44.68885" lon="5.09346">
        <ele>367.36</ele>
        <time>2022-05-18T07:13:23Z</time>
      </trkpt>
      <trkpt lat="44.6888" lon="5.09333">
        <ele>366.88</ele>
        <time>2022-05-18T07:13:40Z</time>
      </trkpt>
      <trkpt lat="44.68877" lon="5.09324">
        <ele>366.4</ele>
        <time>2022-05-18T07:13:56Z</time>
      </trkpt>
      <trkpt lat="44.68877" lon="5.09323">
        <ele>366.4</ele>
        <time>2022-05-18T07:14:23Z</time>
      </trkpt>
      <trkpt lat="44.68877" lon="5.09323">
        <ele>366.4</ele>
        <time>2022-05-18T07:14:45Z</time>
      </trkpt>
      <trkpt lat="44.68876" lon="5.09325">
        <ele>366.4</ele>
        <time>2022-05-18T07:15:10Z</time>
      </trkpt>
      <trkpt lat="44.68875" lon="5.09325">
        <ele>366.4</ele>
        <time>2022-05-18T07:15:53Z</time>
      </trkpt>
      <trkpt lat="44.68875" lon="5.09325">
        <ele>366.4</ele>
        <time>2022-05-18T07:16:13Z</time>
      </trkpt>
      <trkpt lat="44.68875" lon="5.09325">
        <ele>366.4</ele>
        <time>2022-05-18T07:16:57Z</time>
      </trkpt>
      <trkpt lat="44.68875" lon="5.09325">
        <ele>366.4</ele>
        <time>2022-05-18T07:17:37Z</time>
      </trkpt>
      <trkpt lat="44.68875" lon="5.09325">
        <ele>366.4</ele>
        <time>2022-05-18T07:18:17Z</time>
      </trkpt>
      <trkpt lat="44.68875" lon="5.09325">
        <ele>366.4</ele>
        <time>2022-05-18T07:18:43Z</time>
      </trkpt>
      <trkpt lat="44.68867" lon="5.09325">
        <ele>366.4</ele>
        <time>2022-05-18T07:19:18Z</time>
      </trkpt>
      <trkpt lat="44.68855" lon="5.09323">
        <ele>365.92</ele>
        <time>2022-05-18T07:19:30Z</time>
      </trkpt>
      <trkpt lat="44.68849" lon="5.0932">
        <ele>365.92</ele>
        <time>2022-05-18T07:19:37Z</time>
      </trkpt>
      <trkpt lat="44.68848" lon="5.09319">
        <ele>365.92</ele>
        <time>2022-05-18T07:19:38Z</time>
      </trkpt>
      <trkpt lat="44.68847" lon="5.09318">
        <ele>365.92</ele>
        <time>2022-05-18T07:19:39Z</time>
      </trkpt>
      <trkpt lat="44.68847" lon="5.09317">
        <ele>365.92</ele>
        <time>2022-05-18T07:19:40Z</time>
      </trkpt>
      <trkpt lat="44.68846" lon="5.09316">
        <ele>365.92</ele>
        <time>2022-05-18T07:19:41Z</time>
      </trkpt>
      <trkpt lat="44.68845" lon="5.09315">
        <ele>365.44</ele>
        <time>2022-05-18T07:19:42Z</time>
      </trkpt>
      <trkpt lat="44.68844" lon="5.09314">
        <ele>365.44</ele>
        <time>2022-05-18T07:19:43Z</time>
      </trkpt>
      <trkpt lat="44.68831" lon="5.09289">
        <ele>365.44</ele>
        <time>2022-05-18T07:20:05Z</time>
      </trkpt>
      <trkpt lat="44.6882" lon="5.09275">
        <ele>366.4</ele>
        <time>2022-05-18T07:20:21Z</time>
      </trkpt>
      <trkpt lat="44.6882" lon="5.09273">
        <ele>366.4</ele>
        <time>2022-05-18T07:20:23Z</time>
      </trkpt>
      <trkpt lat="44.68823" lon="5.09264">
        <ele>366.88</ele>
        <time>2022-05-18T07:20:31Z</time>
      </trkpt>
      <trkpt lat="44.68835" lon="5.09238">
        <ele>369.28</ele>
        <time>2022-05-18T07:20:54Z</time>
      </trkpt>
      <trkpt lat="44.68843" lon="5.09212">
        <ele>370.24</ele>
        <time>2022-05-18T07:21:15Z</time>
      </trkpt>
      <trkpt lat="44.68852" lon="5.09182">
        <ele>371.21</ele>
        <time>2022-05-18T07:21:37Z</time>
      </trkpt>
      <trkpt lat="44.68854" lon="5.09157">
        <ele>371.69</ele>
        <time>2022-05-18T07:21:57Z</time>
      </trkpt>
      <trkpt lat="44.68854" lon="5.09155">
        <ele>371.69</ele>
        <time>2022-05-18T07:21:59Z</time>
      </trkpt>
      <trkpt lat="44.68845" lon="5.09139">
        <ele>372.65</ele>
        <time>2022-05-18T07:22:13Z</time>
      </trkpt>
      <trkpt lat="44.68831" lon="5.09119">
        <ele>375.05</ele>
        <time>2022-05-18T07:22:34Z</time>
      </trkpt>
      <trkpt lat="44.68818" lon="5.09098">
        <ele>377.94</ele>
        <time>2022-05-18T07:22:56Z</time>
      </trkpt>
      <trkpt lat="44.68807" lon="5.09075">
        <ele>379.86</ele>
        <time>2022-05-18T07:23:19Z</time>
      </trkpt>
      <trkpt lat="44.68808" lon="5.09064">
        <ele>380.82</ele>
        <time>2022-05-18T07:23:34Z</time>
      </trkpt>
      <trkpt lat="44.68804" lon="5.09049">
        <ele>381.78</ele>
        <time>2022-05-18T07:23:50Z</time>
      </trkpt>
      <trkpt lat="44.68802" lon="5.09027">
        <ele>384.18</ele>
        <time>2022-05-18T07:24:12Z</time>
      </trkpt>
      <trkpt lat="44.68799" lon="5.09012">
        <ele>386.59</ele>
        <time>2022-05-18T07:24:29Z</time>
      </trkpt>
      <trkpt lat="44.68795" lon="5.08994">
        <ele>389.47</ele>
        <time>2022-05-18T07:24:47Z</time>
      </trkpt>
      <trkpt lat="44.68786" lon="5.08976">
        <ele>392.36</ele>
        <time>2022-05-18T07:25:07Z</time>
      </trkpt>
      <trkpt lat="44.68779" lon="5.08962">
        <ele>393.8</ele>
        <time>2022-05-18T07:25:26Z</time>
      </trkpt>
      <trkpt lat="44.68772" lon="5.08942">
        <ele>396.2</ele>
        <time>2022-05-18T07:25:48Z</time>
      </trkpt>
      <trkpt lat="44.68761" lon="5.08928">
        <ele>398.6</ele>
        <time>2022-05-18T07:26:09Z</time>
      </trkpt>
      <trkpt lat="44.68751" lon="5.08928">
        <ele>400.05</ele>
        <time>2022-05-18T07:26:24Z</time>
      </trkpt>
      <trkpt lat="44.68738" lon="5.08935">
        <ele>401.97</ele>
        <time>2022-05-18T07:26:45Z</time>
      </trkpt>
      <trkpt lat="44.68725" lon="5.08941">
        <ele>403.89</ele>
        <time>2022-05-18T07:27:03Z</time>
      </trkpt>
      <trkpt lat="44.68717" lon="5.08939">
        <ele>405.81</ele>
        <time>2022-05-18T07:27:22Z</time>
      </trkpt>
      <trkpt lat="44.68717" lon="5.08936">
        <ele>407.26</ele>
        <time>2022-05-18T07:27:47Z</time>
      </trkpt>
      <trkpt lat="44.68717" lon="5.08932">
        <ele>407.26</ele>
        <time>2022-05-18T07:27:50Z</time>
      </trkpt>
      <trkpt lat="44.68717" lon="5.08927">
        <ele>407.74</ele>
        <time>2022-05-18T07:27:54Z</time>
      </trkpt>
      <trkpt lat="44.68716" lon="5.08925">
        <ele>407.74</ele>
        <time>2022-05-18T07:27:55Z</time>
      </trkpt>
      <trkpt lat="44.68716" lon="5.08924">
        <ele>408.22</ele>
        <time>2022-05-18T07:27:56Z</time>
      </trkpt>
      <trkpt lat="44.68712" lon="5.08899">
        <ele>410.14</ele>
        <time>2022-05-18T07:28:14Z</time>
      </trkpt>
      <trkpt lat="44.68707" lon="5.08875">
        <ele>413.5</ele>
        <time>2022-05-18T07:28:34Z</time>
      </trkpt>
      <trkpt lat="44.68703" lon="5.08862">
        <ele>414.95</ele>
        <time>2022-05-18T07:28:46Z</time>
      </trkpt>
      <trkpt lat="44.687" lon="5.08845">
        <ele>417.35</ele>
        <time>2022-05-18T07:29:02Z</time>
      </trkpt>
      <trkpt lat="44.68697" lon="5.08827">
        <ele>419.75</ele>
        <time>2022-05-18T07:29:19Z</time>
      </trkpt>
      <trkpt lat="44.68694" lon="5.08805">
        <ele>422.64</ele>
        <time>2022-05-18T07:29:40Z</time>
      </trkpt>
      <trkpt lat="44.68694" lon="5.08789">
        <ele>424.08</ele>
        <time>2022-05-18T07:29:58Z</time>
      </trkpt>
      <trkpt lat="44.687" lon="5.08779">
        <ele>426</ele>
        <time>2022-05-18T07:30:13Z</time>
      </trkpt>
      <trkpt lat="44.687" lon="5.08769">
        <ele>427.44</ele>
        <time>2022-05-18T07:30:34Z</time>
      </trkpt>
      <trkpt lat="44.687" lon="5.08768">
        <ele>427.92</ele>
        <time>2022-05-18T07:30:56Z</time>
      </trkpt>
      <trkpt lat="44.687" lon="5.08768">
        <ele>427.92</ele>
        <time>2022-05-18T07:31:25Z</time>
      </trkpt>
      <trkpt lat="44.687" lon="5.08768">
        <ele>427.92</ele>
        <time>2022-05-18T07:31:52Z</time>
      </trkpt>
      <trkpt lat="44.687" lon="5.08766">
        <ele>427.92</ele>
        <time>2022-05-18T07:32:26Z</time>
      </trkpt>
      <trkpt lat="44.68699" lon="5.08759">
        <ele>427.92</ele>
        <time>2022-05-18T07:32:44Z</time>
      </trkpt>
      <trkpt lat="44.68698" lon="5.08747">
        <ele>427.92</ele>
        <time>2022-05-18T07:33:04Z</time>
      </trkpt>
      <trkpt lat="44.68697" lon="5.08743">
        <ele>427.92</ele>
        <time>2022-05-18T07:33:25Z</time>
      </trkpt>
      <trkpt lat="44.68697" lon="5.08742">
        <ele>427.92</ele>
        <time>2022-05-18T07:33:54Z</time>
      </trkpt>
      <trkpt lat="44.68697" lon="5.08736">
        <ele>427.92</ele>
        <time>2022-05-18T07:34:11Z</time>
      </trkpt>
      <trkpt lat="44.68705" lon="5.08732">
        <ele>430.81</ele>
        <time>2022-05-18T07:34:21Z</time>
      </trkpt>
      <trkpt lat="44.68715" lon="5.08732">
        <ele>431.77</ele>
        <time>2022-05-18T07:34:37Z</time>
      </trkpt>
      <trkpt lat="44.6872" lon="5.08723">
        <ele>431.77</ele>
        <time>2022-05-18T07:34:52Z</time>
      </trkpt>
      <trkpt lat="44.68723" lon="5.08705">
        <ele>433.69</ele>
        <time>2022-05-18T07:35:08Z</time>
      </trkpt>
      <trkpt lat="44.68722" lon="5.08684">
        <ele>436.1</ele>
        <time>2022-05-18T07:35:28Z</time>
      </trkpt>
      <trkpt lat="44.68709" lon="5.08672">
        <ele>437.54</ele>
        <time>2022-05-18T07:35:45Z</time>
      </trkpt>
      <trkpt lat="44.68703" lon="5.08665">
        <ele>438.98</ele>
        <time>2022-05-18T07:36:03Z</time>
      </trkpt>
      <trkpt lat="44.68717" lon="5.08657">
        <ele>440.9</ele>
        <time>2022-05-18T07:36:21Z</time>
      </trkpt>
      <trkpt lat="44.68727" lon="5.08648">
        <ele>442.82</ele>
        <time>2022-05-18T07:36:36Z</time>
      </trkpt>
      <trkpt lat="44.68732" lon="5.08632">
        <ele>443.79</ele>
        <time>2022-05-18T07:36:52Z</time>
      </trkpt>
      <trkpt lat="44.68738" lon="5.08618">
        <ele>445.71</ele>
        <time>2022-05-18T07:37:07Z</time>
      </trkpt>
      <trkpt lat="44.68743" lon="5.08602">
        <ele>447.63</ele>
        <time>2022-05-18T07:37:23Z</time>
      </trkpt>
      <trkpt lat="44.68755" lon="5.0858">
        <ele>450.03</ele>
        <time>2022-05-18T07:37:48Z</time>
      </trkpt>
      <trkpt lat="44.68763" lon="5.08557">
        <ele>453.4</ele>
        <time>2022-05-18T07:38:15Z</time>
      </trkpt>
      <trkpt lat="44.6877" lon="5.08533">
        <ele>455.32</ele>
        <time>2022-05-18T07:38:37Z</time>
      </trkpt>
      <trkpt lat="44.68775" lon="5.0851">
        <ele>458.21</ele>
        <time>2022-05-18T07:38:58Z</time>
      </trkpt>
      <trkpt lat="44.6878" lon="5.08488">
        <ele>460.61</ele>
        <time>2022-05-18T07:39:19Z</time>
      </trkpt>
      <trkpt lat="44.68782" lon="5.08474">
        <ele>462.05</ele>
        <time>2022-05-18T07:39:31Z</time>
      </trkpt>
      <trkpt lat="44.68785" lon="5.0845">
        <ele>464.45</ele>
        <time>2022-05-18T07:39:52Z</time>
      </trkpt>
      <trkpt lat="44.68792" lon="5.08428">
        <ele>467.82</ele>
        <time>2022-05-18T07:40:13Z</time>
      </trkpt>
      <trkpt lat="44.68802" lon="5.08413">
        <ele>470.7</ele>
        <time>2022-05-18T07:40:34Z</time>
      </trkpt>
      <trkpt lat="44.68809" lon="5.08395">
        <ele>473.59</ele>
        <time>2022-05-18T07:40:55Z</time>
      </trkpt>
      <trkpt lat="44.68814" lon="5.08362">
        <ele>476.95</ele>
        <time>2022-05-18T07:41:24Z</time>
      </trkpt>
      <trkpt lat="44.68822" lon="5.08331">
        <ele>478.39</ele>
        <time>2022-05-18T07:41:48Z</time>
      </trkpt>
      <trkpt lat="44.68826" lon="5.08319">
        <ele>478.39</ele>
        <time>2022-05-18T07:41:58Z</time>
      </trkpt>
      <trkpt lat="44.68829" lon="5.08311">
        <ele>478.87</ele>
        <time>2022-05-18T07:42:04Z</time>
      </trkpt>
      <trkpt lat="44.68833" lon="5.0829">
        <ele>479.35</ele>
        <time>2022-05-18T07:42:20Z</time>
      </trkpt>
      <trkpt lat="44.68837" lon="5.08272">
        <ele>480.8</ele>
        <time>2022-05-18T07:42:35Z</time>
      </trkpt>
      <trkpt lat="44.68835" lon="5.08247">
        <ele>480.8</ele>
        <time>2022-05-18T07:42:53Z</time>
      </trkpt>
      <trkpt lat="44.68836" lon="5.08225">
        <ele>480.32</ele>
        <time>2022-05-18T07:43:09Z</time>
      </trkpt>
      <trkpt lat="44.68834" lon="5.08202">
        <ele>481.28</ele>
        <time>2022-05-18T07:43:27Z</time>
      </trkpt>
      <trkpt lat="44.68831" lon="5.08194">
        <ele>482.24</ele>
        <time>2022-05-18T07:43:35Z</time>
      </trkpt>
      <trkpt lat="44.68829" lon="5.08187">
        <ele>482.72</ele>
        <time>2022-05-18T07:43:40Z</time>
      </trkpt>
      <trkpt lat="44.68819" lon="5.08169">
        <ele>484.64</ele>
        <time>2022-05-18T07:43:58Z</time>
      </trkpt>
      <trkpt lat="44.68811" lon="5.08157">
        <ele>486.56</ele>
        <time>2022-05-18T07:44:14Z</time>
      </trkpt>
      <trkpt lat="44.68799" lon="5.08144">
        <ele>488.49</ele>
        <time>2022-05-18T07:44:34Z</time>
      </trkpt>
      <trkpt lat="44.68794" lon="5.08138">
        <ele>490.41</ele>
        <time>2022-05-18T07:44:52Z</time>
      </trkpt>
      <trkpt lat="44.68782" lon="5.0812">
        <ele>490.89</ele>
        <time>2022-05-18T07:45:13Z</time>
      </trkpt>
      <trkpt lat="44.68774" lon="5.08112">
        <ele>491.85</ele>
        <time>2022-05-18T07:45:25Z</time>
      </trkpt>
      <trkpt lat="44.68764" lon="5.08093">
        <ele>493.29</ele>
        <time>2022-05-18T07:45:43Z</time>
      </trkpt>
      <trkpt lat="44.68759" lon="5.08066">
        <ele>496.18</ele>
        <time>2022-05-18T07:46:03Z</time>
      </trkpt>
      <trkpt lat="44.68754" lon="5.08042">
        <ele>497.62</ele>
        <time>2022-05-18T07:46:22Z</time>
      </trkpt>
      <trkpt lat="44.68753" lon="5.08017">
        <ele>498.58</ele>
        <time>2022-05-18T07:46:40Z</time>
      </trkpt>
      <trkpt lat="44.68753" lon="5.08012">
        <ele>498.58</ele>
        <time>2022-05-18T07:46:44Z</time>
      </trkpt>
      <trkpt lat="44.68748" lon="5.07989">
        <ele>498.58</ele>
        <time>2022-05-18T07:47:01Z</time>
      </trkpt>
      <trkpt lat="44.68746" lon="5.07968">
        <ele>498.1</ele>
        <time>2022-05-18T07:47:16Z</time>
      </trkpt>
      <trkpt lat="44.68745" lon="5.07941">
        <ele>497.14</ele>
        <time>2022-05-18T07:47:36Z</time>
      </trkpt>
      <trkpt lat="44.68746" lon="5.0791">
        <ele>497.62</ele>
        <time>2022-05-18T07:47:57Z</time>
      </trkpt>
      <trkpt lat="44.68746" lon="5.07881">
        <ele>497.14</ele>
        <time>2022-05-18T07:48:16Z</time>
      </trkpt>
      <trkpt lat="44.68745" lon="5.07861">
        <ele>497.14</ele>
        <time>2022-05-18T07:48:31Z</time>
      </trkpt>
      <trkpt lat="44.6874" lon="5.07844">
        <ele>497.62</ele>
        <time>2022-05-18T07:48:47Z</time>
      </trkpt>
      <trkpt lat="44.68729" lon="5.07818">
        <ele>498.58</ele>
        <time>2022-05-18T07:49:06Z</time>
      </trkpt>
      <trkpt lat="44.68719" lon="5.07803">
        <ele>499.06</ele>
        <time>2022-05-18T07:49:22Z</time>
      </trkpt>
      <trkpt lat="44.68705" lon="5.07785">
        <ele>499.54</ele>
        <time>2022-05-18T07:49:43Z</time>
      </trkpt>
      <trkpt lat="44.68703" lon="5.07774">
        <ele>500.5</ele>
        <time>2022-05-18T07:50:03Z</time>
      </trkpt>
      <trkpt lat="44.68697" lon="5.07761">
        <ele>500.98</ele>
        <time>2022-05-18T07:50:21Z</time>
      </trkpt>
      <trkpt lat="44.68697" lon="5.0776">
        <ele>500.98</ele>
        <time>2022-05-18T07:50:42Z</time>
      </trkpt>
      <trkpt lat="44.68696" lon="5.07756">
        <ele>500.98</ele>
        <time>2022-05-18T07:50:54Z</time>
      </trkpt>
      <trkpt lat="44.68693" lon="5.07749">
        <ele>500.98</ele>
        <time>2022-05-18T07:51:00Z</time>
      </trkpt>
      <trkpt lat="44.68691" lon="5.07726">
        <ele>502.91</ele>
        <time>2022-05-18T07:51:20Z</time>
      </trkpt>
      <trkpt lat="44.68697" lon="5.07697">
        <ele>505.31</ele>
        <time>2022-05-18T07:51:45Z</time>
      </trkpt>
      <trkpt lat="44.68701" lon="5.07676">
        <ele>507.23</ele>
        <time>2022-05-18T07:52:01Z</time>
      </trkpt>
      <trkpt lat="44.68708" lon="5.07645">
        <ele>508.67</ele>
        <time>2022-05-18T07:52:23Z</time>
      </trkpt>
      <trkpt lat="44.68711" lon="5.07618">
        <ele>509.64</ele>
        <time>2022-05-18T07:52:43Z</time>
      </trkpt>
      <trkpt lat="44.68711" lon="5.07603">
        <ele>510.12</ele>
        <time>2022-05-18T07:52:53Z</time>
      </trkpt>
      <trkpt lat="44.68711" lon="5.07601">
        <ele>510.12</ele>
        <time>2022-05-18T07:52:54Z</time>
      </trkpt>
      <trkpt lat="44.68707" lon="5.07574">
        <ele>511.56</ele>
        <time>2022-05-18T07:53:13Z</time>
      </trkpt>
      <trkpt lat="44.68707" lon="5.07552">
        <ele>512.04</ele>
        <time>2022-05-18T07:53:30Z</time>
      </trkpt>
      <trkpt lat="44.68708" lon="5.07552">
        <ele>512.04</ele>
        <time>2022-05-18T07:53:52Z</time>
      </trkpt>
      <trkpt lat="44.6871" lon="5.0755">
        <ele>512.52</ele>
        <time>2022-05-18T07:54:20Z</time>
      </trkpt>
      <trkpt lat="44.68711" lon="5.07549">
        <ele>512.04</ele>
        <time>2022-05-18T07:54:41Z</time>
      </trkpt>
      <trkpt lat="44.68711" lon="5.07547">
        <ele>512.04</ele>
        <time>2022-05-18T07:55:13Z</time>
      </trkpt>
      <trkpt lat="44.68711" lon="5.07547">
        <ele>512.04</ele>
        <time>2022-05-18T07:55:57Z</time>
      </trkpt>
      <trkpt lat="44.68711" lon="5.07547">
        <ele>512.04</ele>
        <time>2022-05-18T07:56:30Z</time>
      </trkpt>
      <trkpt lat="44.68711" lon="5.07547">
        <ele>512.04</ele>
        <time>2022-05-18T07:56:55Z</time>
      </trkpt>
      <trkpt lat="44.68711" lon="5.07547">
        <ele>512.04</ele>
        <time>2022-05-18T07:57:43Z</time>
      </trkpt>
      <trkpt lat="44.68711" lon="5.07547">
        <ele>512.04</ele>
        <time>2022-05-18T07:58:12Z</time>
      </trkpt>
      <trkpt lat="44.68711" lon="5.07547">
        <ele>512.04</ele>
        <time>2022-05-18T07:58:46Z</time>
      </trkpt>
      <trkpt lat="44.68711" lon="5.07547">
        <ele>512.04</ele>
        <time>2022-05-18T07:59:14Z</time>
      </trkpt>
      <trkpt lat="44.68711" lon="5.07546">
        <ele>512.04</ele>
        <time>2022-05-18T07:59:35Z</time>
      </trkpt>
      <trkpt lat="44.68709" lon="5.0754">
        <ele>512.04</ele>
        <time>2022-05-18T07:59:53Z</time>
      </trkpt>
      <trkpt lat="44.68704" lon="5.07525">
        <ele>512.04</ele>
        <time>2022-05-18T08:00:11Z</time>
      </trkpt>
      <trkpt lat="44.68702" lon="5.07523">
        <ele>512.04</ele>
        <time>2022-05-18T08:00:14Z</time>
      </trkpt>
      <trkpt lat="44.68702" lon="5.07522">
        <ele>512.04</ele>
        <time>2022-05-18T08:00:15Z</time>
      </trkpt>
      <trkpt lat="44.68701" lon="5.0752">
        <ele>511.56</ele>
        <time>2022-05-18T08:00:16Z</time>
      </trkpt>
      <trkpt lat="44.68693" lon="5.07506">
        <ele>508.67</ele>
        <time>2022-05-18T08:00:30Z</time>
      </trkpt>
      <trkpt lat="44.68683" lon="5.07488">
        <ele>506.75</ele>
        <time>2022-05-18T08:00:47Z</time>
      </trkpt>
      <trkpt lat="44.68677" lon="5.0747">
        <ele>503.39</ele>
        <time>2022-05-18T08:01:02Z</time>
      </trkpt>
      <trkpt lat="44.68671" lon="5.07467">
        <ele>502.43</ele>
        <time>2022-05-18T08:01:08Z</time>
      </trkpt>
      <trkpt lat="44.6867" lon="5.07466">
        <ele>502.43</ele>
        <time>2022-05-18T08:01:09Z</time>
      </trkpt>
      <trkpt lat="44.68657" lon="5.07451">
        <ele>500.02</ele>
        <time>2022-05-18T08:01:28Z</time>
      </trkpt>
      <trkpt lat="44.68646" lon="5.07428">
        <ele>499.06</ele>
        <time>2022-05-18T08:01:47Z</time>
      </trkpt>
      <trkpt lat="44.68639" lon="5.07399">
        <ele>496.66</ele>
        <time>2022-05-18T08:02:08Z</time>
      </trkpt>
      <trkpt lat="44.68635" lon="5.07378">
        <ele>495.7</ele>
        <time>2022-05-18T08:02:23Z</time>
      </trkpt>
      <trkpt lat="44.68631" lon="5.0736">
        <ele>493.77</ele>
        <time>2022-05-18T08:02:39Z</time>
      </trkpt>
      <trkpt lat="44.68625" lon="5.07343">
        <ele>490.89</ele>
        <time>2022-05-18T08:02:59Z</time>
      </trkpt>
      <trkpt lat="44.6862" lon="5.07331">
        <ele>488.49</ele>
        <time>2022-05-18T08:03:14Z</time>
      </trkpt>
      <trkpt lat="44.68614" lon="5.07313">
        <ele>485.6</ele>
        <time>2022-05-18T08:03:31Z</time>
      </trkpt>
      <trkpt lat="44.68613" lon="5.07313">
        <ele>484.16</ele>
        <time>2022-05-18T08:03:46Z</time>
      </trkpt>
      <trkpt lat="44.68612" lon="5.0731">
        <ele>484.16</ele>
        <time>2022-05-18T08:04:07Z</time>
      </trkpt>
      <trkpt lat="44.68611" lon="5.07306">
        <ele>483.2</ele>
        <time>2022-05-18T08:04:27Z</time>
      </trkpt>
      <trkpt lat="44.68606" lon="5.07309">
        <ele>482.24</ele>
        <time>2022-05-18T08:04:52Z</time>
      </trkpt>
      <trkpt lat="44.68601" lon="5.07319">
        <ele>481.76</ele>
        <time>2022-05-18T08:05:12Z</time>
      </trkpt>
      <trkpt lat="44.68599" lon="5.07313">
        <ele>481.28</ele>
        <time>2022-05-18T08:05:28Z</time>
      </trkpt>
      <trkpt lat="44.68599" lon="5.07312">
        <ele>480.8</ele>
        <time>2022-05-18T08:05:50Z</time>
      </trkpt>
      <trkpt lat="44.68599" lon="5.07312">
        <ele>481.28</ele>
        <time>2022-05-18T08:06:19Z</time>
      </trkpt>
      <trkpt lat="44.68602" lon="5.07319">
        <ele>481.28</ele>
        <time>2022-05-18T08:06:40Z</time>
      </trkpt>
      <trkpt lat="44.68596" lon="5.07337">
        <ele>481.28</ele>
        <time>2022-05-18T08:07:00Z</time>
      </trkpt>
      <trkpt lat="44.68587" lon="5.07355">
        <ele>482.24</ele>
        <time>2022-05-18T08:07:18Z</time>
      </trkpt>
      <trkpt lat="44.6858" lon="5.07366">
        <ele>483.2</ele>
        <time>2022-05-18T08:07:29Z</time>
      </trkpt>
      <trkpt lat="44.68558" lon="5.07385">
        <ele>484.16</ele>
        <time>2022-05-18T08:07:54Z</time>
      </trkpt>
      <trkpt lat="44.68537" lon="5.07395">
        <ele>484.16</ele>
        <time>2022-05-18T08:08:15Z</time>
      </trkpt>
      <trkpt lat="44.68516" lon="5.07405">
        <ele>484.64</ele>
        <time>2022-05-18T08:08:36Z</time>
      </trkpt>
      <trkpt lat="44.68495" lon="5.07415">
        <ele>484.64</ele>
        <time>2022-05-18T08:08:57Z</time>
      </trkpt>
      <trkpt lat="44.68472" lon="5.07427">
        <ele>485.12</ele>
        <time>2022-05-18T08:09:21Z</time>
      </trkpt>
      <trkpt lat="44.68448" lon="5.07435">
        <ele>486.08</ele>
        <time>2022-05-18T08:09:44Z</time>
      </trkpt>
      <trkpt lat="44.68429" lon="5.07439">
        <ele>484.64</ele>
        <time>2022-05-18T08:10:05Z</time>
      </trkpt>
      <trkpt lat="44.68428" lon="5.07439">
        <ele>484.64</ele>
        <time>2022-05-18T08:10:07Z</time>
      </trkpt>
      <trkpt lat="44.68425" lon="5.0744">
        <ele>484.16</ele>
        <time>2022-05-18T08:10:09Z</time>
      </trkpt>
      <trkpt lat="44.68403" lon="5.07447">
        <ele>482.24</ele>
        <time>2022-05-18T08:10:31Z</time>
      </trkpt>
      <trkpt lat="44.68374" lon="5.07449">
        <ele>479.35</ele>
        <time>2022-05-18T08:10:58Z</time>
      </trkpt>
      <trkpt lat="44.6835" lon="5.07463">
        <ele>477.43</ele>
        <time>2022-05-18T08:11:22Z</time>
      </trkpt>
      <trkpt lat="44.6833" lon="5.07475">
        <ele>476.95</ele>
        <time>2022-05-18T08:11:41Z</time>
      </trkpt>
      <trkpt lat="44.68303" lon="5.07485">
        <ele>475.51</ele>
        <time>2022-05-18T08:12:06Z</time>
      </trkpt>
      <trkpt lat="44.68281" lon="5.07482">
        <ele>473.11</ele>
        <time>2022-05-18T08:12:29Z</time>
      </trkpt>
      <trkpt lat="44.68266" lon="5.07495">
        <ele>471.18</ele>
        <time>2022-05-18T08:12:47Z</time>
      </trkpt>
      <trkpt lat="44.68264" lon="5.07497">
        <ele>471.18</ele>
        <time>2022-05-18T08:12:50Z</time>
      </trkpt>
      <trkpt lat="44.68262" lon="5.07511">
        <ele>472.63</ele>
        <time>2022-05-18T08:13:05Z</time>
      </trkpt>
      <trkpt lat="44.68258" lon="5.07534">
        <ele>475.99</ele>
        <time>2022-05-18T08:13:25Z</time>
      </trkpt>
      <trkpt lat="44.68253" lon="5.07552">
        <ele>478.87</ele>
        <time>2022-05-18T08:13:45Z</time>
      </trkpt>
      <trkpt lat="44.68245" lon="5.07575">
        <ele>481.28</ele>
        <time>2022-05-18T08:14:08Z</time>
      </trkpt>
      <trkpt lat="44.68241" lon="5.07596">
        <ele>482.72</ele>
        <time>2022-05-18T08:14:26Z</time>
      </trkpt>
      <trkpt lat="44.6824" lon="5.07621">
        <ele>486.08</ele>
        <time>2022-05-18T08:14:49Z</time>
      </trkpt>
      <trkpt lat="44.68238" lon="5.07641">
        <ele>488.97</ele>
        <time>2022-05-18T08:15:09Z</time>
      </trkpt>
      <trkpt lat="44.68237" lon="5.07659">
        <ele>491.85</ele>
        <time>2022-05-18T08:15:26Z</time>
      </trkpt>
      <trkpt lat="44.68237" lon="5.07684">
        <ele>495.22</ele>
        <time>2022-05-18T08:15:47Z</time>
      </trkpt>
      <trkpt lat="44.68235" lon="5.07705">
        <ele>496.18</ele>
        <time>2022-05-18T08:16:07Z</time>
      </trkpt>
      <trkpt lat="44.68235" lon="5.07731">
        <ele>497.14</ele>
        <time>2022-05-18T08:16:26Z</time>
      </trkpt>
      <trkpt lat="44.6823" lon="5.07756">
        <ele>496.66</ele>
        <time>2022-05-18T08:16:43Z</time>
      </trkpt>
      <trkpt lat="44.68224" lon="5.07782">
        <ele>496.18</ele>
        <time>2022-05-18T08:17:02Z</time>
      </trkpt>
      <trkpt lat="44.68216" lon="5.07815">
        <ele>497.14</ele>
        <time>2022-05-18T08:17:24Z</time>
      </trkpt>
      <trkpt lat="44.68214" lon="5.07822">
        <ele>497.62</ele>
        <time>2022-05-18T08:17:28Z</time>
      </trkpt>
      <trkpt lat="44.6821" lon="5.07847">
        <ele>498.58</ele>
        <time>2022-05-18T08:17:46Z</time>
      </trkpt>
      <trkpt lat="44.68208" lon="5.07871">
        <ele>499.54</ele>
        <time>2022-05-18T08:18:02Z</time>
      </trkpt>
      <trkpt lat="44.68208" lon="5.07879">
        <ele>500.02</ele>
        <time>2022-05-18T08:18:08Z</time>
      </trkpt>
      <trkpt lat="44.68206" lon="5.07887">
        <ele>500.5</ele>
        <time>2022-05-18T08:18:13Z</time>
      </trkpt>
      <trkpt lat="44.68206" lon="5.07892">
        <ele>500.5</ele>
        <time>2022-05-18T08:18:16Z</time>
      </trkpt>
      <trkpt lat="44.68208" lon="5.07914">
        <ele>501.46</ele>
        <time>2022-05-18T08:18:32Z</time>
      </trkpt>
      <trkpt lat="44.6821" lon="5.07924">
        <ele>502.43</ele>
        <time>2022-05-18T08:18:39Z</time>
      </trkpt>
      <trkpt lat="44.6821" lon="5.07926">
        <ele>502.43</ele>
        <time>2022-05-18T08:18:40Z</time>
      </trkpt>
      <trkpt lat="44.68211" lon="5.07927">
        <ele>502.43</ele>
        <time>2022-05-18T08:18:41Z</time>
      </trkpt>
      <trkpt lat="44.6821" lon="5.0793">
        <ele>502.43</ele>
        <time>2022-05-18T08:18:42Z</time>
      </trkpt>
      <trkpt lat="44.6821" lon="5.07932">
        <ele>502.43</ele>
        <time>2022-05-18T08:18:43Z</time>
      </trkpt>
      <trkpt lat="44.68211" lon="5.07933">
        <ele>502.43</ele>
        <time>2022-05-18T08:18:44Z</time>
      </trkpt>
      <trkpt lat="44.68211" lon="5.07935">
        <ele>502.43</ele>
        <time>2022-05-18T08:18:45Z</time>
      </trkpt>
      <trkpt lat="44.68216" lon="5.07967">
        <ele>501.95</ele>
        <time>2022-05-18T08:19:07Z</time>
      </trkpt>
      <trkpt lat="44.68218" lon="5.07972">
        <ele>501.95</ele>
        <time>2022-05-18T08:19:15Z</time>
      </trkpt>
      <trkpt lat="44.68219" lon="5.07976">
        <ele>501.95</ele>
        <time>2022-05-18T08:19:18Z</time>
      </trkpt>
      <trkpt lat="44.6822" lon="5.07978">
        <ele>501.95</ele>
        <time>2022-05-18T08:19:19Z</time>
      </trkpt>
      <trkpt lat="44.68223" lon="5.07994">
        <ele>501.46</ele>
        <time>2022-05-18T08:19:30Z</time>
      </trkpt>
      <trkpt lat="44.68225" lon="5.08003">
        <ele>501.46</ele>
        <time>2022-05-18T08:19:45Z</time>
      </trkpt>
      <trkpt lat="44.6823" lon="5.08016">
        <ele>501.95</ele>
        <time>2022-05-18T08:20:09Z</time>
      </trkpt>
      <trkpt lat="44.68238" lon="5.08038">
        <ele>502.91</ele>
        <time>2022-05-18T08:20:26Z</time>
      </trkpt>
      <trkpt lat="44.68238" lon="5.0804">
        <ele>503.39</ele>
        <time>2022-05-18T08:20:27Z</time>
      </trkpt>
      <trkpt lat="44.68241" lon="5.08062">
        <ele>504.35</ele>
        <time>2022-05-18T08:20:42Z</time>
      </trkpt>
      <trkpt lat="44.68241" lon="5.08064">
        <ele>504.35</ele>
        <time>2022-05-18T08:20:43Z</time>
      </trkpt>
      <trkpt lat="44.68241" lon="5.08066">
        <ele>504.35</ele>
        <time>2022-05-18T08:20:44Z</time>
      </trkpt>
      <trkpt lat="44.68241" lon="5.08067">
        <ele>504.35</ele>
        <time>2022-05-18T08:20:45Z</time>
      </trkpt>
      <trkpt lat="44.68241" lon="5.08069">
        <ele>504.83</ele>
        <time>2022-05-18T08:20:46Z</time>
      </trkpt>
      <trkpt lat="44.68239" lon="5.08094">
        <ele>505.79</ele>
        <time>2022-05-18T08:21:03Z</time>
      </trkpt>
      <trkpt lat="44.68235" lon="5.08115">
        <ele>508.19</ele>
        <time>2022-05-18T08:21:21Z</time>
      </trkpt>
      <trkpt lat="44.68234" lon="5.08117">
        <ele>508.19</ele>
        <time>2022-05-18T08:21:22Z</time>
      </trkpt>
      <trkpt lat="44.68227" lon="5.08125">
        <ele>509.64</ele>
        <time>2022-05-18T08:21:39Z</time>
      </trkpt>
      <trkpt lat="44.68217" lon="5.08129">
        <ele>511.08</ele>
        <time>2022-05-18T08:21:59Z</time>
      </trkpt>
      <trkpt lat="44.68223" lon="5.08138">
        <ele>513.96</ele>
        <time>2022-05-18T08:22:17Z</time>
      </trkpt>
      <trkpt lat="44.6823" lon="5.08157">
        <ele>516.85</ele>
        <time>2022-05-18T08:22:34Z</time>
      </trkpt>
      <trkpt lat="44.68229" lon="5.08169">
        <ele>519.25</ele>
        <time>2022-05-18T08:22:54Z</time>
      </trkpt>
      <trkpt lat="44.6823" lon="5.08168">
        <ele>519.73</ele>
        <time>2022-05-18T08:23:14Z</time>
      </trkpt>
      <trkpt lat="44.68231" lon="5.08161">
        <ele>519.73</ele>
        <time>2022-05-18T08:23:17Z</time>
      </trkpt>
      <trkpt lat="44.68229" lon="5.08143">
        <ele>517.81</ele>
        <time>2022-05-18T08:23:33Z</time>
      </trkpt>
      <trkpt lat="44.68221" lon="5.08131">
        <ele>514.44</ele>
        <time>2022-05-18T08:23:50Z</time>
      </trkpt>
      <trkpt lat="44.6823" lon="5.08126">
        <ele>512.52</ele>
        <time>2022-05-18T08:24:09Z</time>
      </trkpt>
      <trkpt lat="44.68231" lon="5.08123">
        <ele>512.04</ele>
        <time>2022-05-18T08:24:27Z</time>
      </trkpt>
      <trkpt lat="44.68229" lon="5.0812">
        <ele>511.56</ele>
        <time>2022-05-18T08:24:44Z</time>
      </trkpt>
      <trkpt lat="44.68221" lon="5.08117">
        <ele>509.64</ele>
        <time>2022-05-18T08:25:00Z</time>
      </trkpt>
      <trkpt lat="44.68216" lon="5.08116">
        <ele>509.64</ele>
        <time>2022-05-18T08:25:26Z</time>
      </trkpt>
      <trkpt lat="44.68203" lon="5.08117">
        <ele>510.12</ele>
        <time>2022-05-18T08:25:40Z</time>
      </trkpt>
      <trkpt lat="44.68202" lon="5.08118">
        <ele>510.12</ele>
        <time>2022-05-18T08:25:41Z</time>
      </trkpt>
      <trkpt lat="44.68186" lon="5.08125">
        <ele>511.08</ele>
        <time>2022-05-18T08:25:59Z</time>
      </trkpt>
      <trkpt lat="44.68181" lon="5.08126">
        <ele>511.08</ele>
        <time>2022-05-18T08:26:03Z</time>
      </trkpt>
      <trkpt lat="44.68178" lon="5.08129">
        <ele>511.08</ele>
        <time>2022-05-18T08:26:05Z</time>
      </trkpt>
      <trkpt lat="44.68161" lon="5.08132">
        <ele>513</ele>
        <time>2022-05-18T08:26:22Z</time>
      </trkpt>
      <trkpt lat="44.68144" lon="5.08133">
        <ele>515.4</ele>
        <time>2022-05-18T08:26:39Z</time>
      </trkpt>
      <trkpt lat="44.68127" lon="5.08133">
        <ele>516.85</ele>
        <time>2022-05-18T08:26:55Z</time>
      </trkpt>
      <trkpt lat="44.68108" lon="5.08133">
        <ele>517.33</ele>
        <time>2022-05-18T08:27:12Z</time>
      </trkpt>
      <trkpt lat="44.68107" lon="5.08132">
        <ele>517.33</ele>
        <time>2022-05-18T08:27:29Z</time>
      </trkpt>
      <trkpt lat="44.68099" lon="5.08132">
        <ele>516.85</ele>
        <time>2022-05-18T08:27:46Z</time>
      </trkpt>
      <trkpt lat="44.68085" lon="5.08134">
        <ele>516.37</ele>
        <time>2022-05-18T08:28:03Z</time>
      </trkpt>
      <trkpt lat="44.68071" lon="5.08138">
        <ele>513.96</ele>
        <time>2022-05-18T08:28:21Z</time>
      </trkpt>
      <trkpt lat="44.6807" lon="5.08139">
        <ele>513.96</ele>
        <time>2022-05-18T08:28:22Z</time>
      </trkpt>
      <trkpt lat="44.68066" lon="5.08141">
        <ele>513.96</ele>
        <time>2022-05-18T08:28:26Z</time>
      </trkpt>
      <trkpt lat="44.68052" lon="5.08149">
        <ele>513.48</ele>
        <time>2022-05-18T08:28:42Z</time>
      </trkpt>
      <trkpt lat="44.68032" lon="5.08156">
        <ele>515.4</ele>
        <time>2022-05-18T08:29:06Z</time>
      </trkpt>
      <trkpt lat="44.68016" lon="5.08173">
        <ele>516.37</ele>
        <time>2022-05-18T08:29:27Z</time>
      </trkpt>
      <trkpt lat="44.68011" lon="5.08179">
        <ele>515.88</ele>
        <time>2022-05-18T08:29:34Z</time>
      </trkpt>
      <trkpt lat="44.67997" lon="5.08189">
        <ele>515.88</ele>
        <time>2022-05-18T08:29:53Z</time>
      </trkpt>
      <trkpt lat="44.6799" lon="5.08192">
        <ele>516.37</ele>
        <time>2022-05-18T08:30:13Z</time>
      </trkpt>
      <trkpt lat="44.6799" lon="5.0819">
        <ele>516.37</ele>
        <time>2022-05-18T08:30:47Z</time>
      </trkpt>
      <trkpt lat="44.67989" lon="5.08189">
        <ele>516.37</ele>
        <time>2022-05-18T08:31:13Z</time>
      </trkpt>
      <trkpt lat="44.67979" lon="5.08183">
        <ele>516.37</ele>
        <time>2022-05-18T08:31:42Z</time>
      </trkpt>
      <trkpt lat="44.67968" lon="5.08166">
        <ele>516.37</ele>
        <time>2022-05-18T08:32:02Z</time>
      </trkpt>
      <trkpt lat="44.67952" lon="5.08154">
        <ele>516.37</ele>
        <time>2022-05-18T08:32:24Z</time>
      </trkpt>
      <trkpt lat="44.67939" lon="5.08155">
        <ele>518.77</ele>
        <time>2022-05-18T08:32:40Z</time>
      </trkpt>
      <trkpt lat="44.67914" lon="5.08167">
        <ele>517.33</ele>
        <time>2022-05-18T08:33:06Z</time>
      </trkpt>
      <trkpt lat="44.67907" lon="5.0817">
        <ele>517.81</ele>
        <time>2022-05-18T08:33:13Z</time>
      </trkpt>
      <trkpt lat="44.67891" lon="5.0817">
        <ele>518.77</ele>
        <time>2022-05-18T08:33:27Z</time>
      </trkpt>
      <trkpt lat="44.67882" lon="5.08166">
        <ele>519.25</ele>
        <time>2022-05-18T08:33:46Z</time>
      </trkpt>
      <trkpt lat="44.67878" lon="5.0816">
        <ele>519.25</ele>
        <time>2022-05-18T08:34:04Z</time>
      </trkpt>
      <trkpt lat="44.67854" lon="5.08152">
        <ele>521.17</ele>
        <time>2022-05-18T08:34:29Z</time>
      </trkpt>
      <trkpt lat="44.67842" lon="5.08159">
        <ele>522.61</ele>
        <time>2022-05-18T08:34:47Z</time>
      </trkpt>
      <trkpt lat="44.67828" lon="5.08174">
        <ele>520.69</ele>
        <time>2022-05-18T08:35:05Z</time>
      </trkpt>
      <trkpt lat="44.67818" lon="5.08179">
        <ele>519.73</ele>
        <time>2022-05-18T08:35:14Z</time>
      </trkpt>
      <trkpt lat="44.67817" lon="5.08179">
        <ele>519.73</ele>
        <time>2022-05-18T08:35:15Z</time>
      </trkpt>
      <trkpt lat="44.67816" lon="5.0818">
        <ele>519.73</ele>
        <time>2022-05-18T08:35:16Z</time>
      </trkpt>
      <trkpt lat="44.67814" lon="5.08181">
        <ele>519.73</ele>
        <time>2022-05-18T08:35:18Z</time>
      </trkpt>
      <trkpt lat="44.67789" lon="5.08183">
        <ele>518.77</ele>
        <time>2022-05-18T08:35:38Z</time>
      </trkpt>
      <trkpt lat="44.67787" lon="5.08183">
        <ele>518.77</ele>
        <time>2022-05-18T08:35:40Z</time>
      </trkpt>
      <trkpt lat="44.67768" lon="5.08186">
        <ele>518.29</ele>
        <time>2022-05-18T08:35:55Z</time>
      </trkpt>
      <trkpt lat="44.6776" lon="5.08191">
        <ele>518.77</ele>
        <time>2022-05-18T08:36:04Z</time>
      </trkpt>
      <trkpt lat="44.6776" lon="5.08193">
        <ele>518.77</ele>
        <time>2022-05-18T08:36:05Z</time>
      </trkpt>
      <trkpt lat="44.67758" lon="5.08195">
        <ele>518.77</ele>
        <time>2022-05-18T08:36:07Z</time>
      </trkpt>
      <trkpt lat="44.67748" lon="5.08209">
        <ele>519.25</ele>
        <time>2022-05-18T08:36:18Z</time>
      </trkpt>
      <trkpt lat="44.67736" lon="5.08222">
        <ele>518.77</ele>
        <time>2022-05-18T08:36:31Z</time>
      </trkpt>
      <trkpt lat="44.67725" lon="5.08237">
        <ele>517.33</ele>
        <time>2022-05-18T08:36:46Z</time>
      </trkpt>
      <trkpt lat="44.67714" lon="5.08258">
        <ele>515.88</ele>
        <time>2022-05-18T08:37:03Z</time>
      </trkpt>
      <trkpt lat="44.67703" lon="5.08277">
        <ele>513.96</ele>
        <time>2022-05-18T08:37:22Z</time>
      </trkpt>
      <trkpt lat="44.67694" lon="5.08294">
        <ele>511.08</ele>
        <time>2022-05-18T08:37:39Z</time>
      </trkpt>
      <trkpt lat="44.67691" lon="5.08299">
        <ele>510.6</ele>
        <time>2022-05-18T08:38:12Z</time>
      </trkpt>
      <trkpt lat="44.6769" lon="5.083">
        <ele>510.6</ele>
        <time>2022-05-18T08:38:13Z</time>
      </trkpt>
      <trkpt lat="44.6769" lon="5.08301">
        <ele>510.6</ele>
        <time>2022-05-18T08:38:14Z</time>
      </trkpt>
      <trkpt lat="44.67689" lon="5.08302">
        <ele>510.6</ele>
        <time>2022-05-18T08:38:15Z</time>
      </trkpt>
      <trkpt lat="44.67688" lon="5.08303">
        <ele>510.6</ele>
        <time>2022-05-18T08:38:16Z</time>
      </trkpt>
      <trkpt lat="44.67687" lon="5.08305">
        <ele>510.6</ele>
        <time>2022-05-18T08:38:17Z</time>
      </trkpt>
      <trkpt lat="44.67686" lon="5.08306">
        <ele>510.12</ele>
        <time>2022-05-18T08:38:18Z</time>
      </trkpt>
      <trkpt lat="44.67677" lon="5.08313">
        <ele>508.19</ele>
        <time>2022-05-18T08:38:31Z</time>
      </trkpt>
      <trkpt lat="44.67676" lon="5.08312">
        <ele>508.19</ele>
        <time>2022-05-18T08:38:32Z</time>
      </trkpt>
      <trkpt lat="44.67675" lon="5.08312">
        <ele>508.19</ele>
        <time>2022-05-18T08:38:33Z</time>
      </trkpt>
      <trkpt lat="44.67673" lon="5.08311">
        <ele>507.71</ele>
        <time>2022-05-18T08:38:34Z</time>
      </trkpt>
      <trkpt lat="44.67672" lon="5.0831">
        <ele>507.71</ele>
        <time>2022-05-18T08:38:35Z</time>
      </trkpt>
      <trkpt lat="44.67661" lon="5.08309">
        <ele>504.83</ele>
        <time>2022-05-18T08:38:51Z</time>
      </trkpt>
      <trkpt lat="44.67649" lon="5.08307">
        <ele>503.39</ele>
        <time>2022-05-18T08:39:06Z</time>
      </trkpt>
      <trkpt lat="44.67647" lon="5.08307">
        <ele>503.39</ele>
        <time>2022-05-18T08:39:24Z</time>
      </trkpt>
      <trkpt lat="44.6764" lon="5.08307">
        <ele>502.91</ele>
        <time>2022-05-18T08:39:39Z</time>
      </trkpt>
      <trkpt lat="44.6763" lon="5.08307">
        <ele>502.43</ele>
        <time>2022-05-18T08:39:48Z</time>
      </trkpt>
      <trkpt lat="44.67629" lon="5.08306">
        <ele>502.43</ele>
        <time>2022-05-18T08:39:49Z</time>
      </trkpt>
      <trkpt lat="44.6762" lon="5.08299">
        <ele>501.95</ele>
        <time>2022-05-18T08:40:04Z</time>
      </trkpt>
      <trkpt lat="44.67619" lon="5.08298">
        <ele>501.95</ele>
        <time>2022-05-18T08:40:05Z</time>
      </trkpt>
      <trkpt lat="44.67617" lon="5.08297">
        <ele>501.95</ele>
        <time>2022-05-18T08:40:08Z</time>
      </trkpt>
      <trkpt lat="44.67616" lon="5.08296">
        <ele>501.95</ele>
        <time>2022-05-18T08:40:09Z</time>
      </trkpt>
      <trkpt lat="44.67615" lon="5.08295">
        <ele>501.95</ele>
        <time>2022-05-18T08:40:10Z</time>
      </trkpt>
      <trkpt lat="44.67601" lon="5.08292">
        <ele>501.95</ele>
        <time>2022-05-18T08:40:25Z</time>
      </trkpt>
      <trkpt lat="44.676" lon="5.08292">
        <ele>501.95</ele>
        <time>2022-05-18T08:40:27Z</time>
      </trkpt>
      <trkpt lat="44.67598" lon="5.08292">
        <ele>501.95</ele>
        <time>2022-05-18T08:40:28Z</time>
      </trkpt>
      <trkpt lat="44.67597" lon="5.08292">
        <ele>501.95</ele>
        <time>2022-05-18T08:40:29Z</time>
      </trkpt>
      <trkpt lat="44.67596" lon="5.08293">
        <ele>501.95</ele>
        <time>2022-05-18T08:40:30Z</time>
      </trkpt>
      <trkpt lat="44.67594" lon="5.08293">
        <ele>501.95</ele>
        <time>2022-05-18T08:40:31Z</time>
      </trkpt>
      <trkpt lat="44.67576" lon="5.083">
        <ele>504.35</ele>
        <time>2022-05-18T08:40:47Z</time>
      </trkpt>
      <trkpt lat="44.67572" lon="5.08309">
        <ele>505.79</ele>
        <time>2022-05-18T08:41:00Z</time>
      </trkpt>
      <trkpt lat="44.67571" lon="5.08312">
        <ele>505.79</ele>
        <time>2022-05-18T08:41:20Z</time>
      </trkpt>
      <trkpt lat="44.6757" lon="5.08314">
        <ele>506.75</ele>
        <time>2022-05-18T08:41:43Z</time>
      </trkpt>
      <trkpt lat="44.67568" lon="5.08317">
        <ele>506.75</ele>
        <time>2022-05-18T08:41:57Z</time>
      </trkpt>
      <trkpt lat="44.67567" lon="5.08318">
        <ele>506.75</ele>
        <time>2022-05-18T08:41:58Z</time>
      </trkpt>
      <trkpt lat="44.67566" lon="5.08319">
        <ele>506.75</ele>
        <time>2022-05-18T08:41:59Z</time>
      </trkpt>
      <trkpt lat="44.67549" lon="5.08333">
        <ele>506.75</ele>
        <time>2022-05-18T08:42:18Z</time>
      </trkpt>
      <trkpt lat="44.67542" lon="5.08341">
        <ele>507.23</ele>
        <time>2022-05-18T08:42:27Z</time>
      </trkpt>
      <trkpt lat="44.67535" lon="5.08358">
        <ele>507.23</ele>
        <time>2022-05-18T08:42:42Z</time>
      </trkpt>
      <trkpt lat="44.6753" lon="5.08371">
        <ele>507.23</ele>
        <time>2022-05-18T08:42:53Z</time>
      </trkpt>
      <trkpt lat="44.6753" lon="5.08372">
        <ele>506.75</ele>
        <time>2022-05-18T08:42:54Z</time>
      </trkpt>
      <trkpt lat="44.67522" lon="5.08389">
        <ele>506.75</ele>
        <time>2022-05-18T08:43:07Z</time>
      </trkpt>
      <trkpt lat="44.67513" lon="5.08398">
        <ele>506.75</ele>
        <time>2022-05-18T08:43:17Z</time>
      </trkpt>
      <trkpt lat="44.67506" lon="5.08406">
        <ele>506.75</ele>
        <time>2022-05-18T08:43:25Z</time>
      </trkpt>
      <trkpt lat="44.67502" lon="5.08412">
        <ele>506.27</ele>
        <time>2022-05-18T08:43:32Z</time>
      </trkpt>
      <trkpt lat="44.67497" lon="5.08423">
        <ele>506.27</ele>
        <time>2022-05-18T08:43:42Z</time>
      </trkpt>
      <trkpt lat="44.67496" lon="5.08425">
        <ele>506.27</ele>
        <time>2022-05-18T08:43:43Z</time>
      </trkpt>
      <trkpt lat="44.67484" lon="5.08436">
        <ele>505.79</ele>
        <time>2022-05-18T08:43:56Z</time>
      </trkpt>
      <trkpt lat="44.67471" lon="5.08437">
        <ele>505.79</ele>
        <time>2022-05-18T08:44:10Z</time>
      </trkpt>
      <trkpt lat="44.6747" lon="5.08436">
        <ele>505.79</ele>
        <time>2022-05-18T08:44:11Z</time>
      </trkpt>
      <trkpt lat="44.67469" lon="5.08436">
        <ele>505.79</ele>
        <time>2022-05-18T08:44:12Z</time>
      </trkpt>
      <trkpt lat="44.67454" lon="5.08428">
        <ele>506.27</ele>
        <time>2022-05-18T08:44:36Z</time>
      </trkpt>
      <trkpt lat="44.67445" lon="5.08436">
        <ele>505.79</ele>
        <time>2022-05-18T08:44:50Z</time>
      </trkpt>
      <trkpt lat="44.67444" lon="5.08436">
        <ele>505.79</ele>
        <time>2022-05-18T08:44:51Z</time>
      </trkpt>
      <trkpt lat="44.67443" lon="5.08437">
        <ele>505.79</ele>
        <time>2022-05-18T08:44:52Z</time>
      </trkpt>
      <trkpt lat="44.67442" lon="5.08438">
        <ele>505.79</ele>
        <time>2022-05-18T08:44:53Z</time>
      </trkpt>
      <trkpt lat="44.67424" lon="5.08459">
        <ele>503.39</ele>
        <time>2022-05-18T08:45:14Z</time>
      </trkpt>
      <trkpt lat="44.67406" lon="5.08479">
        <ele>502.43</ele>
        <time>2022-05-18T08:45:33Z</time>
      </trkpt>
      <trkpt lat="44.67393" lon="5.08496">
        <ele>502.43</ele>
        <time>2022-05-18T08:45:54Z</time>
      </trkpt>
      <trkpt lat="44.67393" lon="5.08497">
        <ele>502.43</ele>
        <time>2022-05-18T08:46:23Z</time>
      </trkpt>
      <trkpt lat="44.67391" lon="5.08499">
        <ele>502.91</ele>
        <time>2022-05-18T08:46:59Z</time>
      </trkpt>
      <trkpt lat="44.6739" lon="5.085">
        <ele>502.91</ele>
        <time>2022-05-18T08:47:00Z</time>
      </trkpt>
      <trkpt lat="44.67381" lon="5.08509">
        <ele>502.91</ele>
        <time>2022-05-18T08:47:15Z</time>
      </trkpt>
      <trkpt lat="44.67376" lon="5.08516">
        <ele>503.39</ele>
        <time>2022-05-18T08:47:23Z</time>
      </trkpt>
      <trkpt lat="44.67367" lon="5.08537">
        <ele>504.35</ele>
        <time>2022-05-18T08:47:41Z</time>
      </trkpt>
      <trkpt lat="44.67356" lon="5.08561">
        <ele>506.75</ele>
        <time>2022-05-18T08:48:05Z</time>
      </trkpt>
      <trkpt lat="44.67343" lon="5.08585">
        <ele>506.75</ele>
        <time>2022-05-18T08:48:26Z</time>
      </trkpt>
      <trkpt lat="44.67339" lon="5.0861">
        <ele>506.75</ele>
        <time>2022-05-18T08:48:43Z</time>
      </trkpt>
      <trkpt lat="44.67338" lon="5.08647">
        <ele>509.16</ele>
        <time>2022-05-18T08:49:04Z</time>
      </trkpt>
      <trkpt lat="44.67338" lon="5.0867">
        <ele>510.6</ele>
        <time>2022-05-18T08:49:18Z</time>
      </trkpt>
      <trkpt lat="44.67338" lon="5.08672">
        <ele>510.6</ele>
        <time>2022-05-18T08:49:19Z</time>
      </trkpt>
      <trkpt lat="44.67337" lon="5.08679">
        <ele>510.6</ele>
        <time>2022-05-18T08:49:23Z</time>
      </trkpt>
      <trkpt lat="44.67333" lon="5.08705">
        <ele>512.04</ele>
        <time>2022-05-18T08:49:42Z</time>
      </trkpt>
      <trkpt lat="44.6733" lon="5.08725">
        <ele>513.48</ele>
        <time>2022-05-18T08:49:56Z</time>
      </trkpt>
      <trkpt lat="44.67331" lon="5.08736">
        <ele>513</ele>
        <time>2022-05-18T08:50:04Z</time>
      </trkpt>
      <trkpt lat="44.67336" lon="5.08762">
        <ele>510.6</ele>
        <time>2022-05-18T08:50:23Z</time>
      </trkpt>
      <trkpt lat="44.6735" lon="5.08797">
        <ele>509.64</ele>
        <time>2022-05-18T08:50:48Z</time>
      </trkpt>
      <trkpt lat="44.67354" lon="5.0883">
        <ele>508.67</ele>
        <time>2022-05-18T08:51:14Z</time>
      </trkpt>
      <trkpt lat="44.67351" lon="5.08868">
        <ele>507.71</ele>
        <time>2022-05-18T08:51:39Z</time>
      </trkpt>
      <trkpt lat="44.67347" lon="5.08902">
        <ele>506.27</ele>
        <time>2022-05-18T08:52:02Z</time>
      </trkpt>
      <trkpt lat="44.67342" lon="5.08944">
        <ele>504.35</ele>
        <time>2022-05-18T08:52:29Z</time>
      </trkpt>
      <trkpt lat="44.67336" lon="5.0898">
        <ele>501.95</ele>
        <time>2022-05-18T08:52:53Z</time>
      </trkpt>
      <trkpt lat="44.67327" lon="5.09022">
        <ele>500.02</ele>
        <time>2022-05-18T08:53:17Z</time>
      </trkpt>
      <trkpt lat="44.67324" lon="5.0903">
        <ele>499.54</ele>
        <time>2022-05-18T08:53:21Z</time>
      </trkpt>
      <trkpt lat="44.67309" lon="5.09044">
        <ele>498.58</ele>
        <time>2022-05-18T08:53:36Z</time>
      </trkpt>
      <trkpt lat="44.67308" lon="5.09045">
        <ele>498.58</ele>
        <time>2022-05-18T08:53:37Z</time>
      </trkpt>
      <trkpt lat="44.67282" lon="5.09053">
        <ele>498.1</ele>
        <time>2022-05-18T08:54:02Z</time>
      </trkpt>
      <trkpt lat="44.67262" lon="5.09053">
        <ele>497.62</ele>
        <time>2022-05-18T08:54:23Z</time>
      </trkpt>
      <trkpt lat="44.67237" lon="5.09051">
        <ele>495.7</ele>
        <time>2022-05-18T08:54:47Z</time>
      </trkpt>
      <trkpt lat="44.67219" lon="5.09062">
        <ele>494.26</ele>
        <time>2022-05-18T08:55:13Z</time>
      </trkpt>
      <trkpt lat="44.67215" lon="5.09078">
        <ele>492.81</ele>
        <time>2022-05-18T08:55:27Z</time>
      </trkpt>
      <trkpt lat="44.67213" lon="5.09086">
        <ele>492.33</ele>
        <time>2022-05-18T08:55:49Z</time>
      </trkpt>
      <trkpt lat="44.67212" lon="5.09104">
        <ele>490.89</ele>
        <time>2022-05-18T08:56:06Z</time>
      </trkpt>
      <trkpt lat="44.67213" lon="5.09118">
        <ele>489.45</ele>
        <time>2022-05-18T08:56:18Z</time>
      </trkpt>
      <trkpt lat="44.67214" lon="5.0914">
        <ele>487.53</ele>
        <time>2022-05-18T08:56:35Z</time>
      </trkpt>
      <trkpt lat="44.67215" lon="5.09145">
        <ele>486.56</ele>
        <time>2022-05-18T08:56:40Z</time>
      </trkpt>
      <trkpt lat="44.67216" lon="5.09148">
        <ele>486.56</ele>
        <time>2022-05-18T08:56:42Z</time>
      </trkpt>
      <trkpt lat="44.67224" lon="5.09158">
        <ele>485.12</ele>
        <time>2022-05-18T08:56:56Z</time>
      </trkpt>
      <trkpt lat="44.67228" lon="5.09163">
        <ele>483.68</ele>
        <time>2022-05-18T08:57:11Z</time>
      </trkpt>
      <trkpt lat="44.6723" lon="5.09169">
        <ele>482.72</ele>
        <time>2022-05-18T08:57:34Z</time>
      </trkpt>
      <trkpt lat="44.67232" lon="5.09175">
        <ele>481.76</ele>
        <time>2022-05-18T08:57:56Z</time>
      </trkpt>
      <trkpt lat="44.67231" lon="5.09179">
        <ele>481.76</ele>
        <time>2022-05-18T08:58:21Z</time>
      </trkpt>
      <trkpt lat="44.67227" lon="5.09179">
        <ele>481.76</ele>
        <time>2022-05-18T08:58:52Z</time>
      </trkpt>
      <trkpt lat="44.67229" lon="5.09178">
        <ele>481.76</ele>
        <time>2022-05-18T08:59:15Z</time>
      </trkpt>
      <trkpt lat="44.67231" lon="5.09178">
        <ele>481.76</ele>
        <time>2022-05-18T08:59:37Z</time>
      </trkpt>
      <trkpt lat="44.67231" lon="5.09178">
        <ele>481.76</ele>
        <time>2022-05-18T09:00:08Z</time>
      </trkpt>
      <trkpt lat="44.67231" lon="5.09178">
        <ele>481.76</ele>
        <time>2022-05-18T09:00:28Z</time>
      </trkpt>
      <trkpt lat="44.67232" lon="5.09178">
        <ele>481.76</ele>
        <time>2022-05-18T09:00:52Z</time>
      </trkpt>
      <trkpt lat="44.67231" lon="5.09178">
        <ele>481.76</ele>
        <time>2022-05-18T09:01:15Z</time>
      </trkpt>
      <trkpt lat="44.67231" lon="5.09178">
        <ele>481.76</ele>
        <time>2022-05-18T09:01:41Z</time>
      </trkpt>
      <trkpt lat="44.67232" lon="5.09178">
        <ele>481.76</ele>
        <time>2022-05-18T09:02:07Z</time>
      </trkpt>
      <trkpt lat="44.67232" lon="5.09178">
        <ele>481.76</ele>
        <time>2022-05-18T09:02:33Z</time>
      </trkpt>
      <trkpt lat="44.67232" lon="5.09178">
        <ele>481.76</ele>
        <time>2022-05-18T09:02:58Z</time>
      </trkpt>
      <trkpt lat="44.67232" lon="5.09178">
        <ele>481.76</ele>
        <time>2022-05-18T09:03:25Z</time>
      </trkpt>
      <trkpt lat="44.67232" lon="5.0918">
        <ele>481.76</ele>
        <time>2022-05-18T09:03:51Z</time>
      </trkpt>
      <trkpt lat="44.67227" lon="5.09198">
        <ele>481.76</ele>
        <time>2022-05-18T09:04:15Z</time>
      </trkpt>
      <trkpt lat="44.67222" lon="5.09223">
        <ele>481.76</ele>
        <time>2022-05-18T09:04:37Z</time>
      </trkpt>
      <trkpt lat="44.67221" lon="5.09224">
        <ele>481.76</ele>
        <time>2022-05-18T09:04:38Z</time>
      </trkpt>
      <trkpt lat="44.67221" lon="5.09233">
        <ele>485.12</ele>
        <time>2022-05-18T09:04:45Z</time>
      </trkpt>
      <trkpt lat="44.6722" lon="5.09253">
        <ele>485.6</ele>
        <time>2022-05-18T09:04:59Z</time>
      </trkpt>
      <trkpt lat="44.67218" lon="5.09275">
        <ele>484.64</ele>
        <time>2022-05-18T09:05:14Z</time>
      </trkpt>
      <trkpt lat="44.67212" lon="5.09301">
        <ele>483.68</ele>
        <time>2022-05-18T09:05:30Z</time>
      </trkpt>
      <trkpt lat="44.67206" lon="5.09338">
        <ele>483.2</ele>
        <time>2022-05-18T09:05:49Z</time>
      </trkpt>
      <trkpt lat="44.67201" lon="5.09361">
        <ele>483.2</ele>
        <time>2022-05-18T09:06:03Z</time>
      </trkpt>
      <trkpt lat="44.67201" lon="5.09363">
        <ele>483.2</ele>
        <time>2022-05-18T09:06:04Z</time>
      </trkpt>
      <trkpt lat="44.67201" lon="5.09364">
        <ele>483.2</ele>
        <time>2022-05-18T09:06:05Z</time>
      </trkpt>
      <trkpt lat="44.67201" lon="5.09366">
        <ele>483.2</ele>
        <time>2022-05-18T09:06:06Z</time>
      </trkpt>
      <trkpt lat="44.67201" lon="5.09367">
        <ele>482.72</ele>
        <time>2022-05-18T09:06:07Z</time>
      </trkpt>
      <trkpt lat="44.67201" lon="5.09371">
        <ele>482.72</ele>
        <time>2022-05-18T09:06:09Z</time>
      </trkpt>
      <trkpt lat="44.67201" lon="5.09372">
        <ele>482.72</ele>
        <time>2022-05-18T09:06:10Z</time>
      </trkpt>
      <trkpt lat="44.672" lon="5.09379">
        <ele>482.72</ele>
        <time>2022-05-18T09:06:14Z</time>
      </trkpt>
      <trkpt lat="44.672" lon="5.09382">
        <ele>482.72</ele>
        <time>2022-05-18T09:06:16Z</time>
      </trkpt>
      <trkpt lat="44.672" lon="5.09383">
        <ele>482.72</ele>
        <time>2022-05-18T09:06:17Z</time>
      </trkpt>
      <trkpt lat="44.672" lon="5.09385">
        <ele>482.72</ele>
        <time>2022-05-18T09:06:18Z</time>
      </trkpt>
      <trkpt lat="44.672" lon="5.09387">
        <ele>482.72</ele>
        <time>2022-05-18T09:06:19Z</time>
      </trkpt>
      <trkpt lat="44.672" lon="5.09388">
        <ele>482.72</ele>
        <time>2022-05-18T09:06:20Z</time>
      </trkpt>
      <trkpt lat="44.67198" lon="5.09415">
        <ele>482.72</ele>
        <time>2022-05-18T09:06:37Z</time>
      </trkpt>
      <trkpt lat="44.67197" lon="5.09426">
        <ele>482.72</ele>
        <time>2022-05-18T09:06:44Z</time>
      </trkpt>
      <trkpt lat="44.67197" lon="5.09428">
        <ele>482.72</ele>
        <time>2022-05-18T09:06:45Z</time>
      </trkpt>
      <trkpt lat="44.67197" lon="5.09429">
        <ele>482.72</ele>
        <time>2022-05-18T09:06:46Z</time>
      </trkpt>
      <trkpt lat="44.67197" lon="5.09431">
        <ele>482.72</ele>
        <time>2022-05-18T09:06:47Z</time>
      </trkpt>
      <trkpt lat="44.67197" lon="5.09433">
        <ele>482.72</ele>
        <time>2022-05-18T09:06:48Z</time>
      </trkpt>
      <trkpt lat="44.67197" lon="5.09434">
        <ele>482.72</ele>
        <time>2022-05-18T09:06:49Z</time>
      </trkpt>
      <trkpt lat="44.67197" lon="5.09436">
        <ele>482.72</ele>
        <time>2022-05-18T09:06:50Z</time>
      </trkpt>
      <trkpt lat="44.67196" lon="5.09437">
        <ele>482.72</ele>
        <time>2022-05-18T09:06:51Z</time>
      </trkpt>
      <trkpt lat="44.67196" lon="5.09439">
        <ele>482.72</ele>
        <time>2022-05-18T09:06:52Z</time>
      </trkpt>
      <trkpt lat="44.67195" lon="5.09467">
        <ele>482.72</ele>
        <time>2022-05-18T09:07:13Z</time>
      </trkpt>
      <trkpt lat="44.67194" lon="5.09477">
        <ele>482.24</ele>
        <time>2022-05-18T09:07:32Z</time>
      </trkpt>
      <trkpt lat="44.67193" lon="5.0948">
        <ele>482.24</ele>
        <time>2022-05-18T09:07:40Z</time>
      </trkpt>
      <trkpt lat="44.67193" lon="5.09481">
        <ele>482.24</ele>
        <time>2022-05-18T09:07:41Z</time>
      </trkpt>
      <trkpt lat="44.67193" lon="5.09484">
        <ele>482.24</ele>
        <time>2022-05-18T09:07:43Z</time>
      </trkpt>
      <trkpt lat="44.67192" lon="5.09485">
        <ele>482.24</ele>
        <time>2022-05-18T09:07:44Z</time>
      </trkpt>
      <trkpt lat="44.67192" lon="5.09487">
        <ele>482.24</ele>
        <time>2022-05-18T09:07:45Z</time>
      </trkpt>
      <trkpt lat="44.67188" lon="5.09519">
        <ele>482.24</ele>
        <time>2022-05-18T09:08:06Z</time>
      </trkpt>
      <trkpt lat="44.67186" lon="5.09556">
        <ele>480.8</ele>
        <time>2022-05-18T09:08:29Z</time>
      </trkpt>
      <trkpt lat="44.67185" lon="5.09583">
        <ele>481.28</ele>
        <time>2022-05-18T09:08:48Z</time>
      </trkpt>
      <trkpt lat="44.67184" lon="5.09608">
        <ele>483.2</ele>
        <time>2022-05-18T09:09:07Z</time>
      </trkpt>
      <trkpt lat="44.67183" lon="5.09627">
        <ele>484.16</ele>
        <time>2022-05-18T09:09:26Z</time>
      </trkpt>
      <trkpt lat="44.67194" lon="5.09659">
        <ele>486.08</ele>
        <time>2022-05-18T09:09:52Z</time>
      </trkpt>
      <trkpt lat="44.67208" lon="5.09689">
        <ele>488.49</ele>
        <time>2022-05-18T09:10:15Z</time>
      </trkpt>
      <trkpt lat="44.67215" lon="5.09712">
        <ele>490.41</ele>
        <time>2022-05-18T09:10:37Z</time>
      </trkpt>
      <trkpt lat="44.67216" lon="5.09727">
        <ele>492.81</ele>
        <time>2022-05-18T09:11:00Z</time>
      </trkpt>
      <trkpt lat="44.67215" lon="5.09728">
        <ele>493.29</ele>
        <time>2022-05-18T09:11:24Z</time>
      </trkpt>
      <trkpt lat="44.6721" lon="5.09729">
        <ele>493.77</ele>
        <time>2022-05-18T09:11:41Z</time>
      </trkpt>
      <trkpt lat="44.67207" lon="5.09734">
        <ele>495.7</ele>
        <time>2022-05-18T09:12:04Z</time>
      </trkpt>
      <trkpt lat="44.67197" lon="5.09738">
        <ele>498.58</ele>
        <time>2022-05-18T09:12:24Z</time>
      </trkpt>
      <trkpt lat="44.67188" lon="5.09738">
        <ele>501.95</ele>
        <time>2022-05-18T09:12:41Z</time>
      </trkpt>
      <trkpt lat="44.67185" lon="5.09739">
        <ele>504.83</ele>
        <time>2022-05-18T09:13:01Z</time>
      </trkpt>
      <trkpt lat="44.67179" lon="5.09743">
        <ele>507.23</ele>
        <time>2022-05-18T09:13:24Z</time>
      </trkpt>
      <trkpt lat="44.67177" lon="5.09745">
        <ele>509.64</ele>
        <time>2022-05-18T09:13:44Z</time>
      </trkpt>
      <trkpt lat="44.67172" lon="5.09747">
        <ele>512.52</ele>
        <time>2022-05-18T09:14:07Z</time>
      </trkpt>
      <trkpt lat="44.67168" lon="5.09748">
        <ele>515.4</ele>
        <time>2022-05-18T09:14:30Z</time>
      </trkpt>
      <trkpt lat="44.67163" lon="5.09749">
        <ele>517.81</ele>
        <time>2022-05-18T09:14:54Z</time>
      </trkpt>
      <trkpt lat="44.67152" lon="5.09746">
        <ele>520.21</ele>
        <time>2022-05-18T09:15:11Z</time>
      </trkpt>
      <trkpt lat="44.6714" lon="5.09744">
        <ele>523.58</ele>
        <time>2022-05-18T09:15:29Z</time>
      </trkpt>
      <trkpt lat="44.67133" lon="5.09746">
        <ele>526.46</ele>
        <time>2022-05-18T09:15:53Z</time>
      </trkpt>
      <trkpt lat="44.67125" lon="5.0975">
        <ele>529.82</ele>
        <time>2022-05-18T09:16:15Z</time>
      </trkpt>
      <trkpt lat="44.67119" lon="5.0975">
        <ele>532.23</ele>
        <time>2022-05-18T09:16:40Z</time>
      </trkpt>
      <trkpt lat="44.67108" lon="5.09749">
        <ele>535.59</ele>
        <time>2022-05-18T09:17:04Z</time>
      </trkpt>
      <trkpt lat="44.67103" lon="5.09749">
        <ele>537.99</ele>
        <time>2022-05-18T09:17:27Z</time>
      </trkpt>
      <trkpt lat="44.67098" lon="5.09749">
        <ele>540.88</ele>
        <time>2022-05-18T09:17:54Z</time>
      </trkpt>
      <trkpt lat="44.67092" lon="5.09748">
        <ele>543.28</ele>
        <time>2022-05-18T09:18:18Z</time>
      </trkpt>
      <trkpt lat="44.67089" lon="5.09748">
        <ele>545.2</ele>
        <time>2022-05-18T09:18:43Z</time>
      </trkpt>
      <trkpt lat="44.67087" lon="5.09748">
        <ele>546.65</ele>
        <time>2022-05-18T09:19:04Z</time>
      </trkpt>
      <trkpt lat="44.67081" lon="5.09746">
        <ele>549.05</ele>
        <time>2022-05-18T09:19:32Z</time>
      </trkpt>
      <trkpt lat="44.67071" lon="5.09743">
        <ele>550.97</ele>
        <time>2022-05-18T09:19:58Z</time>
      </trkpt>
      <trkpt lat="44.67064" lon="5.09737">
        <ele>554.34</ele>
        <time>2022-05-18T09:20:20Z</time>
      </trkpt>
      <trkpt lat="44.67056" lon="5.09733">
        <ele>557.22</ele>
        <time>2022-05-18T09:20:40Z</time>
      </trkpt>
      <trkpt lat="44.6705" lon="5.09731">
        <ele>560.11</ele>
        <time>2022-05-18T09:21:02Z</time>
      </trkpt>
      <trkpt lat="44.67042" lon="5.0973">
        <ele>562.99</ele>
        <time>2022-05-18T09:21:23Z</time>
      </trkpt>
      <trkpt lat="44.67038" lon="5.09724">
        <ele>565.39</ele>
        <time>2022-05-18T09:21:44Z</time>
      </trkpt>
      <trkpt lat="44.67035" lon="5.09723">
        <ele>567.32</ele>
        <time>2022-05-18T09:22:04Z</time>
      </trkpt>
      <trkpt lat="44.67035" lon="5.09723">
        <ele>567.8</ele>
        <time>2022-05-18T09:22:36Z</time>
      </trkpt>
      <trkpt lat="44.67034" lon="5.09724">
        <ele>567.8</ele>
        <time>2022-05-18T09:23:08Z</time>
      </trkpt>
      <trkpt lat="44.67034" lon="5.09723">
        <ele>564.91</ele>
        <time>2022-05-18T09:23:40Z</time>
      </trkpt>
      <trkpt lat="44.67034" lon="5.09724">
        <ele>567.8</ele>
        <time>2022-05-18T09:23:49Z</time>
      </trkpt>
      <trkpt lat="44.67034" lon="5.09724">
        <ele>567.32</ele>
        <time>2022-05-18T09:24:19Z</time>
      </trkpt>
      <trkpt lat="44.67032" lon="5.09725">
        <ele>567.8</ele>
        <time>2022-05-18T09:24:44Z</time>
      </trkpt>
      <trkpt lat="44.67024" lon="5.09725">
        <ele>567.32</ele>
        <time>2022-05-18T09:25:18Z</time>
      </trkpt>
      <trkpt lat="44.67018" lon="5.09718">
        <ele>567.32</ele>
        <time>2022-05-18T09:25:39Z</time>
      </trkpt>
      <trkpt lat="44.67012" lon="5.09713">
        <ele>567.32</ele>
        <time>2022-05-18T09:25:59Z</time>
      </trkpt>
      <trkpt lat="44.67012" lon="5.09713">
        <ele>575.01</ele>
        <time>2022-05-18T09:26:08Z</time>
      </trkpt>
      <trkpt lat="44.67012" lon="5.09713">
        <ele>574.53</ele>
        <time>2022-05-18T09:26:09Z</time>
      </trkpt>
      <trkpt lat="44.67008" lon="5.09711">
        <ele>575.97</ele>
        <time>2022-05-18T09:26:32Z</time>
      </trkpt>
      <trkpt lat="44.67003" lon="5.09704">
        <ele>578.37</ele>
        <time>2022-05-18T09:26:52Z</time>
      </trkpt>
      <trkpt lat="44.66999" lon="5.09702">
        <ele>581.25</ele>
        <time>2022-05-18T09:27:12Z</time>
      </trkpt>
      <trkpt lat="44.66992" lon="5.09698">
        <ele>584.14</ele>
        <time>2022-05-18T09:27:34Z</time>
      </trkpt>
      <trkpt lat="44.66987" lon="5.09696">
        <ele>587.02</ele>
        <time>2022-05-18T09:27:59Z</time>
      </trkpt>
      <trkpt lat="44.66983" lon="5.09698">
        <ele>589.91</ele>
        <time>2022-05-18T09:28:25Z</time>
      </trkpt>
      <trkpt lat="44.66979" lon="5.09693">
        <ele>592.79</ele>
        <time>2022-05-18T09:28:47Z</time>
      </trkpt>
      <trkpt lat="44.66972" lon="5.09693">
        <ele>596.15</ele>
        <time>2022-05-18T09:29:09Z</time>
      </trkpt>
      <trkpt lat="44.66968" lon="5.09692">
        <ele>599.04</ele>
        <time>2022-05-18T09:29:29Z</time>
      </trkpt>
      <trkpt lat="44.66962" lon="5.09689">
        <ele>601.44</ele>
        <time>2022-05-18T09:29:51Z</time>
      </trkpt>
      <trkpt lat="44.66955" lon="5.09689">
        <ele>604.81</ele>
        <time>2022-05-18T09:30:13Z</time>
      </trkpt>
      <trkpt lat="44.66953" lon="5.09683">
        <ele>607.21</ele>
        <time>2022-05-18T09:30:35Z</time>
      </trkpt>
      <trkpt lat="44.6695" lon="5.09674">
        <ele>609.61</ele>
        <time>2022-05-18T09:30:56Z</time>
      </trkpt>
      <trkpt lat="44.6695" lon="5.09668">
        <ele>612.02</ele>
        <time>2022-05-18T09:31:20Z</time>
      </trkpt>
      <trkpt lat="44.66947" lon="5.09667">
        <ele>613.94</ele>
        <time>2022-05-18T09:31:50Z</time>
      </trkpt>
      <trkpt lat="44.6695" lon="5.09665">
        <ele>617.3</ele>
        <time>2022-05-18T09:32:10Z</time>
      </trkpt>
      <trkpt lat="44.66946" lon="5.09665">
        <ele>618.75</ele>
        <time>2022-05-18T09:32:33Z</time>
      </trkpt>
      <trkpt lat="44.66944" lon="5.09656">
        <ele>620.67</ele>
        <time>2022-05-18T09:32:53Z</time>
      </trkpt>
      <trkpt lat="44.66941" lon="5.0965">
        <ele>623.55</ele>
        <time>2022-05-18T09:33:21Z</time>
      </trkpt>
      <trkpt lat="44.6694" lon="5.09651">
        <ele>624.03</ele>
        <time>2022-05-18T09:33:46Z</time>
      </trkpt>
      <trkpt lat="44.66937" lon="5.09659">
        <ele>625.96</ele>
        <time>2022-05-18T09:34:15Z</time>
      </trkpt>
      <trkpt lat="44.66934" lon="5.0966">
        <ele>626.92</ele>
        <time>2022-05-18T09:34:20Z</time>
      </trkpt>
      <trkpt lat="44.66931" lon="5.09664">
        <ele>629.8</ele>
        <time>2022-05-18T09:34:36Z</time>
      </trkpt>
      <trkpt lat="44.66923" lon="5.09661">
        <ele>633.17</ele>
        <time>2022-05-18T09:35:01Z</time>
      </trkpt>
      <trkpt lat="44.66923" lon="5.09664">
        <ele>635.09</ele>
        <time>2022-05-18T09:35:23Z</time>
      </trkpt>
      <trkpt lat="44.66921" lon="5.09665">
        <ele>635.57</ele>
        <time>2022-05-18T09:35:46Z</time>
      </trkpt>
      <trkpt lat="44.66913" lon="5.09659">
        <ele>638.45</ele>
        <time>2022-05-18T09:36:11Z</time>
      </trkpt>
      <trkpt lat="44.66912" lon="5.09656">
        <ele>640.38</ele>
        <time>2022-05-18T09:36:24Z</time>
      </trkpt>
      <trkpt lat="44.66915" lon="5.0965">
        <ele>642.3</ele>
        <time>2022-05-18T09:36:35Z</time>
      </trkpt>
      <trkpt lat="44.6691" lon="5.09657">
        <ele>645.18</ele>
        <time>2022-05-18T09:36:58Z</time>
      </trkpt>
      <trkpt lat="44.66911" lon="5.09661">
        <ele>646.62</ele>
        <time>2022-05-18T09:37:22Z</time>
      </trkpt>
      <trkpt lat="44.66911" lon="5.09661">
        <ele>646.62</ele>
        <time>2022-05-18T09:37:48Z</time>
      </trkpt>
      <trkpt lat="44.6691" lon="5.09666">
        <ele>647.1</ele>
        <time>2022-05-18T09:38:09Z</time>
      </trkpt>
      <trkpt lat="44.66906" lon="5.09673">
        <ele>649.51</ele>
        <time>2022-05-18T09:38:31Z</time>
      </trkpt>
      <trkpt lat="44.66898" lon="5.09668">
        <ele>651.91</ele>
        <time>2022-05-18T09:38:51Z</time>
      </trkpt>
      <trkpt lat="44.66893" lon="5.09657">
        <ele>654.8</ele>
        <time>2022-05-18T09:39:09Z</time>
      </trkpt>
      <trkpt lat="44.66891" lon="5.09654">
        <ele>656.72</ele>
        <time>2022-05-18T09:39:34Z</time>
      </trkpt>
      <trkpt lat="44.66893" lon="5.09647">
        <ele>659.12</ele>
        <time>2022-05-18T09:39:55Z</time>
      </trkpt>
      <trkpt lat="44.66895" lon="5.09648">
        <ele>659.6</ele>
        <time>2022-05-18T09:40:11Z</time>
      </trkpt>
      <trkpt lat="44.66889" lon="5.09642">
        <ele>659.6</ele>
        <time>2022-05-18T09:40:34Z</time>
      </trkpt>
      <trkpt lat="44.66884" lon="5.09626">
        <ele>662.01</ele>
        <time>2022-05-18T09:40:57Z</time>
      </trkpt>
      <trkpt lat="44.66882" lon="5.09621">
        <ele>663.45</ele>
        <time>2022-05-18T09:41:13Z</time>
      </trkpt>
      <trkpt lat="44.6688" lon="5.09624">
        <ele>662.97</ele>
        <time>2022-05-18T09:41:31Z</time>
      </trkpt>
      <trkpt lat="44.66876" lon="5.0963">
        <ele>662.01</ele>
        <time>2022-05-18T09:41:47Z</time>
      </trkpt>
      <trkpt lat="44.6687" lon="5.09644">
        <ele>662.01</ele>
        <time>2022-05-18T09:42:08Z</time>
      </trkpt>
      <trkpt lat="44.66868" lon="5.0966">
        <ele>663.45</ele>
        <time>2022-05-18T09:42:29Z</time>
      </trkpt>
      <trkpt lat="44.66862" lon="5.09681">
        <ele>663.45</ele>
        <time>2022-05-18T09:42:52Z</time>
      </trkpt>
      <trkpt lat="44.6686" lon="5.09689">
        <ele>666.33</ele>
        <time>2022-05-18T09:43:11Z</time>
      </trkpt>
      <trkpt lat="44.66855" lon="5.09704">
        <ele>667.29</ele>
        <time>2022-05-18T09:43:35Z</time>
      </trkpt>
      <trkpt lat="44.66851" lon="5.09711">
        <ele>667.77</ele>
        <time>2022-05-18T09:43:41Z</time>
      </trkpt>
      <trkpt lat="44.6685" lon="5.09713">
        <ele>667.77</ele>
        <time>2022-05-18T09:43:42Z</time>
      </trkpt>
      <trkpt lat="44.66849" lon="5.09714">
        <ele>667.77</ele>
        <time>2022-05-18T09:43:43Z</time>
      </trkpt>
      <trkpt lat="44.66849" lon="5.09715">
        <ele>667.77</ele>
        <time>2022-05-18T09:43:44Z</time>
      </trkpt>
      <trkpt lat="44.66849" lon="5.09717">
        <ele>667.77</ele>
        <time>2022-05-18T09:43:45Z</time>
      </trkpt>
      <trkpt lat="44.66847" lon="5.09733">
        <ele>667.29</ele>
        <time>2022-05-18T09:44:00Z</time>
      </trkpt>
      <trkpt lat="44.66847" lon="5.09753">
        <ele>667.77</ele>
        <time>2022-05-18T09:44:19Z</time>
      </trkpt>
      <trkpt lat="44.66843" lon="5.09774">
        <ele>667.77</ele>
        <time>2022-05-18T09:44:36Z</time>
      </trkpt>
      <trkpt lat="44.66837" lon="5.0979">
        <ele>669.22</ele>
        <time>2022-05-18T09:44:52Z</time>
      </trkpt>
      <trkpt lat="44.66833" lon="5.09806">
        <ele>669.7</ele>
        <time>2022-05-18T09:45:10Z</time>
      </trkpt>
      <trkpt lat="44.66832" lon="5.09822">
        <ele>672.1</ele>
        <time>2022-05-18T09:45:29Z</time>
      </trkpt>
      <trkpt lat="44.66831" lon="5.09835">
        <ele>674.98</ele>
        <time>2022-05-18T09:45:52Z</time>
      </trkpt>
      <trkpt lat="44.6683" lon="5.09844">
        <ele>676.42</ele>
        <time>2022-05-18T09:46:07Z</time>
      </trkpt>
      <trkpt lat="44.66831" lon="5.09849">
        <ele>677.39</ele>
        <time>2022-05-18T09:46:21Z</time>
      </trkpt>
      <trkpt lat="44.66834" lon="5.09862">
        <ele>679.79</ele>
        <time>2022-05-18T09:46:41Z</time>
      </trkpt>
      <trkpt lat="44.66837" lon="5.09879">
        <ele>682.19</ele>
        <time>2022-05-18T09:47:04Z</time>
      </trkpt>
      <trkpt lat="44.66837" lon="5.09894">
        <ele>683.15</ele>
        <time>2022-05-18T09:47:20Z</time>
      </trkpt>
      <trkpt lat="44.66839" lon="5.09907">
        <ele>684.6</ele>
        <time>2022-05-18T09:47:37Z</time>
      </trkpt>
      <trkpt lat="44.66841" lon="5.09917">
        <ele>687</ele>
        <time>2022-05-18T09:48:00Z</time>
      </trkpt>
      <trkpt lat="44.6684" lon="5.09931">
        <ele>687.96</ele>
        <time>2022-05-18T09:48:16Z</time>
      </trkpt>
      <trkpt lat="44.66839" lon="5.09953">
        <ele>687.96</ele>
        <time>2022-05-18T09:48:38Z</time>
      </trkpt>
      <trkpt lat="44.66839" lon="5.0997">
        <ele>689.4</ele>
        <time>2022-05-18T09:49:00Z</time>
      </trkpt>
      <trkpt lat="44.66838" lon="5.09985">
        <ele>691.33</ele>
        <time>2022-05-18T09:49:20Z</time>
      </trkpt>
      <trkpt lat="44.66836" lon="5.10002">
        <ele>691.81</ele>
        <time>2022-05-18T09:49:40Z</time>
      </trkpt>
      <trkpt lat="44.66833" lon="5.10012">
        <ele>694.21</ele>
        <time>2022-05-18T09:50:01Z</time>
      </trkpt>
      <trkpt lat="44.66826" lon="5.10029">
        <ele>697.09</ele>
        <time>2022-05-18T09:50:28Z</time>
      </trkpt>
      <trkpt lat="44.66819" lon="5.10036">
        <ele>699.02</ele>
        <time>2022-05-18T09:50:46Z</time>
      </trkpt>
      <trkpt lat="44.66815" lon="5.10045">
        <ele>699.98</ele>
        <time>2022-05-18T09:51:03Z</time>
      </trkpt>
      <trkpt lat="44.66816" lon="5.10045">
        <ele>699.98</ele>
        <time>2022-05-18T09:51:25Z</time>
      </trkpt>
      <trkpt lat="44.66816" lon="5.10046">
        <ele>699.98</ele>
        <time>2022-05-18T09:51:49Z</time>
      </trkpt>
      <trkpt lat="44.66816" lon="5.10047">
        <ele>699.98</ele>
        <time>2022-05-18T09:52:16Z</time>
      </trkpt>
      <trkpt lat="44.66816" lon="5.10047">
        <ele>699.98</ele>
        <time>2022-05-18T09:52:47Z</time>
      </trkpt>
      <trkpt lat="44.66817" lon="5.1005">
        <ele>699.98</ele>
        <time>2022-05-18T09:53:02Z</time>
      </trkpt>
      <trkpt lat="44.66815" lon="5.1006">
        <ele>699.02</ele>
        <time>2022-05-18T09:53:16Z</time>
      </trkpt>
      <trkpt lat="44.66813" lon="5.10072">
        <ele>699.02</ele>
        <time>2022-05-18T09:53:31Z</time>
      </trkpt>
      <trkpt lat="44.66821" lon="5.1007">
        <ele>697.09</ele>
        <time>2022-05-18T09:53:46Z</time>
      </trkpt>
      <trkpt lat="44.66833" lon="5.10067">
        <ele>695.17</ele>
        <time>2022-05-18T09:54:04Z</time>
      </trkpt>
      <trkpt lat="44.66838" lon="5.10068">
        <ele>692.77</ele>
        <time>2022-05-18T09:54:21Z</time>
      </trkpt>
      <trkpt lat="44.66828" lon="5.10081">
        <ele>690.84</ele>
        <time>2022-05-18T09:54:42Z</time>
      </trkpt>
      <trkpt lat="44.66827" lon="5.10088">
        <ele>688.44</ele>
        <time>2022-05-18T09:54:58Z</time>
      </trkpt>
      <trkpt lat="44.66824" lon="5.10097">
        <ele>685.56</ele>
        <time>2022-05-18T09:55:14Z</time>
      </trkpt>
      <trkpt lat="44.66819" lon="5.10105">
        <ele>683.63</ele>
        <time>2022-05-18T09:55:34Z</time>
      </trkpt>
      <trkpt lat="44.66809" lon="5.10121">
        <ele>680.27</ele>
        <time>2022-05-18T09:55:55Z</time>
      </trkpt>
      <trkpt lat="44.66799" lon="5.10134">
        <ele>677.39</ele>
        <time>2022-05-18T09:56:13Z</time>
      </trkpt>
      <trkpt lat="44.66789" lon="5.10151">
        <ele>674.5</ele>
        <time>2022-05-18T09:56:32Z</time>
      </trkpt>
      <trkpt lat="44.66782" lon="5.1017">
        <ele>671.62</ele>
        <time>2022-05-18T09:56:54Z</time>
      </trkpt>
      <trkpt lat="44.66774" lon="5.10186">
        <ele>668.73</ele>
        <time>2022-05-18T09:57:12Z</time>
      </trkpt>
      <trkpt lat="44.66766" lon="5.10204">
        <ele>666.81</ele>
        <time>2022-05-18T09:57:30Z</time>
      </trkpt>
      <trkpt lat="44.66761" lon="5.10225">
        <ele>664.41</ele>
        <time>2022-05-18T09:57:49Z</time>
      </trkpt>
      <trkpt lat="44.66755" lon="5.10245">
        <ele>661.52</ele>
        <time>2022-05-18T09:58:07Z</time>
      </trkpt>
      <trkpt lat="44.66749" lon="5.10261">
        <ele>659.6</ele>
        <time>2022-05-18T09:58:25Z</time>
      </trkpt>
      <trkpt lat="44.66746" lon="5.1028">
        <ele>657.2</ele>
        <time>2022-05-18T09:58:44Z</time>
      </trkpt>
      <trkpt lat="44.66745" lon="5.10304">
        <ele>654.31</ele>
        <time>2022-05-18T09:59:05Z</time>
      </trkpt>
      <trkpt lat="44.66742" lon="5.10335">
        <ele>651.91</ele>
        <time>2022-05-18T09:59:28Z</time>
      </trkpt>
      <trkpt lat="44.6674" lon="5.10349">
        <ele>651.43</ele>
        <time>2022-05-18T09:59:37Z</time>
      </trkpt>
      <trkpt lat="44.66735" lon="5.10376">
        <ele>650.95</ele>
        <time>2022-05-18T09:59:56Z</time>
      </trkpt>
      <trkpt lat="44.66734" lon="5.10398">
        <ele>649.99</ele>
        <time>2022-05-18T10:00:15Z</time>
      </trkpt>
      <trkpt lat="44.66725" lon="5.10434">
        <ele>649.03</ele>
        <time>2022-05-18T10:00:42Z</time>
      </trkpt>
      <trkpt lat="44.66715" lon="5.1046">
        <ele>649.99</ele>
        <time>2022-05-18T10:01:05Z</time>
      </trkpt>
      <trkpt lat="44.66709" lon="5.10473">
        <ele>650.47</ele>
        <time>2022-05-18T10:01:27Z</time>
      </trkpt>
      <trkpt lat="44.66709" lon="5.10474">
        <ele>650.95</ele>
        <time>2022-05-18T10:01:55Z</time>
      </trkpt>
      <trkpt lat="44.66708" lon="5.10476">
        <ele>650.95</ele>
        <time>2022-05-18T10:02:25Z</time>
      </trkpt>
      <trkpt lat="44.66708" lon="5.10477">
        <ele>650.95</ele>
        <time>2022-05-18T10:02:58Z</time>
      </trkpt>
      <trkpt lat="44.66705" lon="5.10477">
        <ele>650.95</ele>
        <time>2022-05-18T10:03:30Z</time>
      </trkpt>
      <trkpt lat="44.66699" lon="5.10467">
        <ele>650.95</ele>
        <time>2022-05-18T10:03:58Z</time>
      </trkpt>
      <trkpt lat="44.66694" lon="5.10453">
        <ele>660.56</ele>
        <time>2022-05-18T10:04:22Z</time>
      </trkpt>
      <trkpt lat="44.66694" lon="5.10453">
        <ele>660.56</ele>
        <time>2022-05-18T10:04:23Z</time>
      </trkpt>
      <trkpt lat="44.66697" lon="5.10442">
        <ele>663.45</ele>
        <time>2022-05-18T10:04:42Z</time>
      </trkpt>
      <trkpt lat="44.667" lon="5.10432">
        <ele>666.33</ele>
        <time>2022-05-18T10:05:05Z</time>
      </trkpt>
      <trkpt lat="44.667" lon="5.10421">
        <ele>669.22</ele>
        <time>2022-05-18T10:05:31Z</time>
      </trkpt>
      <trkpt lat="44.66693" lon="5.1042">
        <ele>672.58</ele>
        <time>2022-05-18T10:05:58Z</time>
      </trkpt>
      <trkpt lat="44.66691" lon="5.10412">
        <ele>674.98</ele>
        <time>2022-05-18T10:06:23Z</time>
      </trkpt>
      <trkpt lat="44.66688" lon="5.10405">
        <ele>677.87</ele>
        <time>2022-05-18T10:06:48Z</time>
      </trkpt>
      <trkpt lat="44.66681" lon="5.10409">
        <ele>681.23</ele>
        <time>2022-05-18T10:07:15Z</time>
      </trkpt>
      <trkpt lat="44.66673" lon="5.10414">
        <ele>683.63</ele>
        <time>2022-05-18T10:07:39Z</time>
      </trkpt>
      <trkpt lat="44.66665" lon="5.10427">
        <ele>686.04</ele>
        <time>2022-05-18T10:08:00Z</time>
      </trkpt>
      <trkpt lat="44.6666" lon="5.10445">
        <ele>688.92</ele>
        <time>2022-05-18T10:08:25Z</time>
      </trkpt>
      <trkpt lat="44.66652" lon="5.10465">
        <ele>691.81</ele>
        <time>2022-05-18T10:08:52Z</time>
      </trkpt>
      <trkpt lat="44.66645" lon="5.10478">
        <ele>694.69</ele>
        <time>2022-05-18T10:09:14Z</time>
      </trkpt>
      <trkpt lat="44.66643" lon="5.10488">
        <ele>697.57</ele>
        <time>2022-05-18T10:09:35Z</time>
      </trkpt>
      <trkpt lat="44.66642" lon="5.10491">
        <ele>699.02</ele>
        <time>2022-05-18T10:10:02Z</time>
      </trkpt>
      <trkpt lat="44.66643" lon="5.10492">
        <ele>699.02</ele>
        <time>2022-05-18T10:10:30Z</time>
      </trkpt>
      <trkpt lat="44.66643" lon="5.10492">
        <ele>699.02</ele>
        <time>2022-05-18T10:10:54Z</time>
      </trkpt>
      <trkpt lat="44.66641" lon="5.10492">
        <ele>699.02</ele>
        <time>2022-05-18T10:11:19Z</time>
      </trkpt>
      <trkpt lat="44.6664" lon="5.10498">
        <ele>699.02</ele>
        <time>2022-05-18T10:11:47Z</time>
      </trkpt>
      <trkpt lat="44.66636" lon="5.10515">
        <ele>702.38</ele>
        <time>2022-05-18T10:12:14Z</time>
      </trkpt>
      <trkpt lat="44.66631" lon="5.10531">
        <ele>705.26</ele>
        <time>2022-05-18T10:12:36Z</time>
      </trkpt>
      <trkpt lat="44.66627" lon="5.10546">
        <ele>708.63</ele>
        <time>2022-05-18T10:13:00Z</time>
      </trkpt>
      <trkpt lat="44.66622" lon="5.10559">
        <ele>711.99</ele>
        <time>2022-05-18T10:13:26Z</time>
      </trkpt>
      <trkpt lat="44.66619" lon="5.10569">
        <ele>714.88</ele>
        <time>2022-05-18T10:13:46Z</time>
      </trkpt>
      <trkpt lat="44.66614" lon="5.10588">
        <ele>717.76</ele>
        <time>2022-05-18T10:14:12Z</time>
      </trkpt>
      <trkpt lat="44.66612" lon="5.10609">
        <ele>719.2</ele>
        <time>2022-05-18T10:14:31Z</time>
      </trkpt>
      <trkpt lat="44.66611" lon="5.10625">
        <ele>722.09</ele>
        <time>2022-05-18T10:14:56Z</time>
      </trkpt>
      <trkpt lat="44.66604" lon="5.1064">
        <ele>724.97</ele>
        <time>2022-05-18T10:15:20Z</time>
      </trkpt>
      <trkpt lat="44.66598" lon="5.10653">
        <ele>726.89</ele>
        <time>2022-05-18T10:15:37Z</time>
      </trkpt>
      <trkpt lat="44.66596" lon="5.10669">
        <ele>729.78</ele>
        <time>2022-05-18T10:16:00Z</time>
      </trkpt>
      <trkpt lat="44.66592" lon="5.10676">
        <ele>732.18</ele>
        <time>2022-05-18T10:16:21Z</time>
      </trkpt>
      <trkpt lat="44.66586" lon="5.10679">
        <ele>735.55</ele>
        <time>2022-05-18T10:16:43Z</time>
      </trkpt>
      <trkpt lat="44.66582" lon="5.10687">
        <ele>738.43</ele>
        <time>2022-05-18T10:17:05Z</time>
      </trkpt>
      <trkpt lat="44.66578" lon="5.10693">
        <ele>741.79</ele>
        <time>2022-05-18T10:17:29Z</time>
      </trkpt>
      <trkpt lat="44.66574" lon="5.10696">
        <ele>744.68</ele>
        <time>2022-05-18T10:17:54Z</time>
      </trkpt>
      <trkpt lat="44.66571" lon="5.107">
        <ele>747.56</ele>
        <time>2022-05-18T10:18:14Z</time>
      </trkpt>
      <trkpt lat="44.66571" lon="5.10708">
        <ele>750.93</ele>
        <time>2022-05-18T10:18:35Z</time>
      </trkpt>
      <trkpt lat="44.6657" lon="5.10713">
        <ele>752.85</ele>
        <time>2022-05-18T10:19:03Z</time>
      </trkpt>
      <trkpt lat="44.66569" lon="5.10717">
        <ele>753.33</ele>
        <time>2022-05-18T10:19:32Z</time>
      </trkpt>
      <trkpt lat="44.6657" lon="5.1072">
        <ele>755.25</ele>
        <time>2022-05-18T10:19:59Z</time>
      </trkpt>
      <trkpt lat="44.66571" lon="5.10722">
        <ele>755.73</ele>
        <time>2022-05-18T10:20:58Z</time>
      </trkpt>
      <trkpt lat="44.66571" lon="5.10723">
        <ele>755.25</ele>
        <time>2022-05-18T10:22:06Z</time>
      </trkpt>
      <trkpt lat="44.6657" lon="5.10726">
        <ele>755.25</ele>
        <time>2022-05-18T10:22:50Z</time>
      </trkpt>
      <trkpt lat="44.6657" lon="5.10726">
        <ele>755.25</ele>
        <time>2022-05-18T10:23:13Z</time>
      </trkpt>
      <trkpt lat="44.6657" lon="5.10728">
        <ele>755.25</ele>
        <time>2022-05-18T10:23:50Z</time>
      </trkpt>
      <trkpt lat="44.66568" lon="5.10727">
        <ele>755.25</ele>
        <time>2022-05-18T10:24:33Z</time>
      </trkpt>
      <trkpt lat="44.66568" lon="5.10727">
        <ele>755.25</ele>
        <time>2022-05-18T10:25:05Z</time>
      </trkpt>
      <trkpt lat="44.66566" lon="5.10733">
        <ele>755.25</ele>
        <time>2022-05-18T10:25:26Z</time>
      </trkpt>
      <trkpt lat="44.66564" lon="5.10738">
        <ele>755.25</ele>
        <time>2022-05-18T10:25:57Z</time>
      </trkpt>
      <trkpt lat="44.66563" lon="5.1074">
        <ele>760.54</ele>
        <time>2022-05-18T10:26:28Z</time>
      </trkpt>
      <trkpt lat="44.66563" lon="5.1074">
        <ele>760.54</ele>
        <time>2022-05-18T10:26:29Z</time>
      </trkpt>
      <trkpt lat="44.66562" lon="5.10745">
        <ele>762.46</ele>
        <time>2022-05-18T10:26:44Z</time>
      </trkpt>
      <trkpt lat="44.6656" lon="5.10751">
        <ele>764.87</ele>
        <time>2022-05-18T10:26:53Z</time>
      </trkpt>
      <trkpt lat="44.66555" lon="5.10761">
        <ele>768.23</ele>
        <time>2022-05-18T10:27:08Z</time>
      </trkpt>
      <trkpt lat="44.66554" lon="5.10762">
        <ele>771.11</ele>
        <time>2022-05-18T10:27:38Z</time>
      </trkpt>
      <trkpt lat="44.66546" lon="5.10782">
        <ele>773.04</ele>
        <time>2022-05-18T10:28:21Z</time>
      </trkpt>
      <trkpt lat="44.66542" lon="5.10783">
        <ele>776.4</ele>
        <time>2022-05-18T10:28:45Z</time>
      </trkpt>
      <trkpt lat="44.66542" lon="5.10792">
        <ele>779.29</ele>
        <time>2022-05-18T10:29:02Z</time>
      </trkpt>
      <trkpt lat="44.66541" lon="5.10812">
        <ele>782.17</ele>
        <time>2022-05-18T10:29:22Z</time>
      </trkpt>
      <trkpt lat="44.6654" lon="5.10823">
        <ele>785.53</ele>
        <time>2022-05-18T10:29:41Z</time>
      </trkpt>
      <trkpt lat="44.66537" lon="5.10835">
        <ele>788.42</ele>
        <time>2022-05-18T10:29:57Z</time>
      </trkpt>
      <trkpt lat="44.66533" lon="5.10849">
        <ele>791.3</ele>
        <time>2022-05-18T10:30:13Z</time>
      </trkpt>
      <trkpt lat="44.66527" lon="5.10867">
        <ele>794.67</ele>
        <time>2022-05-18T10:30:36Z</time>
      </trkpt>
      <trkpt lat="44.66522" lon="5.10879">
        <ele>798.03</ele>
        <time>2022-05-18T10:30:54Z</time>
      </trkpt>
      <trkpt lat="44.66519" lon="5.1089">
        <ele>800.92</ele>
        <time>2022-05-18T10:31:10Z</time>
      </trkpt>
      <trkpt lat="44.66511" lon="5.10903">
        <ele>803.8</ele>
        <time>2022-05-18T10:31:31Z</time>
      </trkpt>
      <trkpt lat="44.66503" lon="5.10906">
        <ele>807.16</ele>
        <time>2022-05-18T10:31:46Z</time>
      </trkpt>
      <trkpt lat="44.66493" lon="5.10911">
        <ele>810.05</ele>
        <time>2022-05-18T10:32:06Z</time>
      </trkpt>
      <trkpt lat="44.66483" lon="5.10937">
        <ele>813.41</ele>
        <time>2022-05-18T10:32:34Z</time>
      </trkpt>
      <trkpt lat="44.66484" lon="5.10952">
        <ele>813.41</ele>
        <time>2022-05-18T10:32:52Z</time>
      </trkpt>
      <trkpt lat="44.66484" lon="5.10952">
        <ele>813.89</ele>
        <time>2022-05-18T10:33:13Z</time>
      </trkpt>
      <trkpt lat="44.66481" lon="5.10958">
        <ele>814.37</ele>
        <time>2022-05-18T10:33:31Z</time>
      </trkpt>
      <trkpt lat="44.6648" lon="5.10959">
        <ele>813.89</ele>
        <time>2022-05-18T10:34:06Z</time>
      </trkpt>
      <trkpt lat="44.66481" lon="5.10959">
        <ele>813.89</ele>
        <time>2022-05-18T10:34:38Z</time>
      </trkpt>
      <trkpt lat="44.66479" lon="5.10957">
        <ele>813.89</ele>
        <time>2022-05-18T10:35:04Z</time>
      </trkpt>
      <trkpt lat="44.66476" lon="5.10961">
        <ele>813.89</ele>
        <time>2022-05-18T10:35:24Z</time>
      </trkpt>
      <trkpt lat="44.66471" lon="5.10969">
        <ele>813.89</ele>
        <time>2022-05-18T10:35:44Z</time>
      </trkpt>
      <trkpt lat="44.66471" lon="5.10982">
        <ele>813.89</ele>
        <time>2022-05-18T10:36:03Z</time>
      </trkpt>
      <trkpt lat="44.66472" lon="5.10985">
        <ele>813.89</ele>
        <time>2022-05-18T10:36:34Z</time>
      </trkpt>
      <trkpt lat="44.66475" lon="5.10992">
        <ele>813.89</ele>
        <time>2022-05-18T10:37:00Z</time>
      </trkpt>
      <trkpt lat="44.66475" lon="5.11001">
        <ele>813.89</ele>
        <time>2022-05-18T10:37:31Z</time>
      </trkpt>
      <trkpt lat="44.6648" lon="5.11021">
        <ele>813.41</ele>
        <time>2022-05-18T10:37:52Z</time>
      </trkpt>
      <trkpt lat="44.66479" lon="5.11023">
        <ele>813.41</ele>
        <time>2022-05-18T10:38:25Z</time>
      </trkpt>
      <trkpt lat="44.66482" lon="5.11027">
        <ele>813.41</ele>
        <time>2022-05-18T10:38:54Z</time>
      </trkpt>
      <trkpt lat="44.66483" lon="5.11029">
        <ele>813.41</ele>
        <time>2022-05-18T10:39:22Z</time>
      </trkpt>
      <trkpt lat="44.66483" lon="5.1103">
        <ele>813.41</ele>
        <time>2022-05-18T10:39:44Z</time>
      </trkpt>
      <trkpt lat="44.66483" lon="5.11027">
        <ele>813.41</ele>
        <time>2022-05-18T10:40:13Z</time>
      </trkpt>
      <trkpt lat="44.66483" lon="5.11027">
        <ele>813.41</ele>
        <time>2022-05-18T10:40:40Z</time>
      </trkpt>
      <trkpt lat="44.66483" lon="5.11027">
        <ele>813.41</ele>
        <time>2022-05-18T10:41:57Z</time>
      </trkpt>
      <trkpt lat="44.66483" lon="5.11026">
        <ele>813.41</ele>
        <time>2022-05-18T10:43:59Z</time>
      </trkpt>
      <trkpt lat="44.66483" lon="5.11026">
        <ele>813.41</ele>
        <time>2022-05-18T10:46:32Z</time>
      </trkpt>
      <trkpt lat="44.66483" lon="5.11026">
        <ele>813.41</ele>
        <time>2022-05-18T10:50:02Z</time>
      </trkpt>
      <trkpt lat="44.66483" lon="5.11026">
        <ele>813.41</ele>
        <time>2022-05-18T10:52:31Z</time>
      </trkpt>
      <trkpt lat="44.66483" lon="5.11026">
        <ele>813.41</ele>
        <time>2022-05-18T10:53:44Z</time>
      </trkpt>
      <trkpt lat="44.66483" lon="5.11026">
        <ele>813.41</ele>
        <time>2022-05-18T10:54:47Z</time>
      </trkpt>
      <trkpt lat="44.66483" lon="5.11027">
        <ele>813.41</ele>
        <time>2022-05-18T10:58:19Z</time>
      </trkpt>
      <trkpt lat="44.66482" lon="5.11027">
        <ele>813.41</ele>
        <time>2022-05-18T11:00:13Z</time>
      </trkpt>
      <trkpt lat="44.66482" lon="5.11027">
        <ele>813.41</ele>
        <time>2022-05-18T11:04:03Z</time>
      </trkpt>
      <trkpt lat="44.66483" lon="5.11028">
        <ele>813.41</ele>
        <time>2022-05-18T11:05:46Z</time>
      </trkpt>
      <trkpt lat="44.66483" lon="5.11029">
        <ele>813.41</ele>
        <time>2022-05-18T11:08:37Z</time>
      </trkpt>
      <trkpt lat="44.66483" lon="5.11029">
        <ele>813.41</ele>
        <time>2022-05-18T11:10:41Z</time>
      </trkpt>
      <trkpt lat="44.66482" lon="5.11029">
        <ele>813.41</ele>
        <time>2022-05-18T11:12:51Z</time>
      </trkpt>
      <trkpt lat="44.66483" lon="5.11029">
        <ele>813.41</ele>
        <time>2022-05-18T11:13:30Z</time>
      </trkpt>
      <trkpt lat="44.66483" lon="5.11029">
        <ele>813.41</ele>
        <time>2022-05-18T11:14:10Z</time>
      </trkpt>
      <trkpt lat="44.66483" lon="5.11029">
        <ele>813.41</ele>
        <time>2022-05-18T11:14:59Z</time>
      </trkpt>
      <trkpt lat="44.66483" lon="5.11029">
        <ele>813.41</ele>
        <time>2022-05-18T11:15:40Z</time>
      </trkpt>
      <trkpt lat="44.66483" lon="5.11029">
        <ele>813.41</ele>
        <time>2022-05-18T11:16:39Z</time>
      </trkpt>
      <trkpt lat="44.66484" lon="5.11029">
        <ele>813.41</ele>
        <time>2022-05-18T11:17:27Z</time>
      </trkpt>
      <trkpt lat="44.66484" lon="5.11029">
        <ele>813.41</ele>
        <time>2022-05-18T11:18:23Z</time>
      </trkpt>
      <trkpt lat="44.66484" lon="5.11029">
        <ele>813.41</ele>
        <time>2022-05-18T11:19:14Z</time>
      </trkpt>
      <trkpt lat="44.66484" lon="5.11029">
        <ele>813.41</ele>
        <time>2022-05-18T11:19:57Z</time>
      </trkpt>
      <trkpt lat="44.66485" lon="5.11029">
        <ele>813.41</ele>
        <time>2022-05-18T11:20:45Z</time>
      </trkpt>
      <trkpt lat="44.66485" lon="5.1103">
        <ele>813.41</ele>
        <time>2022-05-18T11:21:51Z</time>
      </trkpt>
      <trkpt lat="44.66485" lon="5.1103">
        <ele>813.41</ele>
        <time>2022-05-18T11:22:50Z</time>
      </trkpt>
      <trkpt lat="44.66485" lon="5.1103">
        <ele>813.41</ele>
        <time>2022-05-18T11:23:56Z</time>
      </trkpt>
      <trkpt lat="44.66485" lon="5.1103">
        <ele>813.41</ele>
        <time>2022-05-18T11:24:46Z</time>
      </trkpt>
      <trkpt lat="44.66485" lon="5.1103">
        <ele>813.41</ele>
        <time>2022-05-18T11:25:41Z</time>
      </trkpt>
      <trkpt lat="44.66485" lon="5.1103">
        <ele>813.41</ele>
        <time>2022-05-18T11:26:35Z</time>
      </trkpt>
      <trkpt lat="44.66485" lon="5.1103">
        <ele>813.41</ele>
        <time>2022-05-18T11:27:10Z</time>
      </trkpt>
      <trkpt lat="44.66486" lon="5.1103">
        <ele>813.41</ele>
        <time>2022-05-18T11:28:20Z</time>
      </trkpt>
      <trkpt lat="44.66486" lon="5.1103">
        <ele>813.41</ele>
        <time>2022-05-18T11:29:09Z</time>
      </trkpt>
      <trkpt lat="44.66487" lon="5.1103">
        <ele>813.41</ele>
        <time>2022-05-18T11:30:09Z</time>
      </trkpt>
      <trkpt lat="44.66487" lon="5.1103">
        <ele>813.41</ele>
        <time>2022-05-18T11:31:03Z</time>
      </trkpt>
      <trkpt lat="44.66488" lon="5.11031">
        <ele>813.41</ele>
        <time>2022-05-18T11:31:40Z</time>
      </trkpt>
      <trkpt lat="44.66488" lon="5.1103">
        <ele>813.41</ele>
        <time>2022-05-18T11:32:23Z</time>
      </trkpt>
      <trkpt lat="44.66489" lon="5.1103">
        <ele>813.41</ele>
        <time>2022-05-18T11:33:15Z</time>
      </trkpt>
      <trkpt lat="44.66489" lon="5.1103">
        <ele>813.41</ele>
        <time>2022-05-18T11:33:50Z</time>
      </trkpt>
      <trkpt lat="44.66489" lon="5.1103">
        <ele>813.41</ele>
        <time>2022-05-18T11:34:37Z</time>
      </trkpt>
      <trkpt lat="44.66489" lon="5.1103">
        <ele>813.41</ele>
        <time>2022-05-18T11:36:01Z</time>
      </trkpt>
      <trkpt lat="44.66489" lon="5.1103">
        <ele>813.41</ele>
        <time>2022-05-18T11:36:59Z</time>
      </trkpt>
      <trkpt lat="44.66489" lon="5.11031">
        <ele>813.41</ele>
        <time>2022-05-18T11:37:49Z</time>
      </trkpt>
      <trkpt lat="44.66489" lon="5.11031">
        <ele>813.41</ele>
        <time>2022-05-18T11:39:18Z</time>
      </trkpt>
      <trkpt lat="44.66489" lon="5.11031">
        <ele>813.41</ele>
        <time>2022-05-18T11:39:53Z</time>
      </trkpt>
      <trkpt lat="44.66489" lon="5.11031">
        <ele>813.41</ele>
        <time>2022-05-18T11:41:13Z</time>
      </trkpt>
      <trkpt lat="44.66489" lon="5.1103">
        <ele>813.41</ele>
        <time>2022-05-18T11:42:31Z</time>
      </trkpt>
      <trkpt lat="44.66489" lon="5.11031">
        <ele>813.41</ele>
        <time>2022-05-18T11:43:46Z</time>
      </trkpt>
      <trkpt lat="44.66489" lon="5.11031">
        <ele>813.41</ele>
        <time>2022-05-18T11:44:09Z</time>
      </trkpt>
      <trkpt lat="44.66489" lon="5.1103">
        <ele>813.41</ele>
        <time>2022-05-18T11:44:27Z</time>
      </trkpt>
      <trkpt lat="44.66489" lon="5.1103">
        <ele>813.41</ele>
        <time>2022-05-18T11:45:23Z</time>
      </trkpt>
      <trkpt lat="44.66489" lon="5.11033">
        <ele>813.41</ele>
        <time>2022-05-18T11:45:59Z</time>
      </trkpt>
      <trkpt lat="44.66489" lon="5.11034">
        <ele>813.41</ele>
        <time>2022-05-18T11:46:25Z</time>
      </trkpt>
      <trkpt lat="44.6649" lon="5.11034">
        <ele>813.41</ele>
        <time>2022-05-18T11:46:57Z</time>
      </trkpt>
      <trkpt lat="44.6649" lon="5.11034">
        <ele>813.41</ele>
        <time>2022-05-18T11:47:30Z</time>
      </trkpt>
      <trkpt lat="44.66491" lon="5.11033">
        <ele>813.41</ele>
        <time>2022-05-18T11:48:07Z</time>
      </trkpt>
      <trkpt lat="44.66491" lon="5.11032">
        <ele>813.41</ele>
        <time>2022-05-18T11:48:30Z</time>
      </trkpt>
      <trkpt lat="44.66493" lon="5.11033">
        <ele>813.41</ele>
        <time>2022-05-18T11:49:02Z</time>
      </trkpt>
      <trkpt lat="44.66493" lon="5.11034">
        <ele>813.41</ele>
        <time>2022-05-18T11:49:40Z</time>
      </trkpt>
      <trkpt lat="44.66494" lon="5.11034">
        <ele>813.41</ele>
        <time>2022-05-18T11:50:03Z</time>
      </trkpt>
      <trkpt lat="44.66492" lon="5.11029">
        <ele>813.41</ele>
        <time>2022-05-18T11:50:28Z</time>
      </trkpt>
      <trkpt lat="44.66492" lon="5.11029">
        <ele>813.41</ele>
        <time>2022-05-18T11:51:02Z</time>
      </trkpt>
      <trkpt lat="44.66492" lon="5.11029">
        <ele>813.41</ele>
        <time>2022-05-18T11:51:44Z</time>
      </trkpt>
      <trkpt lat="44.66492" lon="5.11029">
        <ele>813.41</ele>
        <time>2022-05-18T11:52:25Z</time>
      </trkpt>
      <trkpt lat="44.66492" lon="5.11029">
        <ele>813.41</ele>
        <time>2022-05-18T11:53:01Z</time>
      </trkpt>
      <trkpt lat="44.66492" lon="5.1103">
        <ele>813.41</ele>
        <time>2022-05-18T11:53:34Z</time>
      </trkpt>
      <trkpt lat="44.66491" lon="5.1103">
        <ele>813.41</ele>
        <time>2022-05-18T11:54:25Z</time>
      </trkpt>
      <trkpt lat="44.66491" lon="5.1103">
        <ele>813.41</ele>
        <time>2022-05-18T11:55:29Z</time>
      </trkpt>
      <trkpt lat="44.66491" lon="5.11031">
        <ele>813.41</ele>
        <time>2022-05-18T11:56:28Z</time>
      </trkpt>
      <trkpt lat="44.66491" lon="5.11032">
        <ele>813.41</ele>
        <time>2022-05-18T11:57:31Z</time>
      </trkpt>
      <trkpt lat="44.66491" lon="5.11032">
        <ele>813.41</ele>
        <time>2022-05-18T11:58:09Z</time>
      </trkpt>
      <trkpt lat="44.66491" lon="5.11032">
        <ele>813.41</ele>
        <time>2022-05-18T11:58:39Z</time>
      </trkpt>
      <trkpt lat="44.66491" lon="5.1103">
        <ele>813.41</ele>
        <time>2022-05-18T11:59:26Z</time>
      </trkpt>
      <trkpt lat="44.66491" lon="5.11029">
        <ele>813.41</ele>
        <time>2022-05-18T11:59:51Z</time>
      </trkpt>
      <trkpt lat="44.6649" lon="5.1103">
        <ele>813.41</ele>
        <time>2022-05-18T12:00:13Z</time>
      </trkpt>
      <trkpt lat="44.66491" lon="5.11031">
        <ele>813.41</ele>
        <time>2022-05-18T12:00:38Z</time>
      </trkpt>
      <trkpt lat="44.6649" lon="5.11031">
        <ele>813.41</ele>
        <time>2022-05-18T12:01:08Z</time>
      </trkpt>
      <trkpt lat="44.6649" lon="5.11031">
        <ele>813.41</ele>
        <time>2022-05-18T12:01:41Z</time>
      </trkpt>
      <trkpt lat="44.66486" lon="5.11029">
        <ele>813.41</ele>
        <time>2022-05-18T12:01:58Z</time>
      </trkpt>
      <trkpt lat="44.66484" lon="5.11022">
        <ele>813.41</ele>
        <time>2022-05-18T12:02:15Z</time>
      </trkpt>
      <trkpt lat="44.66482" lon="5.11005">
        <ele>816.3</ele>
        <time>2022-05-18T12:02:30Z</time>
      </trkpt>
      <trkpt lat="44.66483" lon="5.11003">
        <ele>816.78</ele>
        <time>2022-05-18T12:02:31Z</time>
      </trkpt>
      <trkpt lat="44.66481" lon="5.10985">
        <ele>817.74</ele>
        <time>2022-05-18T12:02:52Z</time>
      </trkpt>
      <trkpt lat="44.66481" lon="5.10976">
        <ele>817.74</ele>
        <time>2022-05-18T12:03:02Z</time>
      </trkpt>
      <trkpt lat="44.66482" lon="5.10975">
        <ele>817.74</ele>
        <time>2022-05-18T12:03:03Z</time>
      </trkpt>
      <trkpt lat="44.66482" lon="5.10972">
        <ele>817.74</ele>
        <time>2022-05-18T12:03:05Z</time>
      </trkpt>
      <trkpt lat="44.66487" lon="5.10953">
        <ele>817.74</ele>
        <time>2022-05-18T12:03:19Z</time>
      </trkpt>
      <trkpt lat="44.66488" lon="5.10945">
        <ele>817.26</ele>
        <time>2022-05-18T12:03:25Z</time>
      </trkpt>
      <trkpt lat="44.66494" lon="5.1092">
        <ele>815.82</ele>
        <time>2022-05-18T12:03:46Z</time>
      </trkpt>
      <trkpt lat="44.66505" lon="5.10911">
        <ele>812.93</ele>
        <time>2022-05-18T12:04:08Z</time>
      </trkpt>
      <trkpt lat="44.66518" lon="5.10915">
        <ele>810.05</ele>
        <time>2022-05-18T12:04:32Z</time>
      </trkpt>
      <trkpt lat="44.66524" lon="5.10933">
        <ele>807.16</ele>
        <time>2022-05-18T12:04:56Z</time>
      </trkpt>
      <trkpt lat="44.6653" lon="5.10952">
        <ele>804.76</ele>
        <time>2022-05-18T12:05:19Z</time>
      </trkpt>
      <trkpt lat="44.66532" lon="5.1097">
        <ele>801.4</ele>
        <time>2022-05-18T12:05:40Z</time>
      </trkpt>
      <trkpt lat="44.66531" lon="5.10994">
        <ele>798.51</ele>
        <time>2022-05-18T12:06:05Z</time>
      </trkpt>
      <trkpt lat="44.66532" lon="5.11005">
        <ele>795.63</ele>
        <time>2022-05-18T12:06:25Z</time>
      </trkpt>
      <trkpt lat="44.6653" lon="5.11033">
        <ele>792.26</ele>
        <time>2022-05-18T12:06:49Z</time>
      </trkpt>
      <trkpt lat="44.6653" lon="5.11042">
        <ele>791.3</ele>
        <time>2022-05-18T12:07:00Z</time>
      </trkpt>
      <trkpt lat="44.66533" lon="5.11061">
        <ele>788.42</ele>
        <time>2022-05-18T12:07:22Z</time>
      </trkpt>
      <trkpt lat="44.66532" lon="5.11083">
        <ele>785.05</ele>
        <time>2022-05-18T12:07:45Z</time>
      </trkpt>
      <trkpt lat="44.66532" lon="5.11104">
        <ele>782.17</ele>
        <time>2022-05-18T12:08:08Z</time>
      </trkpt>
      <trkpt lat="44.66531" lon="5.1112">
        <ele>778.81</ele>
        <time>2022-05-18T12:08:23Z</time>
      </trkpt>
      <trkpt lat="44.66531" lon="5.11122">
        <ele>777.84</ele>
        <time>2022-05-18T12:08:25Z</time>
      </trkpt>
      <trkpt lat="44.6653" lon="5.11127">
        <ele>781.21</ele>
        <time>2022-05-18T12:08:29Z</time>
      </trkpt>
      <trkpt lat="44.66527" lon="5.11146">
        <ele>777.84</ele>
        <time>2022-05-18T12:08:44Z</time>
      </trkpt>
      <trkpt lat="44.66529" lon="5.11161">
        <ele>774.96</ele>
        <time>2022-05-18T12:09:01Z</time>
      </trkpt>
      <trkpt lat="44.66531" lon="5.11184">
        <ele>771.6</ele>
        <time>2022-05-18T12:09:23Z</time>
      </trkpt>
      <trkpt lat="44.6653" lon="5.11206">
        <ele>769.67</ele>
        <time>2022-05-18T12:09:45Z</time>
      </trkpt>
      <trkpt lat="44.6653" lon="5.1123">
        <ele>766.31</ele>
        <time>2022-05-18T12:10:08Z</time>
      </trkpt>
      <trkpt lat="44.66532" lon="5.11245">
        <ele>763.42</ele>
        <time>2022-05-18T12:10:24Z</time>
      </trkpt>
      <trkpt lat="44.66533" lon="5.11259">
        <ele>760.06</ele>
        <time>2022-05-18T12:10:41Z</time>
      </trkpt>
      <trkpt lat="44.66534" lon="5.11272">
        <ele>757.66</ele>
        <time>2022-05-18T12:11:06Z</time>
      </trkpt>
      <trkpt lat="44.66534" lon="5.11298">
        <ele>754.29</ele>
        <time>2022-05-18T12:11:30Z</time>
      </trkpt>
      <trkpt lat="44.66531" lon="5.11336">
        <ele>751.41</ele>
        <time>2022-05-18T12:11:56Z</time>
      </trkpt>
      <trkpt lat="44.66526" lon="5.1137">
        <ele>748.04</ele>
        <time>2022-05-18T12:12:19Z</time>
      </trkpt>
      <trkpt lat="44.66523" lon="5.11399">
        <ele>745.64</ele>
        <time>2022-05-18T12:12:43Z</time>
      </trkpt>
      <trkpt lat="44.66516" lon="5.11427">
        <ele>743.72</ele>
        <time>2022-05-18T12:13:07Z</time>
      </trkpt>
      <trkpt lat="44.66512" lon="5.11452">
        <ele>740.83</ele>
        <time>2022-05-18T12:13:27Z</time>
      </trkpt>
      <trkpt lat="44.66511" lon="5.11463">
        <ele>739.39</ele>
        <time>2022-05-18T12:13:38Z</time>
      </trkpt>
      <trkpt lat="44.66504" lon="5.11494">
        <ele>737.95</ele>
        <time>2022-05-18T12:14:01Z</time>
      </trkpt>
      <trkpt lat="44.66497" lon="5.11524">
        <ele>735.55</ele>
        <time>2022-05-18T12:14:23Z</time>
      </trkpt>
      <trkpt lat="44.66495" lon="5.11532">
        <ele>735.07</ele>
        <time>2022-05-18T12:14:44Z</time>
      </trkpt>
      <trkpt lat="44.66494" lon="5.11533">
        <ele>735.07</ele>
        <time>2022-05-18T12:15:08Z</time>
      </trkpt>
      <trkpt lat="44.66494" lon="5.11536">
        <ele>735.07</ele>
        <time>2022-05-18T12:15:26Z</time>
      </trkpt>
      <trkpt lat="44.66492" lon="5.11537">
        <ele>735.07</ele>
        <time>2022-05-18T12:15:49Z</time>
      </trkpt>
      <trkpt lat="44.66488" lon="5.11531">
        <ele>735.07</ele>
        <time>2022-05-18T12:16:19Z</time>
      </trkpt>
      <trkpt lat="44.66492" lon="5.11533">
        <ele>735.07</ele>
        <time>2022-05-18T12:16:36Z</time>
      </trkpt>
      <trkpt lat="44.66489" lon="5.11552">
        <ele>735.07</ele>
        <time>2022-05-18T12:16:53Z</time>
      </trkpt>
      <trkpt lat="44.66487" lon="5.11569">
        <ele>732.18</ele>
        <time>2022-05-18T12:17:11Z</time>
      </trkpt>
      <trkpt lat="44.6649" lon="5.11566">
        <ele>729.3</ele>
        <time>2022-05-18T12:17:24Z</time>
      </trkpt>
      <trkpt lat="44.665" lon="5.11556">
        <ele>726.41</ele>
        <time>2022-05-18T12:17:39Z</time>
      </trkpt>
      <trkpt lat="44.66507" lon="5.11548">
        <ele>723.05</ele>
        <time>2022-05-18T12:17:52Z</time>
      </trkpt>
      <trkpt lat="44.66514" lon="5.11538">
        <ele>720.16</ele>
        <time>2022-05-18T12:18:03Z</time>
      </trkpt>
      <trkpt lat="44.66522" lon="5.11526">
        <ele>716.8</ele>
        <time>2022-05-18T12:18:18Z</time>
      </trkpt>
      <trkpt lat="44.66531" lon="5.11511">
        <ele>713.44</ele>
        <time>2022-05-18T12:18:33Z</time>
      </trkpt>
      <trkpt lat="44.66543" lon="5.11495">
        <ele>710.55</ele>
        <time>2022-05-18T12:18:49Z</time>
      </trkpt>
      <trkpt lat="44.66549" lon="5.11486">
        <ele>707.19</ele>
        <time>2022-05-18T12:19:03Z</time>
      </trkpt>
      <trkpt lat="44.6655" lon="5.11485">
        <ele>707.19</ele>
        <time>2022-05-18T12:19:04Z</time>
      </trkpt>
      <trkpt lat="44.6656" lon="5.11476">
        <ele>703.82</ele>
        <time>2022-05-18T12:19:18Z</time>
      </trkpt>
      <trkpt lat="44.66564" lon="5.11468">
        <ele>700.94</ele>
        <time>2022-05-18T12:19:33Z</time>
      </trkpt>
      <trkpt lat="44.66569" lon="5.1146">
        <ele>698.53</ele>
        <time>2022-05-18T12:19:53Z</time>
      </trkpt>
      <trkpt lat="44.66576" lon="5.11448">
        <ele>695.65</ele>
        <time>2022-05-18T12:20:12Z</time>
      </trkpt>
      <trkpt lat="44.66577" lon="5.11446">
        <ele>695.17</ele>
        <time>2022-05-18T12:20:14Z</time>
      </trkpt>
      <trkpt lat="44.66583" lon="5.1144">
        <ele>691.81</ele>
        <time>2022-05-18T12:20:31Z</time>
      </trkpt>
      <trkpt lat="44.66586" lon="5.11437">
        <ele>690.84</ele>
        <time>2022-05-18T12:20:36Z</time>
      </trkpt>
      <trkpt lat="44.66593" lon="5.1143">
        <ele>688.44</ele>
        <time>2022-05-18T12:20:48Z</time>
      </trkpt>
      <trkpt lat="44.66597" lon="5.11425">
        <ele>686.04</ele>
        <time>2022-05-18T12:21:11Z</time>
      </trkpt>
      <trkpt lat="44.66603" lon="5.1141">
        <ele>683.15</ele>
        <time>2022-05-18T12:21:28Z</time>
      </trkpt>
      <trkpt lat="44.66611" lon="5.11397">
        <ele>680.27</ele>
        <time>2022-05-18T12:21:47Z</time>
      </trkpt>
      <trkpt lat="44.66619" lon="5.11381">
        <ele>676.91</ele>
        <time>2022-05-18T12:22:05Z</time>
      </trkpt>
      <trkpt lat="44.66629" lon="5.11362">
        <ele>674.02</ele>
        <time>2022-05-18T12:22:26Z</time>
      </trkpt>
      <trkpt lat="44.66638" lon="5.11351">
        <ele>670.66</ele>
        <time>2022-05-18T12:22:40Z</time>
      </trkpt>
      <trkpt lat="44.66648" lon="5.1133">
        <ele>667.77</ele>
        <time>2022-05-18T12:23:00Z</time>
      </trkpt>
      <trkpt lat="44.66658" lon="5.11305">
        <ele>664.41</ele>
        <time>2022-05-18T12:23:19Z</time>
      </trkpt>
      <trkpt lat="44.66658" lon="5.11284">
        <ele>661.52</ele>
        <time>2022-05-18T12:23:35Z</time>
      </trkpt>
      <trkpt lat="44.66661" lon="5.11269">
        <ele>658.16</ele>
        <time>2022-05-18T12:23:49Z</time>
      </trkpt>
      <trkpt lat="44.66663" lon="5.11267">
        <ele>658.16</ele>
        <time>2022-05-18T12:23:51Z</time>
      </trkpt>
      <trkpt lat="44.66674" lon="5.11254">
        <ele>654.8</ele>
        <time>2022-05-18T12:24:14Z</time>
      </trkpt>
      <trkpt lat="44.66676" lon="5.11243">
        <ele>651.43</ele>
        <time>2022-05-18T12:24:29Z</time>
      </trkpt>
      <trkpt lat="44.66677" lon="5.1124">
        <ele>651.43</ele>
        <time>2022-05-18T12:24:31Z</time>
      </trkpt>
      <trkpt lat="44.66682" lon="5.11229">
        <ele>648.07</ele>
        <time>2022-05-18T12:24:46Z</time>
      </trkpt>
      <trkpt lat="44.66691" lon="5.11221">
        <ele>645.18</ele>
        <time>2022-05-18T12:25:02Z</time>
      </trkpt>
      <trkpt lat="44.66699" lon="5.11212">
        <ele>641.82</ele>
        <time>2022-05-18T12:25:18Z</time>
      </trkpt>
      <trkpt lat="44.66704" lon="5.11199">
        <ele>638.93</ele>
        <time>2022-05-18T12:25:34Z</time>
      </trkpt>
      <trkpt lat="44.66722" lon="5.11177">
        <ele>637.01</ele>
        <time>2022-05-18T12:25:58Z</time>
      </trkpt>
      <trkpt lat="44.6674" lon="5.1115">
        <ele>637.01</ele>
        <time>2022-05-18T12:26:23Z</time>
      </trkpt>
      <trkpt lat="44.66751" lon="5.11121">
        <ele>635.57</ele>
        <time>2022-05-18T12:26:48Z</time>
      </trkpt>
      <trkpt lat="44.66763" lon="5.11096">
        <ele>633.17</ele>
        <time>2022-05-18T12:27:08Z</time>
      </trkpt>
      <trkpt lat="44.66774" lon="5.11067">
        <ele>632.68</ele>
        <time>2022-05-18T12:27:29Z</time>
      </trkpt>
      <trkpt lat="44.66775" lon="5.11065">
        <ele>632.68</ele>
        <time>2022-05-18T12:27:30Z</time>
      </trkpt>
      <trkpt lat="44.6678" lon="5.11044">
        <ele>631.24</ele>
        <time>2022-05-18T12:27:46Z</time>
      </trkpt>
      <trkpt lat="44.66785" lon="5.11022">
        <ele>628.84</ele>
        <time>2022-05-18T12:28:06Z</time>
      </trkpt>
      <trkpt lat="44.66788" lon="5.11012">
        <ele>625.96</ele>
        <time>2022-05-18T12:28:20Z</time>
      </trkpt>
      <trkpt lat="44.66787" lon="5.1099">
        <ele>622.59</ele>
        <time>2022-05-18T12:28:38Z</time>
      </trkpt>
      <trkpt lat="44.66792" lon="5.10961">
        <ele>620.19</ele>
        <time>2022-05-18T12:28:59Z</time>
      </trkpt>
      <trkpt lat="44.66798" lon="5.10948">
        <ele>617.78</ele>
        <time>2022-05-18T12:29:18Z</time>
      </trkpt>
      <trkpt lat="44.66802" lon="5.10936">
        <ele>615.38</ele>
        <time>2022-05-18T12:29:36Z</time>
      </trkpt>
      <trkpt lat="44.66806" lon="5.10919">
        <ele>612.5</ele>
        <time>2022-05-18T12:29:56Z</time>
      </trkpt>
      <trkpt lat="44.66811" lon="5.109">
        <ele>609.61</ele>
        <time>2022-05-18T12:30:17Z</time>
      </trkpt>
      <trkpt lat="44.66813" lon="5.10882">
        <ele>606.73</ele>
        <time>2022-05-18T12:30:35Z</time>
      </trkpt>
      <trkpt lat="44.66816" lon="5.10866">
        <ele>603.36</ele>
        <time>2022-05-18T12:30:53Z</time>
      </trkpt>
      <trkpt lat="44.6682" lon="5.10848">
        <ele>600.48</ele>
        <time>2022-05-18T12:31:10Z</time>
      </trkpt>
      <trkpt lat="44.66824" lon="5.10823">
        <ele>597.12</ele>
        <time>2022-05-18T12:31:29Z</time>
      </trkpt>
      <trkpt lat="44.66822" lon="5.10806">
        <ele>595.19</ele>
        <time>2022-05-18T12:31:45Z</time>
      </trkpt>
      <trkpt lat="44.6683" lon="5.10777">
        <ele>592.31</ele>
        <time>2022-05-18T12:32:07Z</time>
      </trkpt>
      <trkpt lat="44.66839" lon="5.10753">
        <ele>589.43</ele>
        <time>2022-05-18T12:32:27Z</time>
      </trkpt>
      <trkpt lat="44.66842" lon="5.10743">
        <ele>588.46</ele>
        <time>2022-05-18T12:32:35Z</time>
      </trkpt>
      <trkpt lat="44.66846" lon="5.1073">
        <ele>586.54</ele>
        <time>2022-05-18T12:32:50Z</time>
      </trkpt>
      <trkpt lat="44.66849" lon="5.10726">
        <ele>585.58</ele>
        <time>2022-05-18T12:33:08Z</time>
      </trkpt>
      <trkpt lat="44.6685" lon="5.10727">
        <ele>585.58</ele>
        <time>2022-05-18T12:33:33Z</time>
      </trkpt>
      <trkpt lat="44.6685" lon="5.10727">
        <ele>585.58</ele>
        <time>2022-05-18T12:33:57Z</time>
      </trkpt>
      <trkpt lat="44.66851" lon="5.10725">
        <ele>585.58</ele>
        <time>2022-05-18T12:34:30Z</time>
      </trkpt>
      <trkpt lat="44.66851" lon="5.10725">
        <ele>585.58</ele>
        <time>2022-05-18T12:34:49Z</time>
      </trkpt>
      <trkpt lat="44.66853" lon="5.10717">
        <ele>585.58</ele>
        <time>2022-05-18T12:35:13Z</time>
      </trkpt>
      <trkpt lat="44.66857" lon="5.10695">
        <ele>585.58</ele>
        <time>2022-05-18T12:35:34Z</time>
      </trkpt>
      <trkpt lat="44.66857" lon="5.10693">
        <ele>585.58</ele>
        <time>2022-05-18T12:35:35Z</time>
      </trkpt>
      <trkpt lat="44.6686" lon="5.10685">
        <ele>582.22</ele>
        <time>2022-05-18T12:35:42Z</time>
      </trkpt>
      <trkpt lat="44.66862" lon="5.10682">
        <ele>581.73</ele>
        <time>2022-05-18T12:35:44Z</time>
      </trkpt>
      <trkpt lat="44.66868" lon="5.10665">
        <ele>579.81</ele>
        <time>2022-05-18T12:35:59Z</time>
      </trkpt>
      <trkpt lat="44.66874" lon="5.1065">
        <ele>578.85</ele>
        <time>2022-05-18T12:36:18Z</time>
      </trkpt>
      <trkpt lat="44.66889" lon="5.10632">
        <ele>575.97</ele>
        <time>2022-05-18T12:36:41Z</time>
      </trkpt>
      <trkpt lat="44.66906" lon="5.10626">
        <ele>573.08</ele>
        <time>2022-05-18T12:37:03Z</time>
      </trkpt>
      <trkpt lat="44.66919" lon="5.10617">
        <ele>570.2</ele>
        <time>2022-05-18T12:37:24Z</time>
      </trkpt>
      <trkpt lat="44.66927" lon="5.10602">
        <ele>566.83</ele>
        <time>2022-05-18T12:37:43Z</time>
      </trkpt>
      <trkpt lat="44.66935" lon="5.10587">
        <ele>564.91</ele>
        <time>2022-05-18T12:38:02Z</time>
      </trkpt>
      <trkpt lat="44.66945" lon="5.10567">
        <ele>562.03</ele>
        <time>2022-05-18T12:38:24Z</time>
      </trkpt>
      <trkpt lat="44.66953" lon="5.10545">
        <ele>559.62</ele>
        <time>2022-05-18T12:38:43Z</time>
      </trkpt>
      <trkpt lat="44.6696" lon="5.10523">
        <ele>556.26</ele>
        <time>2022-05-18T12:39:03Z</time>
      </trkpt>
      <trkpt lat="44.66965" lon="5.10506">
        <ele>553.86</ele>
        <time>2022-05-18T12:39:21Z</time>
      </trkpt>
      <trkpt lat="44.66972" lon="5.1049">
        <ele>551.45</ele>
        <time>2022-05-18T12:39:37Z</time>
      </trkpt>
      <trkpt lat="44.66977" lon="5.10483">
        <ele>549.53</ele>
        <time>2022-05-18T12:39:55Z</time>
      </trkpt>
      <trkpt lat="44.66979" lon="5.10477">
        <ele>549.05</ele>
        <time>2022-05-18T12:40:11Z</time>
      </trkpt>
      <trkpt lat="44.66992" lon="5.1046">
        <ele>546.65</ele>
        <time>2022-05-18T12:40:34Z</time>
      </trkpt>
      <trkpt lat="44.67008" lon="5.10453">
        <ele>544.72</ele>
        <time>2022-05-18T12:40:54Z</time>
      </trkpt>
      <trkpt lat="44.67023" lon="5.10459">
        <ele>541.84</ele>
        <time>2022-05-18T12:41:14Z</time>
      </trkpt>
      <trkpt lat="44.67032" lon="5.10466">
        <ele>538.96</ele>
        <time>2022-05-18T12:41:38Z</time>
      </trkpt>
      <trkpt lat="44.67043" lon="5.10466">
        <ele>536.55</ele>
        <time>2022-05-18T12:41:56Z</time>
      </trkpt>
      <trkpt lat="44.67047" lon="5.10457">
        <ele>533.67</ele>
        <time>2022-05-18T12:42:17Z</time>
      </trkpt>
      <trkpt lat="44.67052" lon="5.10449">
        <ele>531.27</ele>
        <time>2022-05-18T12:42:36Z</time>
      </trkpt>
      <trkpt lat="44.6706" lon="5.10442">
        <ele>528.38</ele>
        <time>2022-05-18T12:42:56Z</time>
      </trkpt>
      <trkpt lat="44.67068" lon="5.10433">
        <ele>526.46</ele>
        <time>2022-05-18T12:43:12Z</time>
      </trkpt>
      <trkpt lat="44.67076" lon="5.10424">
        <ele>523.09</ele>
        <time>2022-05-18T12:43:30Z</time>
      </trkpt>
      <trkpt lat="44.67081" lon="5.10417">
        <ele>521.17</ele>
        <time>2022-05-18T12:43:46Z</time>
      </trkpt>
      <trkpt lat="44.67089" lon="5.10408">
        <ele>519.25</ele>
        <time>2022-05-18T12:44:04Z</time>
      </trkpt>
      <trkpt lat="44.67096" lon="5.10396">
        <ele>516.37</ele>
        <time>2022-05-18T12:44:22Z</time>
      </trkpt>
      <trkpt lat="44.67099" lon="5.10383">
        <ele>513</ele>
        <time>2022-05-18T12:44:38Z</time>
      </trkpt>
      <trkpt lat="44.67103" lon="5.10369">
        <ele>510.6</ele>
        <time>2022-05-18T12:44:51Z</time>
      </trkpt>
      <trkpt lat="44.67102" lon="5.10362">
        <ele>509.16</ele>
        <time>2022-05-18T12:45:06Z</time>
      </trkpt>
      <trkpt lat="44.67101" lon="5.10361">
        <ele>508.67</ele>
        <time>2022-05-18T12:45:25Z</time>
      </trkpt>
      <trkpt lat="44.67096" lon="5.10363">
        <ele>509.64</ele>
        <time>2022-05-18T12:45:57Z</time>
      </trkpt>
      <trkpt lat="44.67102" lon="5.10369">
        <ele>509.64</ele>
        <time>2022-05-18T12:46:39Z</time>
      </trkpt>
      <trkpt lat="44.67101" lon="5.10368">
        <ele>509.64</ele>
        <time>2022-05-18T12:46:48Z</time>
      </trkpt>
      <trkpt lat="44.67091" lon="5.10363">
        <ele>510.12</ele>
        <time>2022-05-18T12:47:33Z</time>
      </trkpt>
      <trkpt lat="44.67093" lon="5.10364">
        <ele>510.12</ele>
        <time>2022-05-18T12:48:03Z</time>
      </trkpt>
      <trkpt lat="44.67092" lon="5.10362">
        <ele>510.12</ele>
        <time>2022-05-18T12:48:34Z</time>
      </trkpt>
      <trkpt lat="44.67094" lon="5.1036">
        <ele>510.12</ele>
        <time>2022-05-18T12:48:41Z</time>
      </trkpt>
      <trkpt lat="44.67094" lon="5.10359">
        <ele>510.12</ele>
        <time>2022-05-18T12:49:03Z</time>
      </trkpt>
      <trkpt lat="44.67093" lon="5.10359">
        <ele>510.12</ele>
        <time>2022-05-18T12:49:21Z</time>
      </trkpt>
      <trkpt lat="44.67093" lon="5.1036">
        <ele>510.12</ele>
        <time>2022-05-18T12:49:57Z</time>
      </trkpt>
      <trkpt lat="44.67094" lon="5.1036">
        <ele>510.12</ele>
        <time>2022-05-18T12:50:21Z</time>
      </trkpt>
      <trkpt lat="44.67095" lon="5.10359">
        <ele>510.12</ele>
        <time>2022-05-18T12:50:48Z</time>
      </trkpt>
      <trkpt lat="44.67096" lon="5.10359">
        <ele>510.12</ele>
        <time>2022-05-18T12:51:21Z</time>
      </trkpt>
      <trkpt lat="44.67095" lon="5.10358">
        <ele>510.12</ele>
        <time>2022-05-18T12:52:00Z</time>
      </trkpt>
      <trkpt lat="44.67086" lon="5.10345">
        <ele>510.12</ele>
        <time>2022-05-18T12:52:25Z</time>
      </trkpt>
      <trkpt lat="44.67085" lon="5.10343">
        <ele>508.67</ele>
        <time>2022-05-18T12:52:28Z</time>
      </trkpt>
      <trkpt lat="44.67079" lon="5.10334">
        <ele>508.19</ele>
        <time>2022-05-18T12:52:37Z</time>
      </trkpt>
      <trkpt lat="44.67077" lon="5.1033">
        <ele>508.19</ele>
        <time>2022-05-18T12:52:40Z</time>
      </trkpt>
      <trkpt lat="44.67073" lon="5.10317">
        <ele>507.71</ele>
        <time>2022-05-18T12:52:56Z</time>
      </trkpt>
      <trkpt lat="44.67071" lon="5.10316">
        <ele>507.23</ele>
        <time>2022-05-18T12:53:15Z</time>
      </trkpt>
      <trkpt lat="44.67072" lon="5.10316">
        <ele>507.23</ele>
        <time>2022-05-18T12:53:45Z</time>
      </trkpt>
      <trkpt lat="44.67081" lon="5.10309">
        <ele>506.75</ele>
        <time>2022-05-18T12:54:08Z</time>
      </trkpt>
      <trkpt lat="44.67093" lon="5.10298">
        <ele>503.87</ele>
        <time>2022-05-18T12:54:23Z</time>
      </trkpt>
      <trkpt lat="44.67101" lon="5.10297">
        <ele>500.5</ele>
        <time>2022-05-18T12:54:41Z</time>
      </trkpt>
      <trkpt lat="44.67113" lon="5.10289">
        <ele>498.1</ele>
        <time>2022-05-18T12:55:05Z</time>
      </trkpt>
      <trkpt lat="44.67128" lon="5.10275">
        <ele>494.74</ele>
        <time>2022-05-18T12:55:21Z</time>
      </trkpt>
      <trkpt lat="44.67143" lon="5.10262">
        <ele>491.85</ele>
        <time>2022-05-18T12:55:38Z</time>
      </trkpt>
      <trkpt lat="44.67156" lon="5.10256">
        <ele>488.49</ele>
        <time>2022-05-18T12:55:54Z</time>
      </trkpt>
      <trkpt lat="44.6717" lon="5.10252">
        <ele>485.6</ele>
        <time>2022-05-18T12:56:13Z</time>
      </trkpt>
      <trkpt lat="44.67191" lon="5.10243">
        <ele>482.24</ele>
        <time>2022-05-18T12:56:32Z</time>
      </trkpt>
      <trkpt lat="44.672" lon="5.10237">
        <ele>479.35</ele>
        <time>2022-05-18T12:56:46Z</time>
      </trkpt>
      <trkpt lat="44.67214" lon="5.1023">
        <ele>476.47</ele>
        <time>2022-05-18T12:57:05Z</time>
      </trkpt>
      <trkpt lat="44.67227" lon="5.10222">
        <ele>473.59</ele>
        <time>2022-05-18T12:57:24Z</time>
      </trkpt>
      <trkpt lat="44.67249" lon="5.10213">
        <ele>470.22</ele>
        <time>2022-05-18T12:57:46Z</time>
      </trkpt>
      <trkpt lat="44.67264" lon="5.10218">
        <ele>467.82</ele>
        <time>2022-05-18T12:58:05Z</time>
      </trkpt>
      <trkpt lat="44.67266" lon="5.10218">
        <ele>467.82</ele>
        <time>2022-05-18T12:58:07Z</time>
      </trkpt>
      <trkpt lat="44.67267" lon="5.10218">
        <ele>467.82</ele>
        <time>2022-05-18T12:58:08Z</time>
      </trkpt>
      <trkpt lat="44.67288" lon="5.10206">
        <ele>464.45</ele>
        <time>2022-05-18T12:58:29Z</time>
      </trkpt>
      <trkpt lat="44.67306" lon="5.10193">
        <ele>461.57</ele>
        <time>2022-05-18T12:58:51Z</time>
      </trkpt>
      <trkpt lat="44.67311" lon="5.10189">
        <ele>460.61</ele>
        <time>2022-05-18T12:58:58Z</time>
      </trkpt>
      <trkpt lat="44.67313" lon="5.10187">
        <ele>460.61</ele>
        <time>2022-05-18T12:59:00Z</time>
      </trkpt>
      <trkpt lat="44.67323" lon="5.10176">
        <ele>458.69</ele>
        <time>2022-05-18T12:59:21Z</time>
      </trkpt>
      <trkpt lat="44.67323" lon="5.10175">
        <ele>458.21</ele>
        <time>2022-05-18T12:59:41Z</time>
      </trkpt>
      <trkpt lat="44.67326" lon="5.10172">
        <ele>457.72</ele>
        <time>2022-05-18T13:00:01Z</time>
      </trkpt>
      <trkpt lat="44.67331" lon="5.10168">
        <ele>457.24</ele>
        <time>2022-05-18T13:00:10Z</time>
      </trkpt>
      <trkpt lat="44.67353" lon="5.10146">
        <ele>456.28</ele>
        <time>2022-05-18T13:00:36Z</time>
      </trkpt>
      <trkpt lat="44.67355" lon="5.10143">
        <ele>456.28</ele>
        <time>2022-05-18T13:00:44Z</time>
      </trkpt>
      <trkpt lat="44.67356" lon="5.10142">
        <ele>456.28</ele>
        <time>2022-05-18T13:00:45Z</time>
      </trkpt>
      <trkpt lat="44.67357" lon="5.10142">
        <ele>456.28</ele>
        <time>2022-05-18T13:00:46Z</time>
      </trkpt>
      <trkpt lat="44.67358" lon="5.10141">
        <ele>456.28</ele>
        <time>2022-05-18T13:00:47Z</time>
      </trkpt>
      <trkpt lat="44.67359" lon="5.10141">
        <ele>456.28</ele>
        <time>2022-05-18T13:00:48Z</time>
      </trkpt>
      <trkpt lat="44.67375" lon="5.10137">
        <ele>454.84</ele>
        <time>2022-05-18T13:01:04Z</time>
      </trkpt>
      <trkpt lat="44.67393" lon="5.10134">
        <ele>453.88</ele>
        <time>2022-05-18T13:01:22Z</time>
      </trkpt>
      <trkpt lat="44.67395" lon="5.10133">
        <ele>453.4</ele>
        <time>2022-05-18T13:01:40Z</time>
      </trkpt>
      <trkpt lat="44.67398" lon="5.10132">
        <ele>453.4</ele>
        <time>2022-05-18T13:01:44Z</time>
      </trkpt>
      <trkpt lat="44.67413" lon="5.10128">
        <ele>453.4</ele>
        <time>2022-05-18T13:01:59Z</time>
      </trkpt>
      <trkpt lat="44.67423" lon="5.10123">
        <ele>452.44</ele>
        <time>2022-05-18T13:02:09Z</time>
      </trkpt>
      <trkpt lat="44.67424" lon="5.10123">
        <ele>452.44</ele>
        <time>2022-05-18T13:02:10Z</time>
      </trkpt>
      <trkpt lat="44.67426" lon="5.10122">
        <ele>451.96</ele>
        <time>2022-05-18T13:02:11Z</time>
      </trkpt>
      <trkpt lat="44.67427" lon="5.10121">
        <ele>451.96</ele>
        <time>2022-05-18T13:02:12Z</time>
      </trkpt>
      <trkpt lat="44.67428" lon="5.1012">
        <ele>451.96</ele>
        <time>2022-05-18T13:02:13Z</time>
      </trkpt>
      <trkpt lat="44.67433" lon="5.10113">
        <ele>450.52</ele>
        <time>2022-05-18T13:02:19Z</time>
      </trkpt>
      <trkpt lat="44.67434" lon="5.10112">
        <ele>450.52</ele>
        <time>2022-05-18T13:02:20Z</time>
      </trkpt>
      <trkpt lat="44.67435" lon="5.10111">
        <ele>450.03</ele>
        <time>2022-05-18T13:02:21Z</time>
      </trkpt>
      <trkpt lat="44.67436" lon="5.1011">
        <ele>450.03</ele>
        <time>2022-05-18T13:02:22Z</time>
      </trkpt>
      <trkpt lat="44.67437" lon="5.10108">
        <ele>450.03</ele>
        <time>2022-05-18T13:02:23Z</time>
      </trkpt>
      <trkpt lat="44.67438" lon="5.10108">
        <ele>450.03</ele>
        <time>2022-05-18T13:02:24Z</time>
      </trkpt>
      <trkpt lat="44.67457" lon="5.10093">
        <ele>446.67</ele>
        <time>2022-05-18T13:02:42Z</time>
      </trkpt>
      <trkpt lat="44.67462" lon="5.10091">
        <ele>445.71</ele>
        <time>2022-05-18T13:02:52Z</time>
      </trkpt>
      <trkpt lat="44.67463" lon="5.1009">
        <ele>445.71</ele>
        <time>2022-05-18T13:02:53Z</time>
      </trkpt>
      <trkpt lat="44.67464" lon="5.1009">
        <ele>445.71</ele>
        <time>2022-05-18T13:02:54Z</time>
      </trkpt>
      <trkpt lat="44.67465" lon="5.10089">
        <ele>445.71</ele>
        <time>2022-05-18T13:02:55Z</time>
      </trkpt>
      <trkpt lat="44.67467" lon="5.10088">
        <ele>445.23</ele>
        <time>2022-05-18T13:02:56Z</time>
      </trkpt>
      <trkpt lat="44.67468" lon="5.10087">
        <ele>445.23</ele>
        <time>2022-05-18T13:02:57Z</time>
      </trkpt>
      <trkpt lat="44.67469" lon="5.10086">
        <ele>444.75</ele>
        <time>2022-05-18T13:02:58Z</time>
      </trkpt>
      <trkpt lat="44.6747" lon="5.10085">
        <ele>444.75</ele>
        <time>2022-05-18T13:02:59Z</time>
      </trkpt>
      <trkpt lat="44.67471" lon="5.10084">
        <ele>444.75</ele>
        <time>2022-05-18T13:03:00Z</time>
      </trkpt>
      <trkpt lat="44.67485" lon="5.10072">
        <ele>441.38</ele>
        <time>2022-05-18T13:03:14Z</time>
      </trkpt>
      <trkpt lat="44.67486" lon="5.10071">
        <ele>440.42</ele>
        <time>2022-05-18T13:03:37Z</time>
      </trkpt>
      <trkpt lat="44.67487" lon="5.1007">
        <ele>440.42</ele>
        <time>2022-05-18T13:04:03Z</time>
      </trkpt>
      <trkpt lat="44.67491" lon="5.10067">
        <ele>440.42</ele>
        <time>2022-05-18T13:04:22Z</time>
      </trkpt>
      <trkpt lat="44.67492" lon="5.10067">
        <ele>440.42</ele>
        <time>2022-05-18T13:04:23Z</time>
      </trkpt>
      <trkpt lat="44.675" lon="5.10061">
        <ele>439.46</ele>
        <time>2022-05-18T13:04:32Z</time>
      </trkpt>
      <trkpt lat="44.67501" lon="5.1006">
        <ele>439.46</ele>
        <time>2022-05-18T13:04:33Z</time>
      </trkpt>
      <trkpt lat="44.67502" lon="5.10059">
        <ele>438.98</ele>
        <time>2022-05-18T13:04:34Z</time>
      </trkpt>
      <trkpt lat="44.67503" lon="5.10058">
        <ele>438.98</ele>
        <time>2022-05-18T13:04:35Z</time>
      </trkpt>
      <trkpt lat="44.67504" lon="5.10057">
        <ele>438.98</ele>
        <time>2022-05-18T13:04:36Z</time>
      </trkpt>
      <trkpt lat="44.67505" lon="5.10056">
        <ele>438.98</ele>
        <time>2022-05-18T13:04:37Z</time>
      </trkpt>
      <trkpt lat="44.67506" lon="5.10055">
        <ele>438.5</ele>
        <time>2022-05-18T13:04:38Z</time>
      </trkpt>
      <trkpt lat="44.67507" lon="5.10055">
        <ele>438.5</ele>
        <time>2022-05-18T13:04:39Z</time>
      </trkpt>
      <trkpt lat="44.6753" lon="5.10042">
        <ele>435.61</ele>
        <time>2022-05-18T13:04:55Z</time>
      </trkpt>
      <trkpt lat="44.6755" lon="5.1003">
        <ele>432.25</ele>
        <time>2022-05-18T13:05:14Z</time>
      </trkpt>
      <trkpt lat="44.67561" lon="5.10024">
        <ele>429.85</ele>
        <time>2022-05-18T13:05:32Z</time>
      </trkpt>
      <trkpt lat="44.67578" lon="5.10012">
        <ele>427.92</ele>
        <time>2022-05-18T13:05:52Z</time>
      </trkpt>
      <trkpt lat="44.67595" lon="5.10004">
        <ele>426</ele>
        <time>2022-05-18T13:06:11Z</time>
      </trkpt>
      <trkpt lat="44.67607" lon="5.09999">
        <ele>423.6</ele>
        <time>2022-05-18T13:06:29Z</time>
      </trkpt>
      <trkpt lat="44.67628" lon="5.09996">
        <ele>420.71</ele>
        <time>2022-05-18T13:06:48Z</time>
      </trkpt>
      <trkpt lat="44.67649" lon="5.10002">
        <ele>418.31</ele>
        <time>2022-05-18T13:07:08Z</time>
      </trkpt>
      <trkpt lat="44.67659" lon="5.10009">
        <ele>416.39</ele>
        <time>2022-05-18T13:07:19Z</time>
      </trkpt>
      <trkpt lat="44.67676" lon="5.10004">
        <ele>414.95</ele>
        <time>2022-05-18T13:07:36Z</time>
      </trkpt>
      <trkpt lat="44.67693" lon="5.09989">
        <ele>411.58</ele>
        <time>2022-05-18T13:07:57Z</time>
      </trkpt>
      <trkpt lat="44.67706" lon="5.0997">
        <ele>409.18</ele>
        <time>2022-05-18T13:08:17Z</time>
      </trkpt>
      <trkpt lat="44.67716" lon="5.09954">
        <ele>406.77</ele>
        <time>2022-05-18T13:08:35Z</time>
      </trkpt>
      <trkpt lat="44.67716" lon="5.09952">
        <ele>406.77</ele>
        <time>2022-05-18T13:09:02Z</time>
      </trkpt>
      <trkpt lat="44.67725" lon="5.09945">
        <ele>406.29</ele>
        <time>2022-05-18T13:09:20Z</time>
      </trkpt>
      <trkpt lat="44.67726" lon="5.09944">
        <ele>406.29</ele>
        <time>2022-05-18T13:09:21Z</time>
      </trkpt>
      <trkpt lat="44.67748" lon="5.09933">
        <ele>404.37</ele>
        <time>2022-05-18T13:09:44Z</time>
      </trkpt>
      <trkpt lat="44.67749" lon="5.09933">
        <ele>403.41</ele>
        <time>2022-05-18T13:10:00Z</time>
      </trkpt>
      <trkpt lat="44.67753" lon="5.09934">
        <ele>403.41</ele>
        <time>2022-05-18T13:10:18Z</time>
      </trkpt>
      <trkpt lat="44.67753" lon="5.09935">
        <ele>403.41</ele>
        <time>2022-05-18T13:10:24Z</time>
      </trkpt>
      <trkpt lat="44.67754" lon="5.09936">
        <ele>403.41</ele>
        <time>2022-05-18T13:10:25Z</time>
      </trkpt>
      <trkpt lat="44.67756" lon="5.09936">
        <ele>403.41</ele>
        <time>2022-05-18T13:10:26Z</time>
      </trkpt>
      <trkpt lat="44.67757" lon="5.09937">
        <ele>402.93</ele>
        <time>2022-05-18T13:10:27Z</time>
      </trkpt>
      <trkpt lat="44.67758" lon="5.09938">
        <ele>402.93</ele>
        <time>2022-05-18T13:10:28Z</time>
      </trkpt>
      <trkpt lat="44.67758" lon="5.09939">
        <ele>402.93</ele>
        <time>2022-05-18T13:10:29Z</time>
      </trkpt>
      <trkpt lat="44.67768" lon="5.09961">
        <ele>401.49</ele>
        <time>2022-05-18T13:10:47Z</time>
      </trkpt>
      <trkpt lat="44.6777" lon="5.09968">
        <ele>401.01</ele>
        <time>2022-05-18T13:10:56Z</time>
      </trkpt>
      <trkpt lat="44.67769" lon="5.09987">
        <ele>400.05</ele>
        <time>2022-05-18T13:11:09Z</time>
      </trkpt>
      <trkpt lat="44.67775" lon="5.09989">
        <ele>399.57</ele>
        <time>2022-05-18T13:11:15Z</time>
      </trkpt>
      <trkpt lat="44.67775" lon="5.09988">
        <ele>399.08</ele>
        <time>2022-05-18T13:11:16Z</time>
      </trkpt>
      <trkpt lat="44.67776" lon="5.09986">
        <ele>399.08</ele>
        <time>2022-05-18T13:11:17Z</time>
      </trkpt>
      <trkpt lat="44.6778" lon="5.09952">
        <ele>396.2</ele>
        <time>2022-05-18T13:11:38Z</time>
      </trkpt>
      <trkpt lat="44.67774" lon="5.09918">
        <ele>393.8</ele>
        <time>2022-05-18T13:11:59Z</time>
      </trkpt>
      <trkpt lat="44.67764" lon="5.09894">
        <ele>391.87</ele>
        <time>2022-05-18T13:12:17Z</time>
      </trkpt>
      <trkpt lat="44.67754" lon="5.09878">
        <ele>389.47</ele>
        <time>2022-05-18T13:12:35Z</time>
      </trkpt>
      <trkpt lat="44.67752" lon="5.09875">
        <ele>388.99</ele>
        <time>2022-05-18T13:12:51Z</time>
      </trkpt>
      <trkpt lat="44.67751" lon="5.09873">
        <ele>388.03</ele>
        <time>2022-05-18T13:13:08Z</time>
      </trkpt>
      <trkpt lat="44.67752" lon="5.09873">
        <ele>388.51</ele>
        <time>2022-05-18T13:13:32Z</time>
      </trkpt>
      <trkpt lat="44.67751" lon="5.09873">
        <ele>388.99</ele>
        <time>2022-05-18T13:14:00Z</time>
      </trkpt>
      <trkpt lat="44.67751" lon="5.09873">
        <ele>388.99</ele>
        <time>2022-05-18T13:14:22Z</time>
      </trkpt>
      <trkpt lat="44.67751" lon="5.09874">
        <ele>388.99</ele>
        <time>2022-05-18T13:14:48Z</time>
      </trkpt>
      <trkpt lat="44.67751" lon="5.09873">
        <ele>388.99</ele>
        <time>2022-05-18T13:15:20Z</time>
      </trkpt>
      <trkpt lat="44.67757" lon="5.09858">
        <ele>388.03</ele>
        <time>2022-05-18T13:15:37Z</time>
      </trkpt>
      <trkpt lat="44.67755" lon="5.0985">
        <ele>387.55</ele>
        <time>2022-05-18T13:15:52Z</time>
      </trkpt>
      <trkpt lat="44.67756" lon="5.09849">
        <ele>387.55</ele>
        <time>2022-05-18T13:16:11Z</time>
      </trkpt>
      <trkpt lat="44.67756" lon="5.09849">
        <ele>388.03</ele>
        <time>2022-05-18T13:16:39Z</time>
      </trkpt>
      <trkpt lat="44.67757" lon="5.09849">
        <ele>388.03</ele>
        <time>2022-05-18T13:17:15Z</time>
      </trkpt>
      <trkpt lat="44.67756" lon="5.09848">
        <ele>388.03</ele>
        <time>2022-05-18T13:17:58Z</time>
      </trkpt>
      <trkpt lat="44.67756" lon="5.09848">
        <ele>388.03</ele>
        <time>2022-05-18T13:18:28Z</time>
      </trkpt>
      <trkpt lat="44.67756" lon="5.09847">
        <ele>388.03</ele>
        <time>2022-05-18T13:19:01Z</time>
      </trkpt>
      <trkpt lat="44.67756" lon="5.09847">
        <ele>388.03</ele>
        <time>2022-05-18T13:19:26Z</time>
      </trkpt>
      <trkpt lat="44.67756" lon="5.09847">
        <ele>388.03</ele>
        <time>2022-05-18T13:20:02Z</time>
      </trkpt>
      <trkpt lat="44.67756" lon="5.09846">
        <ele>388.03</ele>
        <time>2022-05-18T13:20:33Z</time>
      </trkpt>
      <trkpt lat="44.67756" lon="5.09846">
        <ele>388.03</ele>
        <time>2022-05-18T13:21:13Z</time>
      </trkpt>
      <trkpt lat="44.67762" lon="5.09847">
        <ele>388.03</ele>
        <time>2022-05-18T13:21:32Z</time>
      </trkpt>
      <trkpt lat="44.67776" lon="5.09848">
        <ele>388.03</ele>
        <time>2022-05-18T13:21:50Z</time>
      </trkpt>
      <trkpt lat="44.67787" lon="5.09851">
        <ele>388.03</ele>
        <time>2022-05-18T13:22:04Z</time>
      </trkpt>
      <trkpt lat="44.67788" lon="5.09853">
        <ele>387.55</ele>
        <time>2022-05-18T13:22:24Z</time>
      </trkpt>
      <trkpt lat="44.67788" lon="5.09853">
        <ele>387.55</ele>
        <time>2022-05-18T13:22:51Z</time>
      </trkpt>
      <trkpt lat="44.67788" lon="5.09853">
        <ele>388.03</ele>
        <time>2022-05-18T13:23:33Z</time>
      </trkpt>
      <trkpt lat="44.67788" lon="5.09853">
        <ele>388.03</ele>
        <time>2022-05-18T13:24:50Z</time>
      </trkpt>
      <trkpt lat="44.67801" lon="5.0986">
        <ele>388.03</ele>
        <time>2022-05-18T13:25:09Z</time>
      </trkpt>
      <trkpt lat="44.67817" lon="5.09867">
        <ele>387.55</ele>
        <time>2022-05-18T13:25:28Z</time>
      </trkpt>
      <trkpt lat="44.67833" lon="5.09872">
        <ele>386.59</ele>
        <time>2022-05-18T13:25:44Z</time>
      </trkpt>
      <trkpt lat="44.67841" lon="5.09871">
        <ele>385.63</ele>
        <time>2022-05-18T13:26:02Z</time>
      </trkpt>
      <trkpt lat="44.67856" lon="5.09872">
        <ele>384.66</ele>
        <time>2022-05-18T13:26:18Z</time>
      </trkpt>
      <trkpt lat="44.67872" lon="5.09872">
        <ele>382.74</ele>
        <time>2022-05-18T13:26:36Z</time>
      </trkpt>
      <trkpt lat="44.67889" lon="5.09866">
        <ele>381.78</ele>
        <time>2022-05-18T13:26:54Z</time>
      </trkpt>
      <trkpt lat="44.67908" lon="5.09853">
        <ele>379.38</ele>
        <time>2022-05-18T13:27:16Z</time>
      </trkpt>
      <trkpt lat="44.6791" lon="5.09858">
        <ele>378.42</ele>
        <time>2022-05-18T13:27:28Z</time>
      </trkpt>
      <trkpt lat="44.67908" lon="5.09861">
        <ele>378.42</ele>
        <time>2022-05-18T13:27:41Z</time>
      </trkpt>
      <trkpt lat="44.67907" lon="5.09863">
        <ele>377.94</ele>
        <time>2022-05-18T13:27:48Z</time>
      </trkpt>
      <trkpt lat="44.67907" lon="5.09864">
        <ele>377.94</ele>
        <time>2022-05-18T13:27:49Z</time>
      </trkpt>
      <trkpt lat="44.67906" lon="5.09866">
        <ele>377.94</ele>
        <time>2022-05-18T13:27:50Z</time>
      </trkpt>
      <trkpt lat="44.67898" lon="5.09875">
        <ele>376.49</ele>
        <time>2022-05-18T13:28:00Z</time>
      </trkpt>
      <trkpt lat="44.67896" lon="5.0988">
        <ele>375.53</ele>
        <time>2022-05-18T13:28:05Z</time>
      </trkpt>
      <trkpt lat="44.67895" lon="5.09882">
        <ele>375.05</ele>
        <time>2022-05-18T13:28:07Z</time>
      </trkpt>
      <trkpt lat="44.67904" lon="5.09889">
        <ele>371.69</ele>
        <time>2022-05-18T13:28:23Z</time>
      </trkpt>
      <trkpt lat="44.67915" lon="5.09885">
        <ele>368.8</ele>
        <time>2022-05-18T13:28:40Z</time>
      </trkpt>
      <trkpt lat="44.67929" lon="5.09881">
        <ele>365.92</ele>
        <time>2022-05-18T13:28:59Z</time>
      </trkpt>
      <trkpt lat="44.67939" lon="5.09871">
        <ele>363.04</ele>
        <time>2022-05-18T13:29:17Z</time>
      </trkpt>
      <trkpt lat="44.67952" lon="5.09864">
        <ele>360.15</ele>
        <time>2022-05-18T13:29:35Z</time>
      </trkpt>
      <trkpt lat="44.67967" lon="5.09881">
        <ele>356.79</ele>
        <time>2022-05-18T13:29:58Z</time>
      </trkpt>
      <trkpt lat="44.67978" lon="5.09885">
        <ele>354.86</ele>
        <time>2022-05-18T13:30:11Z</time>
      </trkpt>
      <trkpt lat="44.67979" lon="5.09886">
        <ele>354.86</ele>
        <time>2022-05-18T13:30:12Z</time>
      </trkpt>
      <trkpt lat="44.67995" lon="5.09903">
        <ele>351.98</ele>
        <time>2022-05-18T13:30:32Z</time>
      </trkpt>
      <trkpt lat="44.68018" lon="5.09919">
        <ele>349.1</ele>
        <time>2022-05-18T13:30:56Z</time>
      </trkpt>
      <trkpt lat="44.68044" lon="5.09929">
        <ele>347.17</ele>
        <time>2022-05-18T13:31:21Z</time>
      </trkpt>
      <trkpt lat="44.68066" lon="5.09936">
        <ele>346.21</ele>
        <time>2022-05-18T13:31:43Z</time>
      </trkpt>
      <trkpt lat="44.68089" lon="5.09946">
        <ele>345.25</ele>
        <time>2022-05-18T13:32:06Z</time>
      </trkpt>
      <trkpt lat="44.68111" lon="5.09954">
        <ele>344.77</ele>
        <time>2022-05-18T13:32:29Z</time>
      </trkpt>
      <trkpt lat="44.68123" lon="5.09962">
        <ele>343.81</ele>
        <time>2022-05-18T13:32:43Z</time>
      </trkpt>
      <trkpt lat="44.68134" lon="5.09978">
        <ele>343.81</ele>
        <time>2022-05-18T13:33:02Z</time>
      </trkpt>
      <trkpt lat="44.68155" lon="5.09998">
        <ele>343.33</ele>
        <time>2022-05-18T13:33:26Z</time>
      </trkpt>
      <trkpt lat="44.68173" lon="5.10016">
        <ele>343.33</ele>
        <time>2022-05-18T13:33:48Z</time>
      </trkpt>
      <trkpt lat="44.68188" lon="5.10026">
        <ele>343.81</ele>
        <time>2022-05-18T13:34:07Z</time>
      </trkpt>
      <trkpt lat="44.682" lon="5.10044">
        <ele>344.77</ele>
        <time>2022-05-18T13:34:25Z</time>
      </trkpt>
      <trkpt lat="44.68211" lon="5.10065">
        <ele>345.73</ele>
        <time>2022-05-18T13:34:41Z</time>
      </trkpt>
      <trkpt lat="44.68222" lon="5.10084">
        <ele>347.17</ele>
        <time>2022-05-18T13:34:59Z</time>
      </trkpt>
      <trkpt lat="44.6823" lon="5.10098">
        <ele>348.62</ele>
        <time>2022-05-18T13:35:17Z</time>
      </trkpt>
      <trkpt lat="44.68241" lon="5.10112">
        <ele>349.58</ele>
        <time>2022-05-18T13:35:34Z</time>
      </trkpt>
      <trkpt lat="44.68243" lon="5.10115">
        <ele>350.06</ele>
        <time>2022-05-18T13:35:38Z</time>
      </trkpt>
      <trkpt lat="44.68245" lon="5.10117">
        <ele>350.06</ele>
        <time>2022-05-18T13:35:40Z</time>
      </trkpt>
      <trkpt lat="44.68246" lon="5.10118">
        <ele>350.06</ele>
        <time>2022-05-18T13:35:41Z</time>
      </trkpt>
      <trkpt lat="44.68247" lon="5.10119">
        <ele>350.06</ele>
        <time>2022-05-18T13:35:42Z</time>
      </trkpt>
      <trkpt lat="44.68258" lon="5.10135">
        <ele>351.02</ele>
        <time>2022-05-18T13:36:01Z</time>
      </trkpt>
      <trkpt lat="44.68262" lon="5.10138">
        <ele>351.5</ele>
        <time>2022-05-18T13:36:19Z</time>
      </trkpt>
      <trkpt lat="44.6827" lon="5.10147">
        <ele>351.02</ele>
        <time>2022-05-18T13:36:50Z</time>
      </trkpt>
      <trkpt lat="44.68293" lon="5.10166">
        <ele>350.54</ele>
        <time>2022-05-18T13:37:13Z</time>
      </trkpt>
      <trkpt lat="44.68316" lon="5.10187">
        <ele>349.1</ele>
        <time>2022-05-18T13:37:36Z</time>
      </trkpt>
      <trkpt lat="44.68336" lon="5.10199">
        <ele>346.21</ele>
        <time>2022-05-18T13:37:56Z</time>
      </trkpt>
      <trkpt lat="44.68356" lon="5.10206">
        <ele>343.33</ele>
        <time>2022-05-18T13:38:14Z</time>
      </trkpt>
      <trkpt lat="44.68372" lon="5.10216">
        <ele>339.96</ele>
        <time>2022-05-18T13:38:31Z</time>
      </trkpt>
      <trkpt lat="44.68388" lon="5.10229">
        <ele>338.04</ele>
        <time>2022-05-18T13:38:49Z</time>
      </trkpt>
      <trkpt lat="44.68404" lon="5.10242">
        <ele>336.6</ele>
        <time>2022-05-18T13:39:07Z</time>
      </trkpt>
      <trkpt lat="44.68412" lon="5.10245">
        <ele>336.12</ele>
        <time>2022-05-18T13:39:22Z</time>
      </trkpt>
      <trkpt lat="44.68413" lon="5.10245">
        <ele>335.64</ele>
        <time>2022-05-18T13:39:47Z</time>
      </trkpt>
      <trkpt lat="44.68413" lon="5.10245">
        <ele>331.79</ele>
        <time>2022-05-18T13:40:07Z</time>
      </trkpt>
      <trkpt lat="44.68413" lon="5.10246">
        <ele>334.68</ele>
        <time>2022-05-18T13:40:17Z</time>
      </trkpt>
      <trkpt lat="44.68413" lon="5.10246">
        <ele>335.64</ele>
        <time>2022-05-18T13:40:43Z</time>
      </trkpt>
      <trkpt lat="44.68413" lon="5.10246">
        <ele>335.64</ele>
        <time>2022-05-18T13:41:18Z</time>
      </trkpt>
      <trkpt lat="44.68412" lon="5.10246">
        <ele>335.64</ele>
        <time>2022-05-18T13:41:51Z</time>
      </trkpt>
      <trkpt lat="44.68412" lon="5.10246">
        <ele>335.64</ele>
        <time>2022-05-18T13:42:28Z</time>
      </trkpt>
      <trkpt lat="44.68412" lon="5.10246">
        <ele>335.64</ele>
        <time>2022-05-18T13:43:07Z</time>
      </trkpt>
      <trkpt lat="44.68412" lon="5.10246">
        <ele>335.64</ele>
        <time>2022-05-18T13:44:10Z</time>
      </trkpt>
      <trkpt lat="44.68416" lon="5.10249">
        <ele>335.64</ele>
        <time>2022-05-18T13:44:37Z</time>
      </trkpt>
      <trkpt lat="44.68423" lon="5.10255">
        <ele>335.64</ele>
        <time>2022-05-18T13:44:45Z</time>
      </trkpt>
      <trkpt lat="44.68424" lon="5.10256">
        <ele>335.64</ele>
        <time>2022-05-18T13:44:46Z</time>
      </trkpt>
      <trkpt lat="44.68425" lon="5.10256">
        <ele>335.64</ele>
        <time>2022-05-18T13:44:47Z</time>
      </trkpt>
      <trkpt lat="44.68441" lon="5.10267">
        <ele>337.56</ele>
        <time>2022-05-18T13:45:05Z</time>
      </trkpt>
      <trkpt lat="44.68457" lon="5.10273">
        <ele>340.44</ele>
        <time>2022-05-18T13:45:27Z</time>
      </trkpt>
      <trkpt lat="44.68486" lon="5.10265">
        <ele>341.89</ele>
        <time>2022-05-18T13:45:53Z</time>
      </trkpt>
      <trkpt lat="44.68501" lon="5.10262">
        <ele>341.89</ele>
        <time>2022-05-18T13:46:06Z</time>
      </trkpt>
      <trkpt lat="44.68518" lon="5.10258">
        <ele>341.89</ele>
        <time>2022-05-18T13:46:25Z</time>
      </trkpt>
      <trkpt lat="44.68525" lon="5.10256">
        <ele>341.89</ele>
        <time>2022-05-18T13:46:38Z</time>
      </trkpt>
      <trkpt lat="44.68538" lon="5.10254">
        <ele>342.37</ele>
        <time>2022-05-18T13:46:55Z</time>
      </trkpt>
      <trkpt lat="44.68562" lon="5.1025">
        <ele>343.81</ele>
        <time>2022-05-18T13:47:19Z</time>
      </trkpt>
      <trkpt lat="44.68578" lon="5.1025">
        <ele>344.77</ele>
        <time>2022-05-18T13:47:38Z</time>
      </trkpt>
      <trkpt lat="44.68593" lon="5.10251">
        <ele>346.21</ele>
        <time>2022-05-18T13:47:55Z</time>
      </trkpt>
      <trkpt lat="44.68616" lon="5.1025">
        <ele>348.62</ele>
        <time>2022-05-18T13:48:19Z</time>
      </trkpt>
      <trkpt lat="44.68635" lon="5.10252">
        <ele>350.54</ele>
        <time>2022-05-18T13:48:40Z</time>
      </trkpt>
      <trkpt lat="44.6866" lon="5.10263">
        <ele>352.94</ele>
        <time>2022-05-18T13:49:07Z</time>
      </trkpt>
      <trkpt lat="44.68687" lon="5.10263">
        <ele>353.42</ele>
        <time>2022-05-18T13:49:33Z</time>
      </trkpt>
      <trkpt lat="44.68693" lon="5.10262">
        <ele>353.42</ele>
        <time>2022-05-18T13:49:38Z</time>
      </trkpt>
      <trkpt lat="44.68717" lon="5.10259">
        <ele>354.38</ele>
        <time>2022-05-18T13:49:59Z</time>
      </trkpt>
      <trkpt lat="44.68742" lon="5.10254">
        <ele>355.34</ele>
        <time>2022-05-18T13:50:23Z</time>
      </trkpt>
      <trkpt lat="44.6875" lon="5.10253">
        <ele>355.83</ele>
        <time>2022-05-18T13:50:31Z</time>
      </trkpt>
      <trkpt lat="44.68752" lon="5.10252">
        <ele>355.83</ele>
        <time>2022-05-18T13:50:32Z</time>
      </trkpt>
      <trkpt lat="44.68753" lon="5.10252">
        <ele>355.83</ele>
        <time>2022-05-18T13:50:33Z</time>
      </trkpt>
      <trkpt lat="44.68782" lon="5.10245">
        <ele>356.79</ele>
        <time>2022-05-18T13:51:01Z</time>
      </trkpt>
      <trkpt lat="44.68806" lon="5.10252">
        <ele>356.31</ele>
        <time>2022-05-18T13:51:18Z</time>
      </trkpt>
      <trkpt lat="44.68824" lon="5.10259">
        <ele>354.86</ele>
        <time>2022-05-18T13:51:34Z</time>
      </trkpt>
      <trkpt lat="44.68842" lon="5.10264">
        <ele>353.9</ele>
        <time>2022-05-18T13:51:51Z</time>
      </trkpt>
      <trkpt lat="44.68873" lon="5.10276">
        <ele>352.46</ele>
        <time>2022-05-18T13:52:21Z</time>
      </trkpt>
      <trkpt lat="44.68895" lon="5.10289">
        <ele>351.5</ele>
        <time>2022-05-18T13:52:41Z</time>
      </trkpt>
      <trkpt lat="44.689" lon="5.10293">
        <ele>351.5</ele>
        <time>2022-05-18T13:52:46Z</time>
      </trkpt>
      <trkpt lat="44.68904" lon="5.10295">
        <ele>351.5</ele>
        <time>2022-05-18T13:52:49Z</time>
      </trkpt>
      <trkpt lat="44.68905" lon="5.10296">
        <ele>351.02</ele>
        <time>2022-05-18T13:52:50Z</time>
      </trkpt>
      <trkpt lat="44.68906" lon="5.10297">
        <ele>351.02</ele>
        <time>2022-05-18T13:52:51Z</time>
      </trkpt>
      <trkpt lat="44.68926" lon="5.10308">
        <ele>351.02</ele>
        <time>2022-05-18T13:53:07Z</time>
      </trkpt>
      <trkpt lat="44.68936" lon="5.10312">
        <ele>350.54</ele>
        <time>2022-05-18T13:53:17Z</time>
      </trkpt>
      <trkpt lat="44.68937" lon="5.10312">
        <ele>350.54</ele>
        <time>2022-05-18T13:53:18Z</time>
      </trkpt>
      <trkpt lat="44.68954" lon="5.10326">
        <ele>349.1</ele>
        <time>2022-05-18T13:53:34Z</time>
      </trkpt>
      <trkpt lat="44.68957" lon="5.10329">
        <ele>349.1</ele>
        <time>2022-05-18T13:53:38Z</time>
      </trkpt>
      <trkpt lat="44.68957" lon="5.1033">
        <ele>349.1</ele>
        <time>2022-05-18T13:53:39Z</time>
      </trkpt>
      <trkpt lat="44.68958" lon="5.10331">
        <ele>348.62</ele>
        <time>2022-05-18T13:53:40Z</time>
      </trkpt>
      <trkpt lat="44.68959" lon="5.10332">
        <ele>348.62</ele>
        <time>2022-05-18T13:53:41Z</time>
      </trkpt>
      <trkpt lat="44.68971" lon="5.10342">
        <ele>347.17</ele>
        <time>2022-05-18T13:53:59Z</time>
      </trkpt>
      <trkpt lat="44.68977" lon="5.10343">
        <ele>346.69</ele>
        <time>2022-05-18T13:54:05Z</time>
      </trkpt>
      <trkpt lat="44.68978" lon="5.10343">
        <ele>346.69</ele>
        <time>2022-05-18T13:54:06Z</time>
      </trkpt>
      <trkpt lat="44.68989" lon="5.10346">
        <ele>345.73</ele>
        <time>2022-05-18T13:54:16Z</time>
      </trkpt>
      <trkpt lat="44.69001" lon="5.10356">
        <ele>343.81</ele>
        <time>2022-05-18T13:54:31Z</time>
      </trkpt>
      <trkpt lat="44.69016" lon="5.10363">
        <ele>341.89</ele>
        <time>2022-05-18T13:54:48Z</time>
      </trkpt>
      <trkpt lat="44.69017" lon="5.10362">
        <ele>341.89</ele>
        <time>2022-05-18T13:54:49Z</time>
      </trkpt>
      <trkpt lat="44.69034" lon="5.10359">
        <ele>339.96</ele>
        <time>2022-05-18T13:55:08Z</time>
      </trkpt>
      <trkpt lat="44.69039" lon="5.10361">
        <ele>339.48</ele>
        <time>2022-05-18T13:55:12Z</time>
      </trkpt>
      <trkpt lat="44.69054" lon="5.10367">
        <ele>339</ele>
        <time>2022-05-18T13:55:30Z</time>
      </trkpt>
      <trkpt lat="44.69067" lon="5.10379">
        <ele>338.04</ele>
        <time>2022-05-18T13:55:49Z</time>
      </trkpt>
      <trkpt lat="44.69091" lon="5.10381">
        <ele>337.56</ele>
        <time>2022-05-18T13:56:21Z</time>
      </trkpt>
      <trkpt lat="44.69117" lon="5.10389">
        <ele>338.52</ele>
        <time>2022-05-18T13:56:42Z</time>
      </trkpt>
      <trkpt lat="44.69138" lon="5.10397">
        <ele>341.41</ele>
        <time>2022-05-18T13:57:05Z</time>
      </trkpt>
      <trkpt lat="44.69152" lon="5.104">
        <ele>344.77</ele>
        <time>2022-05-18T13:57:26Z</time>
      </trkpt>
      <trkpt lat="44.69178" lon="5.10402">
        <ele>347.17</ele>
        <time>2022-05-18T13:57:54Z</time>
      </trkpt>
      <trkpt lat="44.69208" lon="5.10402">
        <ele>347.65</ele>
        <time>2022-05-18T13:58:22Z</time>
      </trkpt>
      <trkpt lat="44.69235" lon="5.10398">
        <ele>345.73</ele>
        <time>2022-05-18T13:58:45Z</time>
      </trkpt>
      <trkpt lat="44.69249" lon="5.10398">
        <ele>343.81</ele>
        <time>2022-05-18T13:59:00Z</time>
      </trkpt>
      <trkpt lat="44.69261" lon="5.10396">
        <ele>342.37</ele>
        <time>2022-05-18T13:59:11Z</time>
      </trkpt>
      <trkpt lat="44.69262" lon="5.10396">
        <ele>342.37</ele>
        <time>2022-05-18T13:59:12Z</time>
      </trkpt>
      <trkpt lat="44.69274" lon="5.10393">
        <ele>341.41</ele>
        <time>2022-05-18T13:59:24Z</time>
      </trkpt>
      <trkpt lat="44.69284" lon="5.10391">
        <ele>340.44</ele>
        <time>2022-05-18T13:59:34Z</time>
      </trkpt>
      <trkpt lat="44.69297" lon="5.10388">
        <ele>339.48</ele>
        <time>2022-05-18T13:59:47Z</time>
      </trkpt>
      <trkpt lat="44.69308" lon="5.10383">
        <ele>338.52</ele>
        <time>2022-05-18T13:59:58Z</time>
      </trkpt>
      <trkpt lat="44.69325" lon="5.10374">
        <ele>337.56</ele>
        <time>2022-05-18T14:00:14Z</time>
      </trkpt>
      <trkpt lat="44.69329" lon="5.10373">
        <ele>337.08</ele>
        <time>2022-05-18T14:00:19Z</time>
      </trkpt>
      <trkpt lat="44.6933" lon="5.10372">
        <ele>337.08</ele>
        <time>2022-05-18T14:00:20Z</time>
      </trkpt>
      <trkpt lat="44.69338" lon="5.10372">
        <ele>336.6</ele>
        <time>2022-05-18T14:00:29Z</time>
      </trkpt>
      <trkpt lat="44.69339" lon="5.10371">
        <ele>336.6</ele>
        <time>2022-05-18T14:00:30Z</time>
      </trkpt>
      <trkpt lat="44.69353" lon="5.10371">
        <ele>334.68</ele>
        <time>2022-05-18T14:00:47Z</time>
      </trkpt>
      <trkpt lat="44.69366" lon="5.1037">
        <ele>333.23</ele>
        <time>2022-05-18T14:01:01Z</time>
      </trkpt>
      <trkpt lat="44.69382" lon="5.10368">
        <ele>332.75</ele>
        <time>2022-05-18T14:01:17Z</time>
      </trkpt>
      <trkpt lat="44.69396" lon="5.10363">
        <ele>331.31</ele>
        <time>2022-05-18T14:01:34Z</time>
      </trkpt>
      <trkpt lat="44.69411" lon="5.1036">
        <ele>330.35</ele>
        <time>2022-05-18T14:01:50Z</time>
      </trkpt>
      <trkpt lat="44.69412" lon="5.1036">
        <ele>330.35</ele>
        <time>2022-05-18T14:01:51Z</time>
      </trkpt>
      <trkpt lat="44.69427" lon="5.10357">
        <ele>328.43</ele>
        <time>2022-05-18T14:02:09Z</time>
      </trkpt>
      <trkpt lat="44.69443" lon="5.10349">
        <ele>326.02</ele>
        <time>2022-05-18T14:02:27Z</time>
      </trkpt>
      <trkpt lat="44.6946" lon="5.10352">
        <ele>325.06</ele>
        <time>2022-05-18T14:02:45Z</time>
      </trkpt>
      <trkpt lat="44.69481" lon="5.10343">
        <ele>324.58</ele>
        <time>2022-05-18T14:03:04Z</time>
      </trkpt>
      <trkpt lat="44.69498" lon="5.1033">
        <ele>325.06</ele>
        <time>2022-05-18T14:03:22Z</time>
      </trkpt>
      <trkpt lat="44.69509" lon="5.10316">
        <ele>325.54</ele>
        <time>2022-05-18T14:03:37Z</time>
      </trkpt>
      <trkpt lat="44.69522" lon="5.10293">
        <ele>324.58</ele>
        <time>2022-05-18T14:03:58Z</time>
      </trkpt>
      <trkpt lat="44.69531" lon="5.10274">
        <ele>322.18</ele>
        <time>2022-05-18T14:04:14Z</time>
      </trkpt>
      <trkpt lat="44.69537" lon="5.10261">
        <ele>321.22</ele>
        <time>2022-05-18T14:04:31Z</time>
      </trkpt>
      <trkpt lat="44.69548" lon="5.10242">
        <ele>319.3</ele>
        <time>2022-05-18T14:04:49Z</time>
      </trkpt>
      <trkpt lat="44.69562" lon="5.1023">
        <ele>318.33</ele>
        <time>2022-05-18T14:05:06Z</time>
      </trkpt>
      <trkpt lat="44.69571" lon="5.10212">
        <ele>316.89</ele>
        <time>2022-05-18T14:05:29Z</time>
      </trkpt>
      <trkpt lat="44.69574" lon="5.10209">
        <ele>316.41</ele>
        <time>2022-05-18T14:05:36Z</time>
      </trkpt>
      <trkpt lat="44.69599" lon="5.10192">
        <ele>313.53</ele>
        <time>2022-05-18T14:05:58Z</time>
      </trkpt>
      <trkpt lat="44.69612" lon="5.10181">
        <ele>311.6</ele>
        <time>2022-05-18T14:06:16Z</time>
      </trkpt>
      <trkpt lat="44.69614" lon="5.10179">
        <ele>310.64</ele>
        <time>2022-05-18T14:06:33Z</time>
      </trkpt>
      <trkpt lat="44.69623" lon="5.10173">
        <ele>310.16</ele>
        <time>2022-05-18T14:06:52Z</time>
      </trkpt>
      <trkpt lat="44.69634" lon="5.10162">
        <ele>308.24</ele>
        <time>2022-05-18T14:07:10Z</time>
      </trkpt>
      <trkpt lat="44.69647" lon="5.10155">
        <ele>306.32</ele>
        <time>2022-05-18T14:07:27Z</time>
      </trkpt>
      <trkpt lat="44.69662" lon="5.10149">
        <ele>303.43</ele>
        <time>2022-05-18T14:07:46Z</time>
      </trkpt>
      <trkpt lat="44.69673" lon="5.10144">
        <ele>301.51</ele>
        <time>2022-05-18T14:07:58Z</time>
      </trkpt>
      <trkpt lat="44.69683" lon="5.10134">
        <ele>299.59</ele>
        <time>2022-05-18T14:08:11Z</time>
      </trkpt>
      <trkpt lat="44.69684" lon="5.10134">
        <ele>299.59</ele>
        <time>2022-05-18T14:08:12Z</time>
      </trkpt>
      <trkpt lat="44.69685" lon="5.10134">
        <ele>299.59</ele>
        <time>2022-05-18T14:08:13Z</time>
      </trkpt>
      <trkpt lat="44.69688" lon="5.10132">
        <ele>299.11</ele>
        <time>2022-05-18T14:08:16Z</time>
      </trkpt>
      <trkpt lat="44.69691" lon="5.1013">
        <ele>298.63</ele>
        <time>2022-05-18T14:08:20Z</time>
      </trkpt>
      <trkpt lat="44.69693" lon="5.10129">
        <ele>298.63</ele>
        <time>2022-05-18T14:08:21Z</time>
      </trkpt>
      <trkpt lat="44.69708" lon="5.10123">
        <ele>296.22</ele>
        <time>2022-05-18T14:08:37Z</time>
      </trkpt>
      <trkpt lat="44.69722" lon="5.10115">
        <ele>293.82</ele>
        <time>2022-05-18T14:08:53Z</time>
      </trkpt>
      <trkpt lat="44.69731" lon="5.10111">
        <ele>291.9</ele>
        <time>2022-05-18T14:09:05Z</time>
      </trkpt>
      <trkpt lat="44.69732" lon="5.10111">
        <ele>291.9</ele>
        <time>2022-05-18T14:09:06Z</time>
      </trkpt>
      <trkpt lat="44.6974" lon="5.10109">
        <ele>289.49</ele>
        <time>2022-05-18T14:09:18Z</time>
      </trkpt>
      <trkpt lat="44.69741" lon="5.10109">
        <ele>289.49</ele>
        <time>2022-05-18T14:09:19Z</time>
      </trkpt>
      <trkpt lat="44.69742" lon="5.10109">
        <ele>289.49</ele>
        <time>2022-05-18T14:09:20Z</time>
      </trkpt>
      <trkpt lat="44.69743" lon="5.10108">
        <ele>289.01</ele>
        <time>2022-05-18T14:09:21Z</time>
      </trkpt>
      <trkpt lat="44.69744" lon="5.10108">
        <ele>289.01</ele>
        <time>2022-05-18T14:09:22Z</time>
      </trkpt>
      <trkpt lat="44.69756" lon="5.10101">
        <ele>288.05</ele>
        <time>2022-05-18T14:09:35Z</time>
      </trkpt>
      <trkpt lat="44.69757" lon="5.101">
        <ele>287.57</ele>
        <time>2022-05-18T14:09:36Z</time>
      </trkpt>
      <trkpt lat="44.69763" lon="5.10095">
        <ele>286.61</ele>
        <time>2022-05-18T14:09:51Z</time>
      </trkpt>
      <trkpt lat="44.69763" lon="5.10095">
        <ele>286.61</ele>
        <time>2022-05-18T14:10:11Z</time>
      </trkpt>
      <trkpt lat="44.69765" lon="5.10094">
        <ele>286.61</ele>
        <time>2022-05-18T14:10:34Z</time>
      </trkpt>
      <trkpt lat="44.69773" lon="5.10088">
        <ele>286.61</ele>
        <time>2022-05-18T14:10:45Z</time>
      </trkpt>
      <trkpt lat="44.69781" lon="5.10076">
        <ele>286.13</ele>
        <time>2022-05-18T14:10:56Z</time>
      </trkpt>
      <trkpt lat="44.69781" lon="5.10074">
        <ele>286.13</ele>
        <time>2022-05-18T14:10:57Z</time>
      </trkpt>
      <trkpt lat="44.69781" lon="5.10072">
        <ele>286.13</ele>
        <time>2022-05-18T14:10:58Z</time>
      </trkpt>
      <trkpt lat="44.69782" lon="5.10071">
        <ele>286.13</ele>
        <time>2022-05-18T14:10:59Z</time>
      </trkpt>
      <trkpt lat="44.69782" lon="5.10069">
        <ele>286.13</ele>
        <time>2022-05-18T14:11:00Z</time>
      </trkpt>
      <trkpt lat="44.69782" lon="5.10068">
        <ele>286.13</ele>
        <time>2022-05-18T14:11:01Z</time>
      </trkpt>
      <trkpt lat="44.69792" lon="5.10041">
        <ele>284.69</ele>
        <time>2022-05-18T14:11:23Z</time>
      </trkpt>
      <trkpt lat="44.69793" lon="5.10032">
        <ele>284.69</ele>
        <time>2022-05-18T14:11:31Z</time>
      </trkpt>
      <trkpt lat="44.69794" lon="5.1003">
        <ele>284.69</ele>
        <time>2022-05-18T14:11:32Z</time>
      </trkpt>
      <trkpt lat="44.69797" lon="5.10025">
        <ele>283.73</ele>
        <time>2022-05-18T14:11:46Z</time>
      </trkpt>
      <trkpt lat="44.69796" lon="5.10022">
        <ele>283.73</ele>
        <time>2022-05-18T14:12:14Z</time>
      </trkpt>
      <trkpt lat="44.69795" lon="5.1002">
        <ele>283.73</ele>
        <time>2022-05-18T14:12:16Z</time>
      </trkpt>
      <trkpt lat="44.69794" lon="5.10018">
        <ele>283.73</ele>
        <time>2022-05-18T14:12:17Z</time>
      </trkpt>
      <trkpt lat="44.69794" lon="5.10016">
        <ele>283.73</ele>
        <time>2022-05-18T14:12:18Z</time>
      </trkpt>
      <trkpt lat="44.69794" lon="5.10015">
        <ele>283.73</ele>
        <time>2022-05-18T14:12:19Z</time>
      </trkpt>
      <trkpt lat="44.69794" lon="5.10013">
        <ele>283.73</ele>
        <time>2022-05-18T14:12:20Z</time>
      </trkpt>
      <trkpt lat="44.69798" lon="5.09986">
        <ele>281.32</ele>
        <time>2022-05-18T14:12:38Z</time>
      </trkpt>
      <trkpt lat="44.69811" lon="5.09966">
        <ele>278.44</ele>
        <time>2022-05-18T14:12:53Z</time>
      </trkpt>
      <trkpt lat="44.69827" lon="5.09941">
        <ele>275.07</ele>
        <time>2022-05-18T14:13:14Z</time>
      </trkpt>
      <trkpt lat="44.69847" lon="5.09923">
        <ele>272.19</ele>
        <time>2022-05-18T14:13:36Z</time>
      </trkpt>
      <trkpt lat="44.69869" lon="5.09904">
        <ele>268.83</ele>
        <time>2022-05-18T14:13:59Z</time>
      </trkpt>
      <trkpt lat="44.69886" lon="5.09886">
        <ele>265.94</ele>
        <time>2022-05-18T14:14:20Z</time>
      </trkpt>
      <trkpt lat="44.69892" lon="5.0988">
        <ele>264.02</ele>
        <time>2022-05-18T14:14:32Z</time>
      </trkpt>
      <trkpt lat="44.69893" lon="5.09879">
        <ele>264.02</ele>
        <time>2022-05-18T14:14:33Z</time>
      </trkpt>
      <trkpt lat="44.69894" lon="5.09878">
        <ele>264.02</ele>
        <time>2022-05-18T14:14:34Z</time>
      </trkpt>
      <trkpt lat="44.69917" lon="5.09864">
        <ele>261.62</ele>
        <time>2022-05-18T14:14:57Z</time>
      </trkpt>
      <trkpt lat="44.69929" lon="5.09851">
        <ele>259.21</ele>
        <time>2022-05-18T14:15:12Z</time>
      </trkpt>
      <trkpt lat="44.69941" lon="5.09852">
        <ele>256.33</ele>
        <time>2022-05-18T14:15:30Z</time>
      </trkpt>
      <trkpt lat="44.69945" lon="5.09852">
        <ele>255.85</ele>
        <time>2022-05-18T14:15:37Z</time>
      </trkpt>
      <trkpt lat="44.69945" lon="5.09852">
        <ele>255.37</ele>
        <time>2022-05-18T14:15:38Z</time>
      </trkpt>
      <trkpt lat="44.69947" lon="5.09852">
        <ele>255.37</ele>
        <time>2022-05-18T14:15:39Z</time>
      </trkpt>
      <trkpt lat="44.69948" lon="5.09851">
        <ele>255.37</ele>
        <time>2022-05-18T14:15:40Z</time>
      </trkpt>
      <trkpt lat="44.69949" lon="5.0985">
        <ele>255.37</ele>
        <time>2022-05-18T14:15:41Z</time>
      </trkpt>
      <trkpt lat="44.69949" lon="5.09848">
        <ele>255.37</ele>
        <time>2022-05-18T14:15:42Z</time>
      </trkpt>
      <trkpt lat="44.69949" lon="5.09846">
        <ele>255.37</ele>
        <time>2022-05-18T14:15:43Z</time>
      </trkpt>
      <trkpt lat="44.69949" lon="5.09845">
        <ele>255.37</ele>
        <time>2022-05-18T14:15:44Z</time>
      </trkpt>
      <trkpt lat="44.6995" lon="5.09843">
        <ele>254.89</ele>
        <time>2022-05-18T14:15:45Z</time>
      </trkpt>
      <trkpt lat="44.6995" lon="5.09841">
        <ele>254.89</ele>
        <time>2022-05-18T14:15:46Z</time>
      </trkpt>
      <trkpt lat="44.6995" lon="5.09839">
        <ele>254.89</ele>
        <time>2022-05-18T14:15:47Z</time>
      </trkpt>
      <trkpt lat="44.6995" lon="5.09814">
        <ele>253.44</ele>
        <time>2022-05-18T14:16:03Z</time>
      </trkpt>
      <trkpt lat="44.6995" lon="5.09807">
        <ele>252.96</ele>
        <time>2022-05-18T14:16:08Z</time>
      </trkpt>
      <trkpt lat="44.6995" lon="5.09806">
        <ele>252.96</ele>
        <time>2022-05-18T14:16:09Z</time>
      </trkpt>
      <trkpt lat="44.6995" lon="5.09804">
        <ele>252.96</ele>
        <time>2022-05-18T14:16:10Z</time>
      </trkpt>
      <trkpt lat="44.6995" lon="5.0978">
        <ele>252</ele>
        <time>2022-05-18T14:16:27Z</time>
      </trkpt>
      <trkpt lat="44.69942" lon="5.09768">
        <ele>251.52</ele>
        <time>2022-05-18T14:16:44Z</time>
      </trkpt>
      <trkpt lat="44.69939" lon="5.09767">
        <ele>251.04</ele>
        <time>2022-05-18T14:16:49Z</time>
      </trkpt>
      <trkpt lat="44.69936" lon="5.09767">
        <ele>251.52</ele>
        <time>2022-05-18T14:16:51Z</time>
      </trkpt>
      <trkpt lat="44.6992" lon="5.09767">
        <ele>251.52</ele>
        <time>2022-05-18T14:17:07Z</time>
      </trkpt>
      <trkpt lat="44.69918" lon="5.09766">
        <ele>251.52</ele>
        <time>2022-05-18T14:17:09Z</time>
      </trkpt>
      <trkpt lat="44.69917" lon="5.09766">
        <ele>252</ele>
        <time>2022-05-18T14:17:10Z</time>
      </trkpt>
      <trkpt lat="44.69897" lon="5.09765">
        <ele>252</ele>
        <time>2022-05-18T14:17:29Z</time>
      </trkpt>
      <trkpt lat="44.69895" lon="5.09764">
        <ele>252</ele>
        <time>2022-05-18T14:17:30Z</time>
      </trkpt>
      <trkpt lat="44.69874" lon="5.09766">
        <ele>252</ele>
        <time>2022-05-18T14:17:48Z</time>
      </trkpt>
      <trkpt lat="44.69849" lon="5.09773">
        <ele>252.48</ele>
        <time>2022-05-18T14:18:09Z</time>
      </trkpt>
      <trkpt lat="44.69827" lon="5.09781">
        <ele>252.96</ele>
        <time>2022-05-18T14:18:28Z</time>
      </trkpt>
      <trkpt lat="44.69827" lon="5.09783">
        <ele>252.96</ele>
        <time>2022-05-18T14:18:29Z</time>
      </trkpt>
      <trkpt lat="44.69827" lon="5.09806">
        <ele>253.44</ele>
        <time>2022-05-18T14:18:47Z</time>
      </trkpt>
      <trkpt lat="44.6983" lon="5.09812">
        <ele>253.93</ele>
        <time>2022-05-18T14:19:00Z</time>
      </trkpt>
      <trkpt lat="44.6983" lon="5.09813">
        <ele>254.41</ele>
        <time>2022-05-18T14:19:16Z</time>
      </trkpt>
      <trkpt lat="44.6983" lon="5.09813">
        <ele>252.96</ele>
        <time>2022-05-18T14:19:34Z</time>
      </trkpt>
      <trkpt lat="44.6983" lon="5.09813">
        <ele>254.41</ele>
        <time>2022-05-18T14:19:54Z</time>
      </trkpt>
      <trkpt lat="44.6983" lon="5.09813">
        <ele>254.41</ele>
        <time>2022-05-18T14:20:15Z</time>
      </trkpt>
      <trkpt lat="44.6983" lon="5.09813">
        <ele>254.41</ele>
        <time>2022-05-18T14:20:28Z</time>
      </trkpt>
      <trkpt lat="44.6983" lon="5.09813">
        <ele>254.41</ele>
        <time>2022-05-18T14:20:46Z</time>
      </trkpt>
      <trkpt lat="44.69831" lon="5.09814">
        <ele>254.41</ele>
        <time>2022-05-18T14:21:06Z</time>
      </trkpt>
      <trkpt lat="44.69831" lon="5.09814">
        <ele>254.41</ele>
        <time>2022-05-18T14:21:28Z</time>
      </trkpt>
    </trkseg>
  </trk>
</gpx>